<?xml version="1.0" encoding="UTF-8" standalone="no" ?>
<gpx xmlns="http://www.topografix.com/GPX/1/1" xmlns:xsi="http://www.w3.org/2001/XMLSchema-instance" xsi:schemaLocation="http://www.topografix.com/GPX/1/1 http://www.topografix.com/GPX/1/1/gpx.xsd" version="1.1" creator="VisuGPX - https://www.visugpx.com">
  <metadata>
    <name>Mini circuit Pont 3</name>
    <desc><![CDATA[Minicircuit Pont sur Vanne pour RY Vn Gd 
.....]]></desc>
  </metadata>
  <trk>
    <name><![CDATA[20180102214452-DeLxl]]></name>
    <trkseg>
      <trkpt lat="48.18457" lon="3.44296">
        <ele>78.800003051758</ele>
        <time>2017-12-24T08:36:25.000Z</time>
      </trkpt>
      <trkpt lat="48.18457" lon="3.44308">
        <ele>78.800003051758</ele>
        <time>2017-12-24T08:36:28.000Z</time>
      </trkpt>
      <trkpt lat="48.18458" lon="3.44313">
        <ele>79.400001525879</ele>
        <time>2017-12-24T08:36:29.000Z</time>
      </trkpt>
      <trkpt lat="48.18458" lon="3.44317">
        <ele>79.800003051758</ele>
        <time>2017-12-24T08:36:30.000Z</time>
      </trkpt>
      <trkpt lat="48.18458" lon="3.44322">
        <ele>80.400001525879</ele>
        <time>2017-12-24T08:36:31.000Z</time>
      </trkpt>
      <trkpt lat="48.18458" lon="3.44326">
        <ele>80.800003051758</ele>
        <time>2017-12-24T08:36:32.000Z</time>
      </trkpt>
      <trkpt lat="48.18455" lon="3.4434">
        <ele>80.800003051758</ele>
        <time>2017-12-24T08:36:36.000Z</time>
      </trkpt>
      <trkpt lat="48.18459" lon="3.44337">
        <ele>80.800003051758</ele>
        <time>2017-12-24T08:36:39.000Z</time>
      </trkpt>
      <trkpt lat="48.18455" lon="3.44338">
        <ele>80.800003051758</ele>
        <time>2017-12-24T08:36:42.000Z</time>
      </trkpt>
      <trkpt lat="48.1846" lon="3.44342">
        <ele>80.800003051758</ele>
        <time>2017-12-24T08:36:45.000Z</time>
      </trkpt>
      <trkpt lat="48.18458" lon="3.44335">
        <ele>80.800003051758</ele>
        <time>2017-12-24T08:36:48.000Z</time>
      </trkpt>
      <trkpt lat="48.18455" lon="3.4434">
        <ele>80.800003051758</ele>
        <time>2017-12-24T08:36:51.000Z</time>
      </trkpt>
      <trkpt lat="48.1846" lon="3.44336">
        <ele>80.800003051758</ele>
        <time>2017-12-24T08:36:54.000Z</time>
      </trkpt>
      <trkpt lat="48.18457" lon="3.44337">
        <ele>80.800003051758</ele>
        <time>2017-12-24T08:36:57.000Z</time>
      </trkpt>
      <trkpt lat="48.18461" lon="3.44339">
        <ele>80.800003051758</ele>
        <time>2017-12-24T08:37:00.000Z</time>
      </trkpt>
      <trkpt lat="48.18458" lon="3.44336">
        <ele>80.800003051758</ele>
        <time>2017-12-24T08:37:03.000Z</time>
      </trkpt>
      <trkpt lat="48.18458" lon="3.4434">
        <ele>80.800003051758</ele>
        <time>2017-12-24T08:37:07.000Z</time>
      </trkpt>
      <trkpt lat="48.18458" lon="3.4434">
        <ele>80.800003051758</ele>
        <time>2017-12-24T08:37:09.000Z</time>
      </trkpt>
      <trkpt lat="48.18461" lon="3.44339">
        <ele>80.800003051758</ele>
        <time>2017-12-24T08:37:25.000Z</time>
      </trkpt>
      <trkpt lat="48.18461" lon="3.44336">
        <ele>80.800003051758</ele>
        <time>2017-12-24T08:37:27.000Z</time>
      </trkpt>
      <trkpt lat="48.18456" lon="3.44338">
        <ele>80.800003051758</ele>
        <time>2017-12-24T08:37:31.000Z</time>
      </trkpt>
      <trkpt lat="48.18458" lon="3.44342">
        <ele>80.800003051758</ele>
        <time>2017-12-24T08:37:35.000Z</time>
      </trkpt>
      <trkpt lat="48.18459" lon="3.44342">
        <ele>80.800003051758</ele>
        <time>2017-12-24T08:37:36.000Z</time>
      </trkpt>
      <trkpt lat="48.18461" lon="3.44341">
        <ele>80.800003051758</ele>
        <time>2017-12-24T08:37:39.000Z</time>
      </trkpt>
      <trkpt lat="48.18461" lon="3.4434">
        <ele>80.800003051758</ele>
        <time>2017-12-24T08:37:40.000Z</time>
      </trkpt>
      <trkpt lat="48.18458" lon="3.44344">
        <ele>80.800003051758</ele>
        <time>2017-12-24T08:37:52.000Z</time>
      </trkpt>
      <trkpt lat="48.18459" lon="3.44343">
        <ele>80.800003051758</ele>
        <time>2017-12-24T08:37:54.000Z</time>
      </trkpt>
      <trkpt lat="48.1846" lon="3.44342">
        <ele>80.800003051758</ele>
        <time>2017-12-24T08:37:56.000Z</time>
      </trkpt>
      <trkpt lat="48.18456" lon="3.44341">
        <ele>80.800003051758</ele>
        <time>2017-12-24T08:38:09.000Z</time>
      </trkpt>
      <trkpt lat="48.18459" lon="3.44342">
        <ele>80.800003051758</ele>
        <time>2017-12-24T08:38:11.000Z</time>
      </trkpt>
      <trkpt lat="48.18462" lon="3.44333">
        <ele>80.800003051758</ele>
        <time>2017-12-24T08:38:15.000Z</time>
      </trkpt>
      <trkpt lat="48.18462" lon="3.44325">
        <ele>80.800003051758</ele>
        <time>2017-12-24T08:38:17.000Z</time>
      </trkpt>
      <trkpt lat="48.1846" lon="3.44309">
        <ele>80.800003051758</ele>
        <time>2017-12-24T08:38:21.000Z</time>
      </trkpt>
      <trkpt lat="48.1846" lon="3.44295">
        <ele>80.800003051758</ele>
        <time>2017-12-24T08:38:24.000Z</time>
      </trkpt>
      <trkpt lat="48.18459" lon="3.44272">
        <ele>80.800003051758</ele>
        <time>2017-12-24T08:38:29.000Z</time>
      </trkpt>
      <trkpt lat="48.18457" lon="3.44246">
        <ele>80.800003051758</ele>
        <time>2017-12-24T08:38:34.000Z</time>
      </trkpt>
      <trkpt lat="48.18456" lon="3.4424">
        <ele>80.800003051758</ele>
        <time>2017-12-24T08:38:35.000Z</time>
      </trkpt>
      <trkpt lat="48.18452" lon="3.44201">
        <ele>80.800003051758</ele>
        <time>2017-12-24T08:38:42.000Z</time>
      </trkpt>
      <trkpt lat="48.18452" lon="3.44195">
        <ele>80.800003051758</ele>
        <time>2017-12-24T08:38:43.000Z</time>
      </trkpt>
      <trkpt lat="48.18451" lon="3.44182">
        <ele>80.800003051758</ele>
        <time>2017-12-24T08:38:45.000Z</time>
      </trkpt>
      <trkpt lat="48.18449" lon="3.44163">
        <ele>80.800003051758</ele>
        <time>2017-12-24T08:38:48.000Z</time>
      </trkpt>
      <trkpt lat="48.18448" lon="3.4415">
        <ele>80.800003051758</ele>
        <time>2017-12-24T08:38:50.000Z</time>
      </trkpt>
      <trkpt lat="48.18447" lon="3.44133">
        <ele>80.800003051758</ele>
        <time>2017-12-24T08:38:53.000Z</time>
      </trkpt>
      <trkpt lat="48.18445" lon="3.44115">
        <ele>80.800003051758</ele>
        <time>2017-12-24T08:38:56.000Z</time>
      </trkpt>
      <trkpt lat="48.18444" lon="3.44109">
        <ele>80.800003051758</ele>
        <time>2017-12-24T08:38:57.000Z</time>
      </trkpt>
      <trkpt lat="48.18443" lon="3.44097">
        <ele>80.800003051758</ele>
        <time>2017-12-24T08:38:59.000Z</time>
      </trkpt>
      <trkpt lat="48.18443" lon="3.44091">
        <ele>80.800003051758</ele>
        <time>2017-12-24T08:39:00.000Z</time>
      </trkpt>
      <trkpt lat="48.18443" lon="3.44085">
        <ele>81</ele>
        <time>2017-12-24T08:39:01.000Z</time>
      </trkpt>
      <trkpt lat="48.18442" lon="3.44079">
        <ele>81</ele>
        <time>2017-12-24T08:39:02.000Z</time>
      </trkpt>
      <trkpt lat="48.18441" lon="3.44072">
        <ele>81</ele>
        <time>2017-12-24T08:39:03.000Z</time>
      </trkpt>
      <trkpt lat="48.1844" lon="3.44066">
        <ele>81</ele>
        <time>2017-12-24T08:39:04.000Z</time>
      </trkpt>
      <trkpt lat="48.18431" lon="3.44016">
        <ele>81</ele>
        <time>2017-12-24T08:39:11.000Z</time>
      </trkpt>
      <trkpt lat="48.18428" lon="3.43966">
        <ele>81</ele>
        <time>2017-12-24T08:39:18.000Z</time>
      </trkpt>
      <trkpt lat="48.18428" lon="3.43946">
        <ele>81</ele>
        <time>2017-12-24T08:39:21.000Z</time>
      </trkpt>
      <trkpt lat="48.1843" lon="3.43927">
        <ele>81</ele>
        <time>2017-12-24T08:39:24.000Z</time>
      </trkpt>
      <trkpt lat="48.18431" lon="3.43914">
        <ele>81</ele>
        <time>2017-12-24T08:39:26.000Z</time>
      </trkpt>
      <trkpt lat="48.18435" lon="3.43884">
        <ele>81</ele>
        <time>2017-12-24T08:39:32.000Z</time>
      </trkpt>
      <trkpt lat="48.18436" lon="3.43878">
        <ele>81</ele>
        <time>2017-12-24T08:39:34.000Z</time>
      </trkpt>
      <trkpt lat="48.18436" lon="3.43871">
        <ele>81</ele>
        <time>2017-12-24T08:39:36.000Z</time>
      </trkpt>
      <trkpt lat="48.18436" lon="3.43866">
        <ele>81.400001525879</ele>
        <time>2017-12-24T08:39:37.000Z</time>
      </trkpt>
      <trkpt lat="48.18435" lon="3.43862">
        <ele>81.800003051758</ele>
        <time>2017-12-24T08:39:38.000Z</time>
      </trkpt>
      <trkpt lat="48.18434" lon="3.43856">
        <ele>82.400001525879</ele>
        <time>2017-12-24T08:39:39.000Z</time>
      </trkpt>
      <trkpt lat="48.18432" lon="3.43851">
        <ele>82.800003051758</ele>
        <time>2017-12-24T08:39:40.000Z</time>
      </trkpt>
      <trkpt lat="48.1843" lon="3.43846">
        <ele>83.199996948242</ele>
        <time>2017-12-24T08:39:41.000Z</time>
      </trkpt>
      <trkpt lat="48.18419" lon="3.43825">
        <ele>83.199996948242</ele>
        <time>2017-12-24T08:39:45.000Z</time>
      </trkpt>
      <trkpt lat="48.1841" lon="3.43809">
        <ele>83.199996948242</ele>
        <time>2017-12-24T08:39:48.000Z</time>
      </trkpt>
      <trkpt lat="48.1838" lon="3.43754">
        <ele>83.199996948242</ele>
        <time>2017-12-24T08:39:58.000Z</time>
      </trkpt>
      <trkpt lat="48.18351" lon="3.437">
        <ele>83.199996948242</ele>
        <time>2017-12-24T08:40:07.000Z</time>
      </trkpt>
      <trkpt lat="48.18338" lon="3.43674">
        <ele>83.199996948242</ele>
        <time>2017-12-24T08:40:11.000Z</time>
      </trkpt>
      <trkpt lat="48.18336" lon="3.43658">
        <ele>83.199996948242</ele>
        <time>2017-12-24T08:40:13.000Z</time>
      </trkpt>
      <trkpt lat="48.18334" lon="3.43627">
        <ele>83.199996948242</ele>
        <time>2017-12-24T08:40:17.000Z</time>
      </trkpt>
      <trkpt lat="48.18334" lon="3.4362">
        <ele>83.199996948242</ele>
        <time>2017-12-24T08:40:18.000Z</time>
      </trkpt>
      <trkpt lat="48.18335" lon="3.43593">
        <ele>83.199996948242</ele>
        <time>2017-12-24T08:40:22.000Z</time>
      </trkpt>
      <trkpt lat="48.18337" lon="3.4358">
        <ele>83.199996948242</ele>
        <time>2017-12-24T08:40:24.000Z</time>
      </trkpt>
      <trkpt lat="48.18338" lon="3.43574">
        <ele>83.199996948242</ele>
        <time>2017-12-24T08:40:25.000Z</time>
      </trkpt>
      <trkpt lat="48.18341" lon="3.43562">
        <ele>83.199996948242</ele>
        <time>2017-12-24T08:40:27.000Z</time>
      </trkpt>
      <trkpt lat="48.18347" lon="3.43543">
        <ele>83.199996948242</ele>
        <time>2017-12-24T08:40:30.000Z</time>
      </trkpt>
      <trkpt lat="48.18351" lon="3.4353">
        <ele>83.199996948242</ele>
        <time>2017-12-24T08:40:33.000Z</time>
      </trkpt>
      <trkpt lat="48.18352" lon="3.43524">
        <ele>83.599998474121</ele>
        <time>2017-12-24T08:40:34.000Z</time>
      </trkpt>
      <trkpt lat="48.18354" lon="3.43517">
        <ele>84.400001525879</ele>
        <time>2017-12-24T08:40:35.000Z</time>
      </trkpt>
      <trkpt lat="48.18355" lon="3.4351">
        <ele>84.800003051758</ele>
        <time>2017-12-24T08:40:36.000Z</time>
      </trkpt>
      <trkpt lat="48.18357" lon="3.43503">
        <ele>85.199996948242</ele>
        <time>2017-12-24T08:40:37.000Z</time>
      </trkpt>
      <trkpt lat="48.18359" lon="3.43496">
        <ele>85.199996948242</ele>
        <time>2017-12-24T08:40:38.000Z</time>
      </trkpt>
      <trkpt lat="48.18368" lon="3.43437">
        <ele>85.199996948242</ele>
        <time>2017-12-24T08:40:46.000Z</time>
      </trkpt>
      <trkpt lat="48.18369" lon="3.43422">
        <ele>85.199996948242</ele>
        <time>2017-12-24T08:40:48.000Z</time>
      </trkpt>
      <trkpt lat="48.18368" lon="3.43401">
        <ele>85.199996948242</ele>
        <time>2017-12-24T08:40:51.000Z</time>
      </trkpt>
      <trkpt lat="48.18364" lon="3.4335">
        <ele>85.199996948242</ele>
        <time>2017-12-24T08:40:58.000Z</time>
      </trkpt>
      <trkpt lat="48.18363" lon="3.43343">
        <ele>85.199996948242</ele>
        <time>2017-12-24T08:40:59.000Z</time>
      </trkpt>
      <trkpt lat="48.18356" lon="3.43303">
        <ele>85.199996948242</ele>
        <time>2017-12-24T08:41:05.000Z</time>
      </trkpt>
      <trkpt lat="48.1835" lon="3.43271">
        <ele>85.199996948242</ele>
        <time>2017-12-24T08:41:10.000Z</time>
      </trkpt>
      <trkpt lat="48.18346" lon="3.43252">
        <ele>85.599998474121</ele>
        <time>2017-12-24T08:41:13.000Z</time>
      </trkpt>
      <trkpt lat="48.18345" lon="3.43246">
        <ele>86</ele>
        <time>2017-12-24T08:41:14.000Z</time>
      </trkpt>
      <trkpt lat="48.18344" lon="3.43239">
        <ele>86.400001525879</ele>
        <time>2017-12-24T08:41:15.000Z</time>
      </trkpt>
      <trkpt lat="48.18343" lon="3.43233">
        <ele>86.800003051758</ele>
        <time>2017-12-24T08:41:16.000Z</time>
      </trkpt>
      <trkpt lat="48.18342" lon="3.43227">
        <ele>87.199996948242</ele>
        <time>2017-12-24T08:41:17.000Z</time>
      </trkpt>
      <trkpt lat="48.18339" lon="3.43201">
        <ele>87.199996948242</ele>
        <time>2017-12-24T08:41:21.000Z</time>
      </trkpt>
      <trkpt lat="48.18336" lon="3.43176">
        <ele>88</ele>
        <time>2017-12-24T08:41:25.000Z</time>
      </trkpt>
      <trkpt lat="48.18336" lon="3.43169">
        <ele>88.400001525879</ele>
        <time>2017-12-24T08:41:26.000Z</time>
      </trkpt>
      <trkpt lat="48.18336" lon="3.43162">
        <ele>88.800003051758</ele>
        <time>2017-12-24T08:41:27.000Z</time>
      </trkpt>
      <trkpt lat="48.18335" lon="3.43156">
        <ele>89.199996948242</ele>
        <time>2017-12-24T08:41:28.000Z</time>
      </trkpt>
      <trkpt lat="48.18335" lon="3.43149">
        <ele>89.199996948242</ele>
        <time>2017-12-24T08:41:29.000Z</time>
      </trkpt>
      <trkpt lat="48.18335" lon="3.43099">
        <ele>89.800003051758</ele>
        <time>2017-12-24T08:41:37.000Z</time>
      </trkpt>
      <trkpt lat="48.18335" lon="3.43093">
        <ele>90.199996948242</ele>
        <time>2017-12-24T08:41:38.000Z</time>
      </trkpt>
      <trkpt lat="48.18335" lon="3.43087">
        <ele>90.599998474121</ele>
        <time>2017-12-24T08:41:39.000Z</time>
      </trkpt>
      <trkpt lat="48.18335" lon="3.4308">
        <ele>91</ele>
        <time>2017-12-24T08:41:40.000Z</time>
      </trkpt>
      <trkpt lat="48.18335" lon="3.43074">
        <ele>91.599998474121</ele>
        <time>2017-12-24T08:41:41.000Z</time>
      </trkpt>
      <trkpt lat="48.18336" lon="3.4305">
        <ele>91.599998474121</ele>
        <time>2017-12-24T08:41:45.000Z</time>
      </trkpt>
      <trkpt lat="48.18336" lon="3.43044">
        <ele>92</ele>
        <time>2017-12-24T08:41:46.000Z</time>
      </trkpt>
      <trkpt lat="48.18336" lon="3.43037">
        <ele>92.400001525879</ele>
        <time>2017-12-24T08:41:47.000Z</time>
      </trkpt>
      <trkpt lat="48.18336" lon="3.43031">
        <ele>92.800003051758</ele>
        <time>2017-12-24T08:41:48.000Z</time>
      </trkpt>
      <trkpt lat="48.18336" lon="3.43025">
        <ele>93.599998474121</ele>
        <time>2017-12-24T08:41:49.000Z</time>
      </trkpt>
      <trkpt lat="48.18336" lon="3.43002">
        <ele>93.599998474121</ele>
        <time>2017-12-24T08:41:53.000Z</time>
      </trkpt>
      <trkpt lat="48.18335" lon="3.42978">
        <ele>94</ele>
        <time>2017-12-24T08:41:57.000Z</time>
      </trkpt>
      <trkpt lat="48.18335" lon="3.42973">
        <ele>94.400001525879</ele>
        <time>2017-12-24T08:41:58.000Z</time>
      </trkpt>
      <trkpt lat="48.18335" lon="3.42967">
        <ele>94.800003051758</ele>
        <time>2017-12-24T08:41:59.000Z</time>
      </trkpt>
      <trkpt lat="48.18334" lon="3.42961">
        <ele>95.199996948242</ele>
        <time>2017-12-24T08:42:00.000Z</time>
      </trkpt>
      <trkpt lat="48.18334" lon="3.42956">
        <ele>95.599998474121</ele>
        <time>2017-12-24T08:42:01.000Z</time>
      </trkpt>
      <trkpt lat="48.18335" lon="3.42934">
        <ele>96.199996948242</ele>
        <time>2017-12-24T08:42:05.000Z</time>
      </trkpt>
      <trkpt lat="48.18336" lon="3.42929">
        <ele>96.599998474121</ele>
        <time>2017-12-24T08:42:06.000Z</time>
      </trkpt>
      <trkpt lat="48.18337" lon="3.42925">
        <ele>97</ele>
        <time>2017-12-24T08:42:07.000Z</time>
      </trkpt>
      <trkpt lat="48.18338" lon="3.4292">
        <ele>97.400001525879</ele>
        <time>2017-12-24T08:42:08.000Z</time>
      </trkpt>
      <trkpt lat="48.18339" lon="3.42915">
        <ele>97.800003051758</ele>
        <time>2017-12-24T08:42:09.000Z</time>
      </trkpt>
      <trkpt lat="48.18343" lon="3.42901">
        <ele>98.199996948242</ele>
        <time>2017-12-24T08:42:12.000Z</time>
      </trkpt>
      <trkpt lat="48.18345" lon="3.42897">
        <ele>98.800003051758</ele>
        <time>2017-12-24T08:42:13.000Z</time>
      </trkpt>
      <trkpt lat="48.18347" lon="3.42893">
        <ele>99.599998474121</ele>
        <time>2017-12-24T08:42:14.000Z</time>
      </trkpt>
      <trkpt lat="48.18348" lon="3.42889">
        <ele>100.19999694824</ele>
        <time>2017-12-24T08:42:15.000Z</time>
      </trkpt>
      <trkpt lat="48.18352" lon="3.4288">
        <ele>100.59999847412</ele>
        <time>2017-12-24T08:42:17.000Z</time>
      </trkpt>
      <trkpt lat="48.18353" lon="3.42876">
        <ele>101</ele>
        <time>2017-12-24T08:42:18.000Z</time>
      </trkpt>
      <trkpt lat="48.18355" lon="3.42872">
        <ele>101.40000152588</ele>
        <time>2017-12-24T08:42:19.000Z</time>
      </trkpt>
      <trkpt lat="48.18356" lon="3.42868">
        <ele>101.80000305176</ele>
        <time>2017-12-24T08:42:20.000Z</time>
      </trkpt>
      <trkpt lat="48.18358" lon="3.42863">
        <ele>102.19999694824</ele>
        <time>2017-12-24T08:42:21.000Z</time>
      </trkpt>
      <trkpt lat="48.18364" lon="3.42846">
        <ele>102.59999847412</ele>
        <time>2017-12-24T08:42:25.000Z</time>
      </trkpt>
      <trkpt lat="48.18366" lon="3.42842">
        <ele>103</ele>
        <time>2017-12-24T08:42:26.000Z</time>
      </trkpt>
      <trkpt lat="48.18368" lon="3.42838">
        <ele>103.59999847412</ele>
        <time>2017-12-24T08:42:27.000Z</time>
      </trkpt>
      <trkpt lat="48.18369" lon="3.42834">
        <ele>104</ele>
        <time>2017-12-24T08:42:28.000Z</time>
      </trkpt>
      <trkpt lat="48.18371" lon="3.42829">
        <ele>104.40000152588</ele>
        <time>2017-12-24T08:42:29.000Z</time>
      </trkpt>
      <trkpt lat="48.18379" lon="3.42808">
        <ele>104.80000305176</ele>
        <time>2017-12-24T08:42:34.000Z</time>
      </trkpt>
      <trkpt lat="48.1838" lon="3.42804">
        <ele>105.40000152588</ele>
        <time>2017-12-24T08:42:35.000Z</time>
      </trkpt>
      <trkpt lat="48.18382" lon="3.428">
        <ele>105.80000305176</ele>
        <time>2017-12-24T08:42:36.000Z</time>
      </trkpt>
      <trkpt lat="48.18384" lon="3.42796">
        <ele>106.19999694824</ele>
        <time>2017-12-24T08:42:37.000Z</time>
      </trkpt>
      <trkpt lat="48.18386" lon="3.42794">
        <ele>106.80000305176</ele>
        <time>2017-12-24T08:42:38.000Z</time>
      </trkpt>
      <trkpt lat="48.18393" lon="3.4279">
        <ele>106.80000305176</ele>
        <time>2017-12-24T08:42:41.000Z</time>
      </trkpt>
      <trkpt lat="48.18396" lon="3.42789">
        <ele>107.19999694824</ele>
        <time>2017-12-24T08:42:42.000Z</time>
      </trkpt>
      <trkpt lat="48.18398" lon="3.42789">
        <ele>107.59999847412</ele>
        <time>2017-12-24T08:42:43.000Z</time>
      </trkpt>
      <trkpt lat="48.18401" lon="3.42789">
        <ele>108</ele>
        <time>2017-12-24T08:42:44.000Z</time>
      </trkpt>
      <trkpt lat="48.18404" lon="3.42788">
        <ele>108.40000152588</ele>
        <time>2017-12-24T08:42:45.000Z</time>
      </trkpt>
      <trkpt lat="48.18407" lon="3.42788">
        <ele>108.80000305176</ele>
        <time>2017-12-24T08:42:46.000Z</time>
      </trkpt>
      <trkpt lat="48.18412" lon="3.42787">
        <ele>108.80000305176</ele>
        <time>2017-12-24T08:42:48.000Z</time>
      </trkpt>
      <trkpt lat="48.18423" lon="3.4279">
        <ele>108.80000305176</ele>
        <time>2017-12-24T08:42:53.000Z</time>
      </trkpt>
      <trkpt lat="48.18429" lon="3.42806">
        <ele>108.80000305176</ele>
        <time>2017-12-24T08:42:58.000Z</time>
      </trkpt>
      <trkpt lat="48.18434" lon="3.42836">
        <ele>108.80000305176</ele>
        <time>2017-12-24T08:43:04.000Z</time>
      </trkpt>
      <trkpt lat="48.18438" lon="3.42855">
        <ele>108.80000305176</ele>
        <time>2017-12-24T08:43:07.000Z</time>
      </trkpt>
      <trkpt lat="48.18441" lon="3.42871">
        <ele>108.80000305176</ele>
        <time>2017-12-24T08:43:09.000Z</time>
      </trkpt>
      <trkpt lat="48.18444" lon="3.4289">
        <ele>108.40000152588</ele>
        <time>2017-12-24T08:43:11.000Z</time>
      </trkpt>
      <trkpt lat="48.18446" lon="3.429">
        <ele>108</ele>
        <time>2017-12-24T08:43:12.000Z</time>
      </trkpt>
      <trkpt lat="48.18448" lon="3.4291">
        <ele>107.40000152588</ele>
        <time>2017-12-24T08:43:13.000Z</time>
      </trkpt>
      <trkpt lat="48.1845" lon="3.42921">
        <ele>106.80000305176</ele>
        <time>2017-12-24T08:43:14.000Z</time>
      </trkpt>
      <trkpt lat="48.18452" lon="3.42932">
        <ele>106</ele>
        <time>2017-12-24T08:43:15.000Z</time>
      </trkpt>
      <trkpt lat="48.18454" lon="3.42943">
        <ele>105.40000152588</ele>
        <time>2017-12-24T08:43:16.000Z</time>
      </trkpt>
      <trkpt lat="48.18456" lon="3.42953">
        <ele>104.80000305176</ele>
        <time>2017-12-24T08:43:17.000Z</time>
      </trkpt>
      <trkpt lat="48.18458" lon="3.42962">
        <ele>104.19999694824</ele>
        <time>2017-12-24T08:43:18.000Z</time>
      </trkpt>
      <trkpt lat="48.1846" lon="3.42971">
        <ele>103.59999847412</ele>
        <time>2017-12-24T08:43:19.000Z</time>
      </trkpt>
      <trkpt lat="48.18461" lon="3.42978">
        <ele>103</ele>
        <time>2017-12-24T08:43:20.000Z</time>
      </trkpt>
      <trkpt lat="48.18462" lon="3.42985">
        <ele>102.40000152588</ele>
        <time>2017-12-24T08:43:21.000Z</time>
      </trkpt>
      <trkpt lat="48.18463" lon="3.42991">
        <ele>101.80000305176</ele>
        <time>2017-12-24T08:43:22.000Z</time>
      </trkpt>
      <trkpt lat="48.18466" lon="3.43004">
        <ele>101.80000305176</ele>
        <time>2017-12-24T08:43:24.000Z</time>
      </trkpt>
      <trkpt lat="48.18473" lon="3.43044">
        <ele>101.80000305176</ele>
        <time>2017-12-24T08:43:31.000Z</time>
      </trkpt>
      <trkpt lat="48.18474" lon="3.43049">
        <ele>102.40000152588</ele>
        <time>2017-12-24T08:43:32.000Z</time>
      </trkpt>
      <trkpt lat="48.18475" lon="3.43054">
        <ele>102.80000305176</ele>
        <time>2017-12-24T08:43:33.000Z</time>
      </trkpt>
      <trkpt lat="48.18475" lon="3.43059">
        <ele>103.19999694824</ele>
        <time>2017-12-24T08:43:34.000Z</time>
      </trkpt>
      <trkpt lat="48.18477" lon="3.43064">
        <ele>103.59999847412</ele>
        <time>2017-12-24T08:43:35.000Z</time>
      </trkpt>
      <trkpt lat="48.18478" lon="3.4307">
        <ele>104</ele>
        <time>2017-12-24T08:43:36.000Z</time>
      </trkpt>
      <trkpt lat="48.1848" lon="3.43081">
        <ele>104</ele>
        <time>2017-12-24T08:43:38.000Z</time>
      </trkpt>
      <trkpt lat="48.18488" lon="3.43125">
        <ele>104</ele>
        <time>2017-12-24T08:43:46.000Z</time>
      </trkpt>
      <trkpt lat="48.18489" lon="3.43146">
        <ele>104</ele>
        <time>2017-12-24T08:43:50.000Z</time>
      </trkpt>
      <trkpt lat="48.18491" lon="3.43164">
        <ele>103</ele>
        <time>2017-12-24T08:43:53.000Z</time>
      </trkpt>
      <trkpt lat="48.18493" lon="3.4317">
        <ele>102.59999847412</ele>
        <time>2017-12-24T08:43:54.000Z</time>
      </trkpt>
      <trkpt lat="48.18497" lon="3.43175">
        <ele>102</ele>
        <time>2017-12-24T08:43:55.000Z</time>
      </trkpt>
      <trkpt lat="48.18501" lon="3.43178">
        <ele>101.59999847412</ele>
        <time>2017-12-24T08:43:56.000Z</time>
      </trkpt>
      <trkpt lat="48.18504" lon="3.43181">
        <ele>101.59999847412</ele>
        <time>2017-12-24T08:43:57.000Z</time>
      </trkpt>
      <trkpt lat="48.18512" lon="3.43184">
        <ele>101.19999694824</ele>
        <time>2017-12-24T08:43:59.000Z</time>
      </trkpt>
      <trkpt lat="48.18516" lon="3.43186">
        <ele>100.80000305176</ele>
        <time>2017-12-24T08:44:00.000Z</time>
      </trkpt>
      <trkpt lat="48.18519" lon="3.43188">
        <ele>100.19999694824</ele>
        <time>2017-12-24T08:44:01.000Z</time>
      </trkpt>
      <trkpt lat="48.18523" lon="3.43191">
        <ele>99.800003051758</ele>
        <time>2017-12-24T08:44:02.000Z</time>
      </trkpt>
      <trkpt lat="48.18527" lon="3.43195">
        <ele>99.400001525879</ele>
        <time>2017-12-24T08:44:03.000Z</time>
      </trkpt>
      <trkpt lat="48.18535" lon="3.432">
        <ele>99.400001525879</ele>
        <time>2017-12-24T08:44:05.000Z</time>
      </trkpt>
      <trkpt lat="48.18539" lon="3.43202">
        <ele>99.400001525879</ele>
        <time>2017-12-24T08:44:06.000Z</time>
      </trkpt>
      <trkpt lat="48.18571" lon="3.43219">
        <ele>99</ele>
        <time>2017-12-24T08:44:13.000Z</time>
      </trkpt>
      <trkpt lat="48.18576" lon="3.43221">
        <ele>98.400001525879</ele>
        <time>2017-12-24T08:44:14.000Z</time>
      </trkpt>
      <trkpt lat="48.1858" lon="3.43223">
        <ele>98</ele>
        <time>2017-12-24T08:44:15.000Z</time>
      </trkpt>
      <trkpt lat="48.18583" lon="3.43224">
        <ele>97.400001525879</ele>
        <time>2017-12-24T08:44:16.000Z</time>
      </trkpt>
      <trkpt lat="48.18584" lon="3.43228">
        <ele>97</ele>
        <time>2017-12-24T08:44:17.000Z</time>
      </trkpt>
      <trkpt lat="48.18585" lon="3.43233">
        <ele>96.599998474121</ele>
        <time>2017-12-24T08:44:18.000Z</time>
      </trkpt>
      <trkpt lat="48.18585" lon="3.43241">
        <ele>96.199996948242</ele>
        <time>2017-12-24T08:44:19.000Z</time>
      </trkpt>
      <trkpt lat="48.18585" lon="3.4325">
        <ele>95.800003051758</ele>
        <time>2017-12-24T08:44:20.000Z</time>
      </trkpt>
      <trkpt lat="48.18586" lon="3.43261">
        <ele>95.400001525879</ele>
        <time>2017-12-24T08:44:21.000Z</time>
      </trkpt>
      <trkpt lat="48.18586" lon="3.43273">
        <ele>94.800003051758</ele>
        <time>2017-12-24T08:44:22.000Z</time>
      </trkpt>
      <trkpt lat="48.18587" lon="3.43286">
        <ele>94</ele>
        <time>2017-12-24T08:44:23.000Z</time>
      </trkpt>
      <trkpt lat="48.18588" lon="3.433">
        <ele>93.199996948242</ele>
        <time>2017-12-24T08:44:24.000Z</time>
      </trkpt>
      <trkpt lat="48.18588" lon="3.43313">
        <ele>92.199996948242</ele>
        <time>2017-12-24T08:44:25.000Z</time>
      </trkpt>
      <trkpt lat="48.18589" lon="3.43326">
        <ele>91.199996948242</ele>
        <time>2017-12-24T08:44:26.000Z</time>
      </trkpt>
      <trkpt lat="48.1859" lon="3.43337">
        <ele>90.199996948242</ele>
        <time>2017-12-24T08:44:27.000Z</time>
      </trkpt>
      <trkpt lat="48.1859" lon="3.43347">
        <ele>89.199996948242</ele>
        <time>2017-12-24T08:44:28.000Z</time>
      </trkpt>
      <trkpt lat="48.18591" lon="3.43356">
        <ele>88.199996948242</ele>
        <time>2017-12-24T08:44:29.000Z</time>
      </trkpt>
      <trkpt lat="48.18592" lon="3.43365">
        <ele>87.199996948242</ele>
        <time>2017-12-24T08:44:30.000Z</time>
      </trkpt>
      <trkpt lat="48.18594" lon="3.43398">
        <ele>87.199996948242</ele>
        <time>2017-12-24T08:44:34.000Z</time>
      </trkpt>
      <trkpt lat="48.18595" lon="3.43412">
        <ele>87.199996948242</ele>
        <time>2017-12-24T08:44:36.000Z</time>
      </trkpt>
      <trkpt lat="48.18596" lon="3.43424">
        <ele>87.199996948242</ele>
        <time>2017-12-24T08:44:38.000Z</time>
      </trkpt>
      <trkpt lat="48.18596" lon="3.4343">
        <ele>87.199996948242</ele>
        <time>2017-12-24T08:44:39.000Z</time>
      </trkpt>
      <trkpt lat="48.18597" lon="3.43441">
        <ele>88</ele>
        <time>2017-12-24T08:44:41.000Z</time>
      </trkpt>
      <trkpt lat="48.18597" lon="3.43447">
        <ele>88.599998474121</ele>
        <time>2017-12-24T08:44:42.000Z</time>
      </trkpt>
      <trkpt lat="48.18598" lon="3.43452">
        <ele>89</ele>
        <time>2017-12-24T08:44:43.000Z</time>
      </trkpt>
      <trkpt lat="48.18598" lon="3.43457">
        <ele>89.400001525879</ele>
        <time>2017-12-24T08:44:44.000Z</time>
      </trkpt>
      <trkpt lat="48.18598" lon="3.43462">
        <ele>90</ele>
        <time>2017-12-24T08:44:45.000Z</time>
      </trkpt>
      <trkpt lat="48.18598" lon="3.43467">
        <ele>90.400001525879</ele>
        <time>2017-12-24T08:44:46.000Z</time>
      </trkpt>
      <trkpt lat="48.18598" lon="3.43472">
        <ele>91</ele>
        <time>2017-12-24T08:44:47.000Z</time>
      </trkpt>
      <trkpt lat="48.18599" lon="3.43477">
        <ele>91.400001525879</ele>
        <time>2017-12-24T08:44:48.000Z</time>
      </trkpt>
      <trkpt lat="48.18599" lon="3.43481">
        <ele>91.800003051758</ele>
        <time>2017-12-24T08:44:49.000Z</time>
      </trkpt>
      <trkpt lat="48.18599" lon="3.43486">
        <ele>92.199996948242</ele>
        <time>2017-12-24T08:44:50.000Z</time>
      </trkpt>
      <trkpt lat="48.18599" lon="3.4349">
        <ele>92.800003051758</ele>
        <time>2017-12-24T08:44:51.000Z</time>
      </trkpt>
      <trkpt lat="48.186" lon="3.43493">
        <ele>93.199996948242</ele>
        <time>2017-12-24T08:44:52.000Z</time>
      </trkpt>
      <trkpt lat="48.18601" lon="3.43496">
        <ele>93.599998474121</ele>
        <time>2017-12-24T08:44:53.000Z</time>
      </trkpt>
      <trkpt lat="48.18605" lon="3.43499">
        <ele>93.599998474121</ele>
        <time>2017-12-24T08:44:55.000Z</time>
      </trkpt>
      <trkpt lat="48.18606" lon="3.43498">
        <ele>94</ele>
        <time>2017-12-24T08:44:56.000Z</time>
      </trkpt>
      <trkpt lat="48.18605" lon="3.43497">
        <ele>94.400001525879</ele>
        <time>2017-12-24T08:44:57.000Z</time>
      </trkpt>
      <trkpt lat="48.18603" lon="3.43496">
        <ele>94.800003051758</ele>
        <time>2017-12-24T08:44:58.000Z</time>
      </trkpt>
      <trkpt lat="48.18601" lon="3.43497">
        <ele>95.199996948242</ele>
        <time>2017-12-24T08:44:59.000Z</time>
      </trkpt>
      <trkpt lat="48.186" lon="3.435">
        <ele>95.599998474121</ele>
        <time>2017-12-24T08:45:00.000Z</time>
      </trkpt>
      <trkpt lat="48.18601" lon="3.43515">
        <ele>95.599998474121</ele>
        <time>2017-12-24T08:45:04.000Z</time>
      </trkpt>
      <trkpt lat="48.18603" lon="3.43527">
        <ele>95.599998474121</ele>
        <time>2017-12-24T08:45:07.000Z</time>
      </trkpt>
      <trkpt lat="48.18603" lon="3.43542">
        <ele>95.599998474121</ele>
        <time>2017-12-24T08:45:11.000Z</time>
      </trkpt>
      <trkpt lat="48.18603" lon="3.43545">
        <ele>96.199996948242</ele>
        <time>2017-12-24T08:45:12.000Z</time>
      </trkpt>
      <trkpt lat="48.18603" lon="3.43548">
        <ele>96.599998474121</ele>
        <time>2017-12-24T08:45:13.000Z</time>
      </trkpt>
      <trkpt lat="48.18602" lon="3.43552">
        <ele>97</ele>
        <time>2017-12-24T08:45:14.000Z</time>
      </trkpt>
      <trkpt lat="48.18603" lon="3.43556">
        <ele>97.400001525879</ele>
        <time>2017-12-24T08:45:15.000Z</time>
      </trkpt>
      <trkpt lat="48.18603" lon="3.4356">
        <ele>98</ele>
        <time>2017-12-24T08:45:16.000Z</time>
      </trkpt>
      <trkpt lat="48.18603" lon="3.43568">
        <ele>98</ele>
        <time>2017-12-24T08:45:18.000Z</time>
      </trkpt>
      <trkpt lat="48.18605" lon="3.43599">
        <ele>98.400001525879</ele>
        <time>2017-12-24T08:45:26.000Z</time>
      </trkpt>
      <trkpt lat="48.18605" lon="3.43603">
        <ele>98.800003051758</ele>
        <time>2017-12-24T08:45:27.000Z</time>
      </trkpt>
      <trkpt lat="48.18605" lon="3.43607">
        <ele>99.199996948242</ele>
        <time>2017-12-24T08:45:28.000Z</time>
      </trkpt>
      <trkpt lat="48.18605" lon="3.43611">
        <ele>99.599998474121</ele>
        <time>2017-12-24T08:45:29.000Z</time>
      </trkpt>
      <trkpt lat="48.18605" lon="3.43615">
        <ele>100</ele>
        <time>2017-12-24T08:45:30.000Z</time>
      </trkpt>
      <trkpt lat="48.18606" lon="3.4363">
        <ele>100</ele>
        <time>2017-12-24T08:45:34.000Z</time>
      </trkpt>
      <trkpt lat="48.18607" lon="3.43641">
        <ele>100.40000152588</ele>
        <time>2017-12-24T08:45:37.000Z</time>
      </trkpt>
      <trkpt lat="48.18607" lon="3.43645">
        <ele>100.80000305176</ele>
        <time>2017-12-24T08:45:38.000Z</time>
      </trkpt>
      <trkpt lat="48.18607" lon="3.43649">
        <ele>101.40000152588</ele>
        <time>2017-12-24T08:45:39.000Z</time>
      </trkpt>
      <trkpt lat="48.18607" lon="3.43653">
        <ele>101.80000305176</ele>
        <time>2017-12-24T08:45:40.000Z</time>
      </trkpt>
      <trkpt lat="48.18608" lon="3.43656">
        <ele>102.19999694824</ele>
        <time>2017-12-24T08:45:41.000Z</time>
      </trkpt>
      <trkpt lat="48.18608" lon="3.4366">
        <ele>102.19999694824</ele>
        <time>2017-12-24T08:45:42.000Z</time>
      </trkpt>
      <trkpt lat="48.18609" lon="3.43672">
        <ele>102.59999847412</ele>
        <time>2017-12-24T08:45:46.000Z</time>
      </trkpt>
      <trkpt lat="48.18609" lon="3.43676">
        <ele>103</ele>
        <time>2017-12-24T08:45:47.000Z</time>
      </trkpt>
      <trkpt lat="48.18609" lon="3.43679">
        <ele>103.59999847412</ele>
        <time>2017-12-24T08:45:48.000Z</time>
      </trkpt>
      <trkpt lat="48.18609" lon="3.43682">
        <ele>104</ele>
        <time>2017-12-24T08:45:49.000Z</time>
      </trkpt>
      <trkpt lat="48.18609" lon="3.43686">
        <ele>104.40000152588</ele>
        <time>2017-12-24T08:45:50.000Z</time>
      </trkpt>
      <trkpt lat="48.18609" lon="3.43689">
        <ele>104.40000152588</ele>
        <time>2017-12-24T08:45:51.000Z</time>
      </trkpt>
      <trkpt lat="48.1861" lon="3.43696">
        <ele>104.80000305176</ele>
        <time>2017-12-24T08:45:53.000Z</time>
      </trkpt>
      <trkpt lat="48.1861" lon="3.43699">
        <ele>105.19999694824</ele>
        <time>2017-12-24T08:45:54.000Z</time>
      </trkpt>
      <trkpt lat="48.1861" lon="3.43702">
        <ele>106.19999694824</ele>
        <time>2017-12-24T08:45:55.000Z</time>
      </trkpt>
      <trkpt lat="48.1861" lon="3.43705">
        <ele>106.59999847412</ele>
        <time>2017-12-24T08:45:56.000Z</time>
      </trkpt>
      <trkpt lat="48.1861" lon="3.43711">
        <ele>107</ele>
        <time>2017-12-24T08:45:58.000Z</time>
      </trkpt>
      <trkpt lat="48.1861" lon="3.43714">
        <ele>107.59999847412</ele>
        <time>2017-12-24T08:45:59.000Z</time>
      </trkpt>
      <trkpt lat="48.18611" lon="3.43717">
        <ele>108</ele>
        <time>2017-12-24T08:46:00.000Z</time>
      </trkpt>
      <trkpt lat="48.18611" lon="3.4372">
        <ele>108.40000152588</ele>
        <time>2017-12-24T08:46:01.000Z</time>
      </trkpt>
      <trkpt lat="48.18611" lon="3.43723">
        <ele>108.80000305176</ele>
        <time>2017-12-24T08:46:02.000Z</time>
      </trkpt>
      <trkpt lat="48.18611" lon="3.4373">
        <ele>109.40000152588</ele>
        <time>2017-12-24T08:46:04.000Z</time>
      </trkpt>
      <trkpt lat="48.18611" lon="3.43733">
        <ele>109.80000305176</ele>
        <time>2017-12-24T08:46:05.000Z</time>
      </trkpt>
      <trkpt lat="48.18612" lon="3.43736">
        <ele>110.19999694824</ele>
        <time>2017-12-24T08:46:06.000Z</time>
      </trkpt>
      <trkpt lat="48.18612" lon="3.43739">
        <ele>110.59999847412</ele>
        <time>2017-12-24T08:46:07.000Z</time>
      </trkpt>
      <trkpt lat="48.18612" lon="3.43742">
        <ele>111.19999694824</ele>
        <time>2017-12-24T08:46:08.000Z</time>
      </trkpt>
      <trkpt lat="48.18612" lon="3.43749">
        <ele>111.59999847412</ele>
        <time>2017-12-24T08:46:10.000Z</time>
      </trkpt>
      <trkpt lat="48.18613" lon="3.43752">
        <ele>112</ele>
        <time>2017-12-24T08:46:11.000Z</time>
      </trkpt>
      <trkpt lat="48.18613" lon="3.43755">
        <ele>112.40000152588</ele>
        <time>2017-12-24T08:46:12.000Z</time>
      </trkpt>
      <trkpt lat="48.18613" lon="3.43759">
        <ele>112.80000305176</ele>
        <time>2017-12-24T08:46:13.000Z</time>
      </trkpt>
      <trkpt lat="48.18613" lon="3.43762">
        <ele>113.19999694824</ele>
        <time>2017-12-24T08:46:14.000Z</time>
      </trkpt>
      <trkpt lat="48.18614" lon="3.43773">
        <ele>113.59999847412</ele>
        <time>2017-12-24T08:46:17.000Z</time>
      </trkpt>
      <trkpt lat="48.18614" lon="3.43776">
        <ele>114</ele>
        <time>2017-12-24T08:46:18.000Z</time>
      </trkpt>
      <trkpt lat="48.18614" lon="3.4378">
        <ele>114.59999847412</ele>
        <time>2017-12-24T08:46:19.000Z</time>
      </trkpt>
      <trkpt lat="48.18614" lon="3.43783">
        <ele>115.40000152588</ele>
        <time>2017-12-24T08:46:20.000Z</time>
      </trkpt>
      <trkpt lat="48.18615" lon="3.43797">
        <ele>115.80000305176</ele>
        <time>2017-12-24T08:46:24.000Z</time>
      </trkpt>
      <trkpt lat="48.18615" lon="3.43801">
        <ele>116.19999694824</ele>
        <time>2017-12-24T08:46:25.000Z</time>
      </trkpt>
      <trkpt lat="48.18616" lon="3.43805">
        <ele>116.59999847412</ele>
        <time>2017-12-24T08:46:26.000Z</time>
      </trkpt>
      <trkpt lat="48.18616" lon="3.43809">
        <ele>117</ele>
        <time>2017-12-24T08:46:27.000Z</time>
      </trkpt>
      <trkpt lat="48.18616" lon="3.43813">
        <ele>117.40000152588</ele>
        <time>2017-12-24T08:46:28.000Z</time>
      </trkpt>
      <trkpt lat="48.18616" lon="3.43816">
        <ele>117.40000152588</ele>
        <time>2017-12-24T08:46:29.000Z</time>
      </trkpt>
      <trkpt lat="48.18618" lon="3.43843">
        <ele>117.40000152588</ele>
        <time>2017-12-24T08:46:36.000Z</time>
      </trkpt>
      <trkpt lat="48.18619" lon="3.43864">
        <ele>117.40000152588</ele>
        <time>2017-12-24T08:46:42.000Z</time>
      </trkpt>
      <trkpt lat="48.1862" lon="3.43867">
        <ele>117.40000152588</ele>
        <time>2017-12-24T08:46:43.000Z</time>
      </trkpt>
      <trkpt lat="48.18621" lon="3.43878">
        <ele>117.40000152588</ele>
        <time>2017-12-24T08:46:46.000Z</time>
      </trkpt>
      <trkpt lat="48.18622" lon="3.4389">
        <ele>117.40000152588</ele>
        <time>2017-12-24T08:46:49.000Z</time>
      </trkpt>
      <trkpt lat="48.18622" lon="3.439">
        <ele>117.40000152588</ele>
        <time>2017-12-24T08:46:52.000Z</time>
      </trkpt>
      <trkpt lat="48.18623" lon="3.43912">
        <ele>117.40000152588</ele>
        <time>2017-12-24T08:46:55.000Z</time>
      </trkpt>
      <trkpt lat="48.18623" lon="3.43922">
        <ele>117.40000152588</ele>
        <time>2017-12-24T08:46:57.000Z</time>
      </trkpt>
      <trkpt lat="48.18623" lon="3.43931">
        <ele>117.40000152588</ele>
        <time>2017-12-24T08:46:59.000Z</time>
      </trkpt>
      <trkpt lat="48.18623" lon="3.43936">
        <ele>117.40000152588</ele>
        <time>2017-12-24T08:47:00.000Z</time>
      </trkpt>
      <trkpt lat="48.18623" lon="3.43942">
        <ele>117</ele>
        <time>2017-12-24T08:47:01.000Z</time>
      </trkpt>
      <trkpt lat="48.18623" lon="3.43947">
        <ele>116.59999847412</ele>
        <time>2017-12-24T08:47:02.000Z</time>
      </trkpt>
      <trkpt lat="48.18624" lon="3.43952">
        <ele>116.19999694824</ele>
        <time>2017-12-24T08:47:03.000Z</time>
      </trkpt>
      <trkpt lat="48.18624" lon="3.43957">
        <ele>115.80000305176</ele>
        <time>2017-12-24T08:47:04.000Z</time>
      </trkpt>
      <trkpt lat="48.18624" lon="3.43962">
        <ele>115.40000152588</ele>
        <time>2017-12-24T08:47:05.000Z</time>
      </trkpt>
      <trkpt lat="48.18624" lon="3.43979">
        <ele>114.40000152588</ele>
        <time>2017-12-24T08:47:08.000Z</time>
      </trkpt>
      <trkpt lat="48.18625" lon="3.43984">
        <ele>114</ele>
        <time>2017-12-24T08:47:09.000Z</time>
      </trkpt>
      <trkpt lat="48.18625" lon="3.43989">
        <ele>113.59999847412</ele>
        <time>2017-12-24T08:47:10.000Z</time>
      </trkpt>
      <trkpt lat="48.18625" lon="3.43995">
        <ele>113.19999694824</ele>
        <time>2017-12-24T08:47:11.000Z</time>
      </trkpt>
      <trkpt lat="48.18627" lon="3.44007">
        <ele>113.19999694824</ele>
        <time>2017-12-24T08:47:13.000Z</time>
      </trkpt>
      <trkpt lat="48.18628" lon="3.44013">
        <ele>112.80000305176</ele>
        <time>2017-12-24T08:47:14.000Z</time>
      </trkpt>
      <trkpt lat="48.18629" lon="3.44018">
        <ele>112.19999694824</ele>
        <time>2017-12-24T08:47:15.000Z</time>
      </trkpt>
      <trkpt lat="48.18631" lon="3.44024">
        <ele>111.80000305176</ele>
        <time>2017-12-24T08:47:16.000Z</time>
      </trkpt>
      <trkpt lat="48.18632" lon="3.44029">
        <ele>111.40000152588</ele>
        <time>2017-12-24T08:47:17.000Z</time>
      </trkpt>
      <trkpt lat="48.18634" lon="3.44034">
        <ele>111</ele>
        <time>2017-12-24T08:47:18.000Z</time>
      </trkpt>
      <trkpt lat="48.18635" lon="3.4404">
        <ele>111</ele>
        <time>2017-12-24T08:47:19.000Z</time>
      </trkpt>
      <trkpt lat="48.18641" lon="3.44057">
        <ele>110.59999847412</ele>
        <time>2017-12-24T08:47:22.000Z</time>
      </trkpt>
      <trkpt lat="48.18643" lon="3.44064">
        <ele>110.19999694824</ele>
        <time>2017-12-24T08:47:23.000Z</time>
      </trkpt>
      <trkpt lat="48.18645" lon="3.4407">
        <ele>109.80000305176</ele>
        <time>2017-12-24T08:47:24.000Z</time>
      </trkpt>
      <trkpt lat="48.18647" lon="3.44076">
        <ele>109.40000152588</ele>
        <time>2017-12-24T08:47:25.000Z</time>
      </trkpt>
      <trkpt lat="48.18649" lon="3.44082">
        <ele>109</ele>
        <time>2017-12-24T08:47:26.000Z</time>
      </trkpt>
      <trkpt lat="48.18656" lon="3.44096">
        <ele>108.59999847412</ele>
        <time>2017-12-24T08:47:29.000Z</time>
      </trkpt>
      <trkpt lat="48.18658" lon="3.441">
        <ele>108.19999694824</ele>
        <time>2017-12-24T08:47:30.000Z</time>
      </trkpt>
      <trkpt lat="48.1866" lon="3.44104">
        <ele>107.80000305176</ele>
        <time>2017-12-24T08:47:31.000Z</time>
      </trkpt>
      <trkpt lat="48.18662" lon="3.44108">
        <ele>107.40000152588</ele>
        <time>2017-12-24T08:47:32.000Z</time>
      </trkpt>
      <trkpt lat="48.18664" lon="3.44111">
        <ele>107</ele>
        <time>2017-12-24T08:47:33.000Z</time>
      </trkpt>
      <trkpt lat="48.18674" lon="3.44124">
        <ele>107</ele>
        <time>2017-12-24T08:47:38.000Z</time>
      </trkpt>
      <trkpt lat="48.18683" lon="3.44141">
        <ele>107</ele>
        <time>2017-12-24T08:47:45.000Z</time>
      </trkpt>
      <trkpt lat="48.18687" lon="3.44153">
        <ele>107</ele>
        <time>2017-12-24T08:47:51.000Z</time>
      </trkpt>
      <trkpt lat="48.18688" lon="3.44157">
        <ele>107</ele>
        <time>2017-12-24T08:47:53.000Z</time>
      </trkpt>
      <trkpt lat="48.1869" lon="3.44167">
        <ele>107</ele>
        <time>2017-12-24T08:47:59.000Z</time>
      </trkpt>
      <trkpt lat="48.1869" lon="3.44171">
        <ele>107</ele>
        <time>2017-12-24T08:48:01.000Z</time>
      </trkpt>
      <trkpt lat="48.18691" lon="3.44178">
        <ele>106.40000152588</ele>
        <time>2017-12-24T08:48:04.000Z</time>
      </trkpt>
      <trkpt lat="48.18691" lon="3.4418">
        <ele>106</ele>
        <time>2017-12-24T08:48:05.000Z</time>
      </trkpt>
      <trkpt lat="48.18692" lon="3.44182">
        <ele>105.59999847412</ele>
        <time>2017-12-24T08:48:06.000Z</time>
      </trkpt>
      <trkpt lat="48.18693" lon="3.44185">
        <ele>105.19999694824</ele>
        <time>2017-12-24T08:48:07.000Z</time>
      </trkpt>
      <trkpt lat="48.18694" lon="3.44187">
        <ele>104.80000305176</ele>
        <time>2017-12-24T08:48:08.000Z</time>
      </trkpt>
      <trkpt lat="48.18694" lon="3.4419">
        <ele>104.80000305176</ele>
        <time>2017-12-24T08:48:09.000Z</time>
      </trkpt>
      <trkpt lat="48.187" lon="3.44208">
        <ele>104.80000305176</ele>
        <time>2017-12-24T08:48:15.000Z</time>
      </trkpt>
      <trkpt lat="48.1871" lon="3.44223">
        <ele>104.80000305176</ele>
        <time>2017-12-24T08:48:21.000Z</time>
      </trkpt>
      <trkpt lat="48.18716" lon="3.44238">
        <ele>104.40000152588</ele>
        <time>2017-12-24T08:48:25.000Z</time>
      </trkpt>
      <trkpt lat="48.18716" lon="3.44244">
        <ele>104</ele>
        <time>2017-12-24T08:48:26.000Z</time>
      </trkpt>
      <trkpt lat="48.18716" lon="3.44249">
        <ele>103.40000152588</ele>
        <time>2017-12-24T08:48:27.000Z</time>
      </trkpt>
      <trkpt lat="48.18717" lon="3.44256">
        <ele>103</ele>
        <time>2017-12-24T08:48:28.000Z</time>
      </trkpt>
      <trkpt lat="48.18719" lon="3.44262">
        <ele>102.59999847412</ele>
        <time>2017-12-24T08:48:29.000Z</time>
      </trkpt>
      <trkpt lat="48.18723" lon="3.44265">
        <ele>102.19999694824</ele>
        <time>2017-12-24T08:48:30.000Z</time>
      </trkpt>
      <trkpt lat="48.18726" lon="3.44266">
        <ele>101.59999847412</ele>
        <time>2017-12-24T08:48:31.000Z</time>
      </trkpt>
      <trkpt lat="48.18729" lon="3.44268">
        <ele>101.19999694824</ele>
        <time>2017-12-24T08:48:32.000Z</time>
      </trkpt>
      <trkpt lat="48.18732" lon="3.44269">
        <ele>100.59999847412</ele>
        <time>2017-12-24T08:48:33.000Z</time>
      </trkpt>
      <trkpt lat="48.18735" lon="3.4427">
        <ele>100.59999847412</ele>
        <time>2017-12-24T08:48:34.000Z</time>
      </trkpt>
      <trkpt lat="48.1874" lon="3.44272">
        <ele>100.59999847412</ele>
        <time>2017-12-24T08:48:36.000Z</time>
      </trkpt>
      <trkpt lat="48.18746" lon="3.44275">
        <ele>100.59999847412</ele>
        <time>2017-12-24T08:48:38.000Z</time>
      </trkpt>
      <trkpt lat="48.18751" lon="3.44278">
        <ele>100.59999847412</ele>
        <time>2017-12-24T08:48:40.000Z</time>
      </trkpt>
      <trkpt lat="48.18754" lon="3.44279">
        <ele>100.59999847412</ele>
        <time>2017-12-24T08:48:41.000Z</time>
      </trkpt>
      <trkpt lat="48.18761" lon="3.4428">
        <ele>100.59999847412</ele>
        <time>2017-12-24T08:48:44.000Z</time>
      </trkpt>
      <trkpt lat="48.18767" lon="3.44282">
        <ele>101</ele>
        <time>2017-12-24T08:48:46.000Z</time>
      </trkpt>
      <trkpt lat="48.18769" lon="3.44282">
        <ele>101.59999847412</ele>
        <time>2017-12-24T08:48:47.000Z</time>
      </trkpt>
      <trkpt lat="48.18772" lon="3.44283">
        <ele>102</ele>
        <time>2017-12-24T08:48:48.000Z</time>
      </trkpt>
      <trkpt lat="48.18774" lon="3.44285">
        <ele>102.40000152588</ele>
        <time>2017-12-24T08:48:49.000Z</time>
      </trkpt>
      <trkpt lat="48.18777" lon="3.44286">
        <ele>102.80000305176</ele>
        <time>2017-12-24T08:48:50.000Z</time>
      </trkpt>
      <trkpt lat="48.18784" lon="3.44288">
        <ele>103.19999694824</ele>
        <time>2017-12-24T08:48:53.000Z</time>
      </trkpt>
      <trkpt lat="48.18786" lon="3.44289">
        <ele>103.59999847412</ele>
        <time>2017-12-24T08:48:54.000Z</time>
      </trkpt>
      <trkpt lat="48.18788" lon="3.44289">
        <ele>104</ele>
        <time>2017-12-24T08:48:55.000Z</time>
      </trkpt>
      <trkpt lat="48.18791" lon="3.4429">
        <ele>104.40000152588</ele>
        <time>2017-12-24T08:48:56.000Z</time>
      </trkpt>
      <trkpt lat="48.18793" lon="3.44291">
        <ele>104.80000305176</ele>
        <time>2017-12-24T08:48:57.000Z</time>
      </trkpt>
      <trkpt lat="48.18801" lon="3.44294">
        <ele>105.40000152588</ele>
        <time>2017-12-24T08:49:00.000Z</time>
      </trkpt>
      <trkpt lat="48.18803" lon="3.44295">
        <ele>105.80000305176</ele>
        <time>2017-12-24T08:49:01.000Z</time>
      </trkpt>
      <trkpt lat="48.18806" lon="3.44295">
        <ele>106.19999694824</ele>
        <time>2017-12-24T08:49:02.000Z</time>
      </trkpt>
      <trkpt lat="48.18808" lon="3.44296">
        <ele>106.59999847412</ele>
        <time>2017-12-24T08:49:03.000Z</time>
      </trkpt>
      <trkpt lat="48.18811" lon="3.44296">
        <ele>107</ele>
        <time>2017-12-24T08:49:04.000Z</time>
      </trkpt>
      <trkpt lat="48.18818" lon="3.44298">
        <ele>107</ele>
        <time>2017-12-24T08:49:07.000Z</time>
      </trkpt>
      <trkpt lat="48.1882" lon="3.44298">
        <ele>107.40000152588</ele>
        <time>2017-12-24T08:49:08.000Z</time>
      </trkpt>
      <trkpt lat="48.18822" lon="3.44298">
        <ele>107.80000305176</ele>
        <time>2017-12-24T08:49:09.000Z</time>
      </trkpt>
      <trkpt lat="48.18824" lon="3.44298">
        <ele>108.59999847412</ele>
        <time>2017-12-24T08:49:10.000Z</time>
      </trkpt>
      <trkpt lat="48.18826" lon="3.44298">
        <ele>109.19999694824</ele>
        <time>2017-12-24T08:49:11.000Z</time>
      </trkpt>
      <trkpt lat="48.18831" lon="3.44299">
        <ele>109.59999847412</ele>
        <time>2017-12-24T08:49:14.000Z</time>
      </trkpt>
      <trkpt lat="48.18833" lon="3.443">
        <ele>110</ele>
        <time>2017-12-24T08:49:15.000Z</time>
      </trkpt>
      <trkpt lat="48.18835" lon="3.443">
        <ele>110.40000152588</ele>
        <time>2017-12-24T08:49:16.000Z</time>
      </trkpt>
      <trkpt lat="48.18837" lon="3.443">
        <ele>110.80000305176</ele>
        <time>2017-12-24T08:49:17.000Z</time>
      </trkpt>
      <trkpt lat="48.18839" lon="3.44301">
        <ele>111.19999694824</ele>
        <time>2017-12-24T08:49:18.000Z</time>
      </trkpt>
      <trkpt lat="48.18842" lon="3.44301">
        <ele>111.19999694824</ele>
        <time>2017-12-24T08:49:20.000Z</time>
      </trkpt>
      <trkpt lat="48.18846" lon="3.44302">
        <ele>111.59999847412</ele>
        <time>2017-12-24T08:49:22.000Z</time>
      </trkpt>
      <trkpt lat="48.18847" lon="3.44303">
        <ele>112</ele>
        <time>2017-12-24T08:49:23.000Z</time>
      </trkpt>
      <trkpt lat="48.18849" lon="3.44303">
        <ele>112.40000152588</ele>
        <time>2017-12-24T08:49:24.000Z</time>
      </trkpt>
      <trkpt lat="48.18851" lon="3.44303">
        <ele>112.80000305176</ele>
        <time>2017-12-24T08:49:25.000Z</time>
      </trkpt>
      <trkpt lat="48.18853" lon="3.44303">
        <ele>113.19999694824</ele>
        <time>2017-12-24T08:49:26.000Z</time>
      </trkpt>
      <trkpt lat="48.18854" lon="3.44304">
        <ele>113.19999694824</ele>
        <time>2017-12-24T08:49:27.000Z</time>
      </trkpt>
      <trkpt lat="48.18861" lon="3.44305">
        <ele>113.80000305176</ele>
        <time>2017-12-24T08:49:31.000Z</time>
      </trkpt>
      <trkpt lat="48.18863" lon="3.44305">
        <ele>114.19999694824</ele>
        <time>2017-12-24T08:49:32.000Z</time>
      </trkpt>
      <trkpt lat="48.18864" lon="3.44305">
        <ele>114.59999847412</ele>
        <time>2017-12-24T08:49:33.000Z</time>
      </trkpt>
      <trkpt lat="48.18866" lon="3.44305">
        <ele>115</ele>
        <time>2017-12-24T08:49:34.000Z</time>
      </trkpt>
      <trkpt lat="48.18867" lon="3.44305">
        <ele>115.59999847412</ele>
        <time>2017-12-24T08:49:35.000Z</time>
      </trkpt>
      <trkpt lat="48.18872" lon="3.44305">
        <ele>116</ele>
        <time>2017-12-24T08:49:38.000Z</time>
      </trkpt>
      <trkpt lat="48.18874" lon="3.44306">
        <ele>116.40000152588</ele>
        <time>2017-12-24T08:49:39.000Z</time>
      </trkpt>
      <trkpt lat="48.18876" lon="3.44306">
        <ele>116.80000305176</ele>
        <time>2017-12-24T08:49:40.000Z</time>
      </trkpt>
      <trkpt lat="48.18877" lon="3.44306">
        <ele>117.19999694824</ele>
        <time>2017-12-24T08:49:41.000Z</time>
      </trkpt>
      <trkpt lat="48.18879" lon="3.44306">
        <ele>117.59999847412</ele>
        <time>2017-12-24T08:49:42.000Z</time>
      </trkpt>
      <trkpt lat="48.1888" lon="3.44305">
        <ele>117.59999847412</ele>
        <time>2017-12-24T08:49:43.000Z</time>
      </trkpt>
      <trkpt lat="48.18884" lon="3.44305">
        <ele>118</ele>
        <time>2017-12-24T08:49:46.000Z</time>
      </trkpt>
      <trkpt lat="48.18885" lon="3.44305">
        <ele>118.40000152588</ele>
        <time>2017-12-24T08:49:47.000Z</time>
      </trkpt>
      <trkpt lat="48.18887" lon="3.44305">
        <ele>119</ele>
        <time>2017-12-24T08:49:48.000Z</time>
      </trkpt>
      <trkpt lat="48.18888" lon="3.44305">
        <ele>119.40000152588</ele>
        <time>2017-12-24T08:49:49.000Z</time>
      </trkpt>
      <trkpt lat="48.18889" lon="3.44306">
        <ele>119.80000305176</ele>
        <time>2017-12-24T08:49:50.000Z</time>
      </trkpt>
      <trkpt lat="48.18895" lon="3.44305">
        <ele>120.19999694824</ele>
        <time>2017-12-24T08:49:54.000Z</time>
      </trkpt>
      <trkpt lat="48.18896" lon="3.44306">
        <ele>120.59999847412</ele>
        <time>2017-12-24T08:49:55.000Z</time>
      </trkpt>
      <trkpt lat="48.18897" lon="3.44307">
        <ele>121</ele>
        <time>2017-12-24T08:49:56.000Z</time>
      </trkpt>
      <trkpt lat="48.18899" lon="3.44307">
        <ele>121.40000152588</ele>
        <time>2017-12-24T08:49:57.000Z</time>
      </trkpt>
      <trkpt lat="48.189" lon="3.44308">
        <ele>122</ele>
        <time>2017-12-24T08:49:58.000Z</time>
      </trkpt>
      <trkpt lat="48.18906" lon="3.44309">
        <ele>122.40000152588</ele>
        <time>2017-12-24T08:50:02.000Z</time>
      </trkpt>
      <trkpt lat="48.18908" lon="3.4431">
        <ele>122.80000305176</ele>
        <time>2017-12-24T08:50:03.000Z</time>
      </trkpt>
      <trkpt lat="48.18909" lon="3.4431">
        <ele>123.19999694824</ele>
        <time>2017-12-24T08:50:04.000Z</time>
      </trkpt>
      <trkpt lat="48.18911" lon="3.44311">
        <ele>123.59999847412</ele>
        <time>2017-12-24T08:50:05.000Z</time>
      </trkpt>
      <trkpt lat="48.18912" lon="3.44311">
        <ele>124.19999694824</ele>
        <time>2017-12-24T08:50:06.000Z</time>
      </trkpt>
      <trkpt lat="48.18918" lon="3.44312">
        <ele>124.19999694824</ele>
        <time>2017-12-24T08:50:10.000Z</time>
      </trkpt>
      <trkpt lat="48.18919" lon="3.44312">
        <ele>124.59999847412</ele>
        <time>2017-12-24T08:50:11.000Z</time>
      </trkpt>
      <trkpt lat="48.18921" lon="3.44312">
        <ele>125</ele>
        <time>2017-12-24T08:50:12.000Z</time>
      </trkpt>
      <trkpt lat="48.18923" lon="3.44312">
        <ele>125.40000152588</ele>
        <time>2017-12-24T08:50:13.000Z</time>
      </trkpt>
      <trkpt lat="48.18924" lon="3.44312">
        <ele>125.80000305176</ele>
        <time>2017-12-24T08:50:14.000Z</time>
      </trkpt>
      <trkpt lat="48.18926" lon="3.44312">
        <ele>126.19999694824</ele>
        <time>2017-12-24T08:50:15.000Z</time>
      </trkpt>
      <trkpt lat="48.18927" lon="3.44312">
        <ele>126.19999694824</ele>
        <time>2017-12-24T08:50:16.000Z</time>
      </trkpt>
      <trkpt lat="48.18933" lon="3.44313">
        <ele>126.59999847412</ele>
        <time>2017-12-24T08:50:20.000Z</time>
      </trkpt>
      <trkpt lat="48.18934" lon="3.44313">
        <ele>127</ele>
        <time>2017-12-24T08:50:21.000Z</time>
      </trkpt>
      <trkpt lat="48.18936" lon="3.44314">
        <ele>127.40000152588</ele>
        <time>2017-12-24T08:50:22.000Z</time>
      </trkpt>
      <trkpt lat="48.18937" lon="3.44314">
        <ele>128</ele>
        <time>2017-12-24T08:50:23.000Z</time>
      </trkpt>
      <trkpt lat="48.18939" lon="3.44314">
        <ele>128.39999389648</ele>
        <time>2017-12-24T08:50:24.000Z</time>
      </trkpt>
      <trkpt lat="48.18943" lon="3.44315">
        <ele>128.80000305176</ele>
        <time>2017-12-24T08:50:27.000Z</time>
      </trkpt>
      <trkpt lat="48.18945" lon="3.44315">
        <ele>129.19999694824</ele>
        <time>2017-12-24T08:50:28.000Z</time>
      </trkpt>
      <trkpt lat="48.18947" lon="3.44315">
        <ele>129.60000610352</ele>
        <time>2017-12-24T08:50:29.000Z</time>
      </trkpt>
      <trkpt lat="48.18948" lon="3.44316">
        <ele>130</ele>
        <time>2017-12-24T08:50:30.000Z</time>
      </trkpt>
      <trkpt lat="48.18951" lon="3.44316">
        <ele>130.39999389648</ele>
        <time>2017-12-24T08:50:31.000Z</time>
      </trkpt>
      <trkpt lat="48.18956" lon="3.44315">
        <ele>130.80000305176</ele>
        <time>2017-12-24T08:50:34.000Z</time>
      </trkpt>
      <trkpt lat="48.18957" lon="3.44314">
        <ele>131.39999389648</ele>
        <time>2017-12-24T08:50:35.000Z</time>
      </trkpt>
      <trkpt lat="48.18959" lon="3.44314">
        <ele>131.80000305176</ele>
        <time>2017-12-24T08:50:36.000Z</time>
      </trkpt>
      <trkpt lat="48.18961" lon="3.44314">
        <ele>132.19999694824</ele>
        <time>2017-12-24T08:50:37.000Z</time>
      </trkpt>
      <trkpt lat="48.18962" lon="3.44314">
        <ele>132.60000610352</ele>
        <time>2017-12-24T08:50:38.000Z</time>
      </trkpt>
      <trkpt lat="48.18964" lon="3.44313">
        <ele>132.60000610352</ele>
        <time>2017-12-24T08:50:39.000Z</time>
      </trkpt>
      <trkpt lat="48.18969" lon="3.44312">
        <ele>133</ele>
        <time>2017-12-24T08:50:42.000Z</time>
      </trkpt>
      <trkpt lat="48.1897" lon="3.44312">
        <ele>133.39999389648</ele>
        <time>2017-12-24T08:50:43.000Z</time>
      </trkpt>
      <trkpt lat="48.18972" lon="3.44312">
        <ele>134</ele>
        <time>2017-12-24T08:50:44.000Z</time>
      </trkpt>
      <trkpt lat="48.18973" lon="3.44312">
        <ele>134.39999389648</ele>
        <time>2017-12-24T08:50:45.000Z</time>
      </trkpt>
      <trkpt lat="48.18975" lon="3.44311">
        <ele>134.80000305176</ele>
        <time>2017-12-24T08:50:46.000Z</time>
      </trkpt>
      <trkpt lat="48.18978" lon="3.44309">
        <ele>135.19999694824</ele>
        <time>2017-12-24T08:50:48.000Z</time>
      </trkpt>
      <trkpt lat="48.18979" lon="3.44308">
        <ele>135.60000610352</ele>
        <time>2017-12-24T08:50:49.000Z</time>
      </trkpt>
      <trkpt lat="48.18981" lon="3.44308">
        <ele>136</ele>
        <time>2017-12-24T08:50:50.000Z</time>
      </trkpt>
      <trkpt lat="48.18983" lon="3.44307">
        <ele>136.39999389648</ele>
        <time>2017-12-24T08:50:51.000Z</time>
      </trkpt>
      <trkpt lat="48.18984" lon="3.44307">
        <ele>137</ele>
        <time>2017-12-24T08:50:52.000Z</time>
      </trkpt>
      <trkpt lat="48.18985" lon="3.44306">
        <ele>137</ele>
        <time>2017-12-24T08:50:53.000Z</time>
      </trkpt>
      <trkpt lat="48.18989" lon="3.44304">
        <ele>137.39999389648</ele>
        <time>2017-12-24T08:50:56.000Z</time>
      </trkpt>
      <trkpt lat="48.18991" lon="3.44303">
        <ele>137.80000305176</ele>
        <time>2017-12-24T08:50:57.000Z</time>
      </trkpt>
      <trkpt lat="48.18992" lon="3.44302">
        <ele>138.19999694824</ele>
        <time>2017-12-24T08:50:58.000Z</time>
      </trkpt>
      <trkpt lat="48.18994" lon="3.44302">
        <ele>138.60000610352</ele>
        <time>2017-12-24T08:50:59.000Z</time>
      </trkpt>
      <trkpt lat="48.18995" lon="3.44302">
        <ele>139</ele>
        <time>2017-12-24T08:51:00.000Z</time>
      </trkpt>
      <trkpt lat="48.18997" lon="3.44302">
        <ele>139</ele>
        <time>2017-12-24T08:51:01.000Z</time>
      </trkpt>
      <trkpt lat="48.18998" lon="3.44301">
        <ele>139</ele>
        <time>2017-12-24T08:51:02.000Z</time>
      </trkpt>
      <trkpt lat="48.19001" lon="3.443">
        <ele>139.39999389648</ele>
        <time>2017-12-24T08:51:04.000Z</time>
      </trkpt>
      <trkpt lat="48.19003" lon="3.44299">
        <ele>139.80000305176</ele>
        <time>2017-12-24T08:51:05.000Z</time>
      </trkpt>
      <trkpt lat="48.19004" lon="3.44298">
        <ele>140.19999694824</ele>
        <time>2017-12-24T08:51:06.000Z</time>
      </trkpt>
      <trkpt lat="48.19005" lon="3.44298">
        <ele>140.60000610352</ele>
        <time>2017-12-24T08:51:07.000Z</time>
      </trkpt>
      <trkpt lat="48.19007" lon="3.44297">
        <ele>141</ele>
        <time>2017-12-24T08:51:08.000Z</time>
      </trkpt>
      <trkpt lat="48.19009" lon="3.44296">
        <ele>141</ele>
        <time>2017-12-24T08:51:10.000Z</time>
      </trkpt>
      <trkpt lat="48.19011" lon="3.44294">
        <ele>141</ele>
        <time>2017-12-24T08:51:11.000Z</time>
      </trkpt>
      <trkpt lat="48.19012" lon="3.44292">
        <ele>141.39999389648</ele>
        <time>2017-12-24T08:51:12.000Z</time>
      </trkpt>
      <trkpt lat="48.19013" lon="3.4429">
        <ele>142.19999694824</ele>
        <time>2017-12-24T08:51:13.000Z</time>
      </trkpt>
      <trkpt lat="48.19014" lon="3.4429">
        <ele>142.80000305176</ele>
        <time>2017-12-24T08:51:14.000Z</time>
      </trkpt>
      <trkpt lat="48.19016" lon="3.4429">
        <ele>143.19999694824</ele>
        <time>2017-12-24T08:51:15.000Z</time>
      </trkpt>
      <trkpt lat="48.19018" lon="3.44288">
        <ele>143.60000610352</ele>
        <time>2017-12-24T08:51:17.000Z</time>
      </trkpt>
      <trkpt lat="48.19019" lon="3.44288">
        <ele>144</ele>
        <time>2017-12-24T08:51:18.000Z</time>
      </trkpt>
      <trkpt lat="48.19021" lon="3.44287">
        <ele>144.39999389648</ele>
        <time>2017-12-24T08:51:19.000Z</time>
      </trkpt>
      <trkpt lat="48.19022" lon="3.44287">
        <ele>144.80000305176</ele>
        <time>2017-12-24T08:51:20.000Z</time>
      </trkpt>
      <trkpt lat="48.19023" lon="3.44286">
        <ele>145.19999694824</ele>
        <time>2017-12-24T08:51:21.000Z</time>
      </trkpt>
      <trkpt lat="48.19026" lon="3.44283">
        <ele>145.80000305176</ele>
        <time>2017-12-24T08:51:23.000Z</time>
      </trkpt>
      <trkpt lat="48.19028" lon="3.44282">
        <ele>146.19999694824</ele>
        <time>2017-12-24T08:51:24.000Z</time>
      </trkpt>
      <trkpt lat="48.19029" lon="3.4428">
        <ele>146.60000610352</ele>
        <time>2017-12-24T08:51:25.000Z</time>
      </trkpt>
      <trkpt lat="48.1903" lon="3.44278">
        <ele>147</ele>
        <time>2017-12-24T08:51:26.000Z</time>
      </trkpt>
      <trkpt lat="48.19032" lon="3.44276">
        <ele>147.39999389648</ele>
        <time>2017-12-24T08:51:27.000Z</time>
      </trkpt>
      <trkpt lat="48.19033" lon="3.44274">
        <ele>147.39999389648</ele>
        <time>2017-12-24T08:51:28.000Z</time>
      </trkpt>
      <trkpt lat="48.19036" lon="3.44269">
        <ele>147.80000305176</ele>
        <time>2017-12-24T08:51:31.000Z</time>
      </trkpt>
      <trkpt lat="48.19038" lon="3.44268">
        <ele>148.39999389648</ele>
        <time>2017-12-24T08:51:32.000Z</time>
      </trkpt>
      <trkpt lat="48.19039" lon="3.44266">
        <ele>148.80000305176</ele>
        <time>2017-12-24T08:51:33.000Z</time>
      </trkpt>
      <trkpt lat="48.1904" lon="3.44264">
        <ele>149.19999694824</ele>
        <time>2017-12-24T08:51:34.000Z</time>
      </trkpt>
      <trkpt lat="48.1904" lon="3.44261">
        <ele>149.60000610352</ele>
        <time>2017-12-24T08:51:35.000Z</time>
      </trkpt>
      <trkpt lat="48.19041" lon="3.44251">
        <ele>150</ele>
        <time>2017-12-24T08:51:39.000Z</time>
      </trkpt>
      <trkpt lat="48.19041" lon="3.44248">
        <ele>150.39999389648</ele>
        <time>2017-12-24T08:51:40.000Z</time>
      </trkpt>
      <trkpt lat="48.1904" lon="3.44245">
        <ele>150.80000305176</ele>
        <time>2017-12-24T08:51:41.000Z</time>
      </trkpt>
      <trkpt lat="48.19041" lon="3.44242">
        <ele>151.19999694824</ele>
        <time>2017-12-24T08:51:42.000Z</time>
      </trkpt>
      <trkpt lat="48.19042" lon="3.44239">
        <ele>151.60000610352</ele>
        <time>2017-12-24T08:51:43.000Z</time>
      </trkpt>
      <trkpt lat="48.19044" lon="3.44231">
        <ele>151.60000610352</ele>
        <time>2017-12-24T08:51:46.000Z</time>
      </trkpt>
      <trkpt lat="48.19048" lon="3.44224">
        <ele>151.60000610352</ele>
        <time>2017-12-24T08:51:49.000Z</time>
      </trkpt>
      <trkpt lat="48.19056" lon="3.44213">
        <ele>151.60000610352</ele>
        <time>2017-12-24T08:51:53.000Z</time>
      </trkpt>
      <trkpt lat="48.19071" lon="3.44203">
        <ele>151.60000610352</ele>
        <time>2017-12-24T08:51:58.000Z</time>
      </trkpt>
      <trkpt lat="48.19074" lon="3.44202">
        <ele>151.60000610352</ele>
        <time>2017-12-24T08:51:59.000Z</time>
      </trkpt>
      <trkpt lat="48.19091" lon="3.44193">
        <ele>151.60000610352</ele>
        <time>2017-12-24T08:52:03.000Z</time>
      </trkpt>
      <trkpt lat="48.19096" lon="3.44192">
        <ele>151.60000610352</ele>
        <time>2017-12-24T08:52:04.000Z</time>
      </trkpt>
      <trkpt lat="48.19109" lon="3.44193">
        <ele>151.60000610352</ele>
        <time>2017-12-24T08:52:07.000Z</time>
      </trkpt>
      <trkpt lat="48.19112" lon="3.44194">
        <ele>151.19999694824</ele>
        <time>2017-12-24T08:52:08.000Z</time>
      </trkpt>
      <trkpt lat="48.19114" lon="3.44195">
        <ele>150.60000610352</ele>
        <time>2017-12-24T08:52:09.000Z</time>
      </trkpt>
      <trkpt lat="48.19116" lon="3.44195">
        <ele>150.19999694824</ele>
        <time>2017-12-24T08:52:10.000Z</time>
      </trkpt>
      <trkpt lat="48.19117" lon="3.44196">
        <ele>149.80000305176</ele>
        <time>2017-12-24T08:52:11.000Z</time>
      </trkpt>
      <trkpt lat="48.1912" lon="3.44197">
        <ele>149.39999389648</ele>
        <time>2017-12-24T08:52:12.000Z</time>
      </trkpt>
      <trkpt lat="48.19121" lon="3.44196">
        <ele>149.39999389648</ele>
        <time>2017-12-24T08:52:13.000Z</time>
      </trkpt>
      <trkpt lat="48.19121" lon="3.44194">
        <ele>149.39999389648</ele>
        <time>2017-12-24T08:52:15.000Z</time>
      </trkpt>
      <trkpt lat="48.19122" lon="3.4419">
        <ele>149.39999389648</ele>
        <time>2017-12-24T08:52:18.000Z</time>
      </trkpt>
      <trkpt lat="48.19123" lon="3.44187">
        <ele>148.80000305176</ele>
        <time>2017-12-24T08:52:19.000Z</time>
      </trkpt>
      <trkpt lat="48.19122" lon="3.44182">
        <ele>148.39999389648</ele>
        <time>2017-12-24T08:52:20.000Z</time>
      </trkpt>
      <trkpt lat="48.19121" lon="3.44179">
        <ele>148</ele>
        <time>2017-12-24T08:52:21.000Z</time>
      </trkpt>
      <trkpt lat="48.19121" lon="3.44175">
        <ele>147.60000610352</ele>
        <time>2017-12-24T08:52:22.000Z</time>
      </trkpt>
      <trkpt lat="48.19121" lon="3.44172">
        <ele>147.19999694824</ele>
        <time>2017-12-24T08:52:23.000Z</time>
      </trkpt>
      <trkpt lat="48.19118" lon="3.44169">
        <ele>146.60000610352</ele>
        <time>2017-12-24T08:52:24.000Z</time>
      </trkpt>
      <trkpt lat="48.19117" lon="3.44165">
        <ele>146.19999694824</ele>
        <time>2017-12-24T08:52:25.000Z</time>
      </trkpt>
      <trkpt lat="48.19114" lon="3.44162">
        <ele>145.60000610352</ele>
        <time>2017-12-24T08:52:26.000Z</time>
      </trkpt>
      <trkpt lat="48.19111" lon="3.4416">
        <ele>144.60000610352</ele>
        <time>2017-12-24T08:52:27.000Z</time>
      </trkpt>
      <trkpt lat="48.19108" lon="3.44158">
        <ele>144.19999694824</ele>
        <time>2017-12-24T08:52:28.000Z</time>
      </trkpt>
      <trkpt lat="48.19106" lon="3.44157">
        <ele>143.80000305176</ele>
        <time>2017-12-24T08:52:29.000Z</time>
      </trkpt>
      <trkpt lat="48.19103" lon="3.44155">
        <ele>143.19999694824</ele>
        <time>2017-12-24T08:52:30.000Z</time>
      </trkpt>
      <trkpt lat="48.19101" lon="3.44154">
        <ele>142.80000305176</ele>
        <time>2017-12-24T08:52:31.000Z</time>
      </trkpt>
      <trkpt lat="48.19094" lon="3.44152">
        <ele>142.80000305176</ele>
        <time>2017-12-24T08:52:34.000Z</time>
      </trkpt>
      <trkpt lat="48.19081" lon="3.44139">
        <ele>142.80000305176</ele>
        <time>2017-12-24T08:52:39.000Z</time>
      </trkpt>
      <trkpt lat="48.19076" lon="3.44137">
        <ele>142.80000305176</ele>
        <time>2017-12-24T08:52:42.000Z</time>
      </trkpt>
      <trkpt lat="48.19071" lon="3.44128">
        <ele>142.80000305176</ele>
        <time>2017-12-24T08:52:46.000Z</time>
      </trkpt>
      <trkpt lat="48.19062" lon="3.44119">
        <ele>142.80000305176</ele>
        <time>2017-12-24T08:52:49.000Z</time>
      </trkpt>
      <trkpt lat="48.19049" lon="3.44102">
        <ele>142.80000305176</ele>
        <time>2017-12-24T08:52:54.000Z</time>
      </trkpt>
      <trkpt lat="48.19028" lon="3.44078">
        <ele>142.80000305176</ele>
        <time>2017-12-24T08:53:01.000Z</time>
      </trkpt>
      <trkpt lat="48.19014" lon="3.44062">
        <ele>142.80000305176</ele>
        <time>2017-12-24T08:53:06.000Z</time>
      </trkpt>
      <trkpt lat="48.18995" lon="3.44039">
        <ele>142.80000305176</ele>
        <time>2017-12-24T08:53:13.000Z</time>
      </trkpt>
      <trkpt lat="48.18983" lon="3.44024">
        <ele>142.80000305176</ele>
        <time>2017-12-24T08:53:18.000Z</time>
      </trkpt>
      <trkpt lat="48.18969" lon="3.44011">
        <ele>142.80000305176</ele>
        <time>2017-12-24T08:53:23.000Z</time>
      </trkpt>
      <trkpt lat="48.18951" lon="3.43992">
        <ele>142.80000305176</ele>
        <time>2017-12-24T08:53:29.000Z</time>
      </trkpt>
      <trkpt lat="48.18934" lon="3.43974">
        <ele>142.80000305176</ele>
        <time>2017-12-24T08:53:35.000Z</time>
      </trkpt>
      <trkpt lat="48.18915" lon="3.4396">
        <ele>142.80000305176</ele>
        <time>2017-12-24T08:53:41.000Z</time>
      </trkpt>
      <trkpt lat="48.18908" lon="3.43953">
        <ele>142.80000305176</ele>
        <time>2017-12-24T08:53:43.000Z</time>
      </trkpt>
      <trkpt lat="48.18898" lon="3.43945">
        <ele>142.80000305176</ele>
        <time>2017-12-24T08:53:45.000Z</time>
      </trkpt>
      <trkpt lat="48.18892" lon="3.43941">
        <ele>142.39999389648</ele>
        <time>2017-12-24T08:53:46.000Z</time>
      </trkpt>
      <trkpt lat="48.18887" lon="3.43936">
        <ele>141.80000305176</ele>
        <time>2017-12-24T08:53:47.000Z</time>
      </trkpt>
      <trkpt lat="48.18881" lon="3.43929">
        <ele>141.19999694824</ele>
        <time>2017-12-24T08:53:48.000Z</time>
      </trkpt>
      <trkpt lat="48.18874" lon="3.43924">
        <ele>140.60000610352</ele>
        <time>2017-12-24T08:53:49.000Z</time>
      </trkpt>
      <trkpt lat="48.18867" lon="3.43919">
        <ele>139.80000305176</ele>
        <time>2017-12-24T08:53:50.000Z</time>
      </trkpt>
      <trkpt lat="48.18861" lon="3.43915">
        <ele>139.19999694824</ele>
        <time>2017-12-24T08:53:51.000Z</time>
      </trkpt>
      <trkpt lat="48.18856" lon="3.43911">
        <ele>138.39999389648</ele>
        <time>2017-12-24T08:53:52.000Z</time>
      </trkpt>
      <trkpt lat="48.18849" lon="3.43907">
        <ele>137.80000305176</ele>
        <time>2017-12-24T08:53:53.000Z</time>
      </trkpt>
      <trkpt lat="48.18843" lon="3.43904">
        <ele>137</ele>
        <time>2017-12-24T08:53:54.000Z</time>
      </trkpt>
      <trkpt lat="48.18838" lon="3.43899">
        <ele>136.39999389648</ele>
        <time>2017-12-24T08:53:55.000Z</time>
      </trkpt>
      <trkpt lat="48.18834" lon="3.43895">
        <ele>135.60000610352</ele>
        <time>2017-12-24T08:53:56.000Z</time>
      </trkpt>
      <trkpt lat="48.18824" lon="3.43887">
        <ele>135.60000610352</ele>
        <time>2017-12-24T08:53:58.000Z</time>
      </trkpt>
      <trkpt lat="48.18811" lon="3.43879">
        <ele>135.60000610352</ele>
        <time>2017-12-24T08:54:01.000Z</time>
      </trkpt>
      <trkpt lat="48.18804" lon="3.43873">
        <ele>135.60000610352</ele>
        <time>2017-12-24T08:54:03.000Z</time>
      </trkpt>
      <trkpt lat="48.18796" lon="3.4387">
        <ele>135.19999694824</ele>
        <time>2017-12-24T08:54:05.000Z</time>
      </trkpt>
      <trkpt lat="48.18793" lon="3.43868">
        <ele>134.80000305176</ele>
        <time>2017-12-24T08:54:06.000Z</time>
      </trkpt>
      <trkpt lat="48.1879" lon="3.43866">
        <ele>134</ele>
        <time>2017-12-24T08:54:07.000Z</time>
      </trkpt>
      <trkpt lat="48.18786" lon="3.43863">
        <ele>133.39999389648</ele>
        <time>2017-12-24T08:54:08.000Z</time>
      </trkpt>
      <trkpt lat="48.18781" lon="3.43861">
        <ele>133.39999389648</ele>
        <time>2017-12-24T08:54:09.000Z</time>
      </trkpt>
      <trkpt lat="48.18772" lon="3.43855">
        <ele>133.39999389648</ele>
        <time>2017-12-24T08:54:11.000Z</time>
      </trkpt>
      <trkpt lat="48.18758" lon="3.43848">
        <ele>133.39999389648</ele>
        <time>2017-12-24T08:54:14.000Z</time>
      </trkpt>
      <trkpt lat="48.18753" lon="3.43844">
        <ele>133</ele>
        <time>2017-12-24T08:54:15.000Z</time>
      </trkpt>
      <trkpt lat="48.18748" lon="3.43842">
        <ele>132.60000610352</ele>
        <time>2017-12-24T08:54:16.000Z</time>
      </trkpt>
      <trkpt lat="48.18743" lon="3.43839">
        <ele>132.19999694824</ele>
        <time>2017-12-24T08:54:17.000Z</time>
      </trkpt>
      <trkpt lat="48.18739" lon="3.43837">
        <ele>131.80000305176</ele>
        <time>2017-12-24T08:54:18.000Z</time>
      </trkpt>
      <trkpt lat="48.18735" lon="3.43834">
        <ele>131.39999389648</ele>
        <time>2017-12-24T08:54:19.000Z</time>
      </trkpt>
      <trkpt lat="48.18732" lon="3.43833">
        <ele>130.80000305176</ele>
        <time>2017-12-24T08:54:20.000Z</time>
      </trkpt>
      <trkpt lat="48.1873" lon="3.43835">
        <ele>130.39999389648</ele>
        <time>2017-12-24T08:54:21.000Z</time>
      </trkpt>
      <trkpt lat="48.18729" lon="3.43835">
        <ele>129.80000305176</ele>
        <time>2017-12-24T08:54:22.000Z</time>
      </trkpt>
      <trkpt lat="48.18727" lon="3.43835">
        <ele>129.19999694824</ele>
        <time>2017-12-24T08:54:23.000Z</time>
      </trkpt>
      <trkpt lat="48.18726" lon="3.43834">
        <ele>128.80000305176</ele>
        <time>2017-12-24T08:54:24.000Z</time>
      </trkpt>
      <trkpt lat="48.18722" lon="3.43835">
        <ele>128.80000305176</ele>
        <time>2017-12-24T08:54:26.000Z</time>
      </trkpt>
      <trkpt lat="48.1872" lon="3.43836">
        <ele>128.80000305176</ele>
        <time>2017-12-24T08:54:27.000Z</time>
      </trkpt>
      <trkpt lat="48.18713" lon="3.43842">
        <ele>128.80000305176</ele>
        <time>2017-12-24T08:54:32.000Z</time>
      </trkpt>
      <trkpt lat="48.18712" lon="3.43844">
        <ele>128.80000305176</ele>
        <time>2017-12-24T08:54:33.000Z</time>
      </trkpt>
      <trkpt lat="48.18708" lon="3.43849">
        <ele>128.80000305176</ele>
        <time>2017-12-24T08:54:37.000Z</time>
      </trkpt>
      <trkpt lat="48.18708" lon="3.43849">
        <ele>128.80000305176</ele>
        <time>2017-12-24T08:54:38.000Z</time>
      </trkpt>
      <trkpt lat="48.18707" lon="3.43847">
        <ele>128.80000305176</ele>
        <time>2017-12-24T08:55:27.000Z</time>
      </trkpt>
      <trkpt lat="48.18705" lon="3.43844">
        <ele>128.80000305176</ele>
        <time>2017-12-24T08:55:28.000Z</time>
      </trkpt>
      <trkpt lat="48.18702" lon="3.4384">
        <ele>128.80000305176</ele>
        <time>2017-12-24T08:55:29.000Z</time>
      </trkpt>
      <trkpt lat="48.18697" lon="3.43833">
        <ele>128.19999694824</ele>
        <time>2017-12-24T08:55:31.000Z</time>
      </trkpt>
      <trkpt lat="48.18694" lon="3.43831">
        <ele>127.80000305176</ele>
        <time>2017-12-24T08:55:32.000Z</time>
      </trkpt>
      <trkpt lat="48.1869" lon="3.43828">
        <ele>127.40000152588</ele>
        <time>2017-12-24T08:55:33.000Z</time>
      </trkpt>
      <trkpt lat="48.18687" lon="3.43827">
        <ele>126.80000305176</ele>
        <time>2017-12-24T08:55:34.000Z</time>
      </trkpt>
      <trkpt lat="48.18686" lon="3.43827">
        <ele>126.19999694824</ele>
        <time>2017-12-24T08:55:35.000Z</time>
      </trkpt>
      <trkpt lat="48.18685" lon="3.43828">
        <ele>125.59999847412</ele>
        <time>2017-12-24T08:55:36.000Z</time>
      </trkpt>
      <trkpt lat="48.18684" lon="3.4383">
        <ele>125.19999694824</ele>
        <time>2017-12-24T08:55:37.000Z</time>
      </trkpt>
      <trkpt lat="48.18682" lon="3.43833">
        <ele>124.59999847412</ele>
        <time>2017-12-24T08:55:38.000Z</time>
      </trkpt>
      <trkpt lat="48.18681" lon="3.43835">
        <ele>124</ele>
        <time>2017-12-24T08:55:39.000Z</time>
      </trkpt>
      <trkpt lat="48.18682" lon="3.43845">
        <ele>124</ele>
        <time>2017-12-24T08:55:42.000Z</time>
      </trkpt>
      <trkpt lat="48.18681" lon="3.43852">
        <ele>124</ele>
        <time>2017-12-24T08:55:44.000Z</time>
      </trkpt>
      <trkpt lat="48.18681" lon="3.43859">
        <ele>124</ele>
        <time>2017-12-24T08:55:46.000Z</time>
      </trkpt>
      <trkpt lat="48.1868" lon="3.43862">
        <ele>124</ele>
        <time>2017-12-24T08:55:47.000Z</time>
      </trkpt>
      <trkpt lat="48.1868" lon="3.43866">
        <ele>124</ele>
        <time>2017-12-24T08:55:48.000Z</time>
      </trkpt>
      <trkpt lat="48.1868" lon="3.4387">
        <ele>124</ele>
        <time>2017-12-24T08:55:49.000Z</time>
      </trkpt>
      <trkpt lat="48.18679" lon="3.43875">
        <ele>124</ele>
        <time>2017-12-24T08:55:51.000Z</time>
      </trkpt>
      <trkpt lat="48.18678" lon="3.43878">
        <ele>124</ele>
        <time>2017-12-24T08:55:52.000Z</time>
      </trkpt>
      <trkpt lat="48.18678" lon="3.43881">
        <ele>124</ele>
        <time>2017-12-24T08:55:53.000Z</time>
      </trkpt>
      <trkpt lat="48.18677" lon="3.43886">
        <ele>124</ele>
        <time>2017-12-24T08:55:55.000Z</time>
      </trkpt>
      <trkpt lat="48.18676" lon="3.4389">
        <ele>124</ele>
        <time>2017-12-24T08:55:57.000Z</time>
      </trkpt>
      <trkpt lat="48.18676" lon="3.43892">
        <ele>124</ele>
        <time>2017-12-24T08:55:58.000Z</time>
      </trkpt>
      <trkpt lat="48.18676" lon="3.43895">
        <ele>124</ele>
        <time>2017-12-24T08:55:59.000Z</time>
      </trkpt>
      <trkpt lat="48.18675" lon="3.43897">
        <ele>124</ele>
        <time>2017-12-24T08:56:01.000Z</time>
      </trkpt>
      <trkpt lat="48.18673" lon="3.43899">
        <ele>124</ele>
        <time>2017-12-24T08:56:02.000Z</time>
      </trkpt>
      <trkpt lat="48.18664" lon="3.4391">
        <ele>124</ele>
        <time>2017-12-24T08:56:07.000Z</time>
      </trkpt>
      <trkpt lat="48.1866" lon="3.43916">
        <ele>124</ele>
        <time>2017-12-24T08:56:09.000Z</time>
      </trkpt>
      <trkpt lat="48.18652" lon="3.43928">
        <ele>123.59999847412</ele>
        <time>2017-12-24T08:56:13.000Z</time>
      </trkpt>
      <trkpt lat="48.1865" lon="3.43931">
        <ele>123.19999694824</ele>
        <time>2017-12-24T08:56:14.000Z</time>
      </trkpt>
      <trkpt lat="48.18648" lon="3.43934">
        <ele>122.80000305176</ele>
        <time>2017-12-24T08:56:15.000Z</time>
      </trkpt>
      <trkpt lat="48.18645" lon="3.43936">
        <ele>122.40000152588</ele>
        <time>2017-12-24T08:56:16.000Z</time>
      </trkpt>
      <trkpt lat="48.18642" lon="3.43937">
        <ele>122</ele>
        <time>2017-12-24T08:56:17.000Z</time>
      </trkpt>
      <trkpt lat="48.1864" lon="3.43938">
        <ele>121.40000152588</ele>
        <time>2017-12-24T08:56:18.000Z</time>
      </trkpt>
      <trkpt lat="48.18638" lon="3.43942">
        <ele>121</ele>
        <time>2017-12-24T08:56:19.000Z</time>
      </trkpt>
      <trkpt lat="48.18635" lon="3.43945">
        <ele>120.59999847412</ele>
        <time>2017-12-24T08:56:20.000Z</time>
      </trkpt>
      <trkpt lat="48.18632" lon="3.43947">
        <ele>120.19999694824</ele>
        <time>2017-12-24T08:56:21.000Z</time>
      </trkpt>
      <trkpt lat="48.1863" lon="3.43951">
        <ele>119.59999847412</ele>
        <time>2017-12-24T08:56:22.000Z</time>
      </trkpt>
      <trkpt lat="48.18628" lon="3.43955">
        <ele>119</ele>
        <time>2017-12-24T08:56:23.000Z</time>
      </trkpt>
      <trkpt lat="48.18627" lon="3.43959">
        <ele>118.40000152588</ele>
        <time>2017-12-24T08:56:24.000Z</time>
      </trkpt>
      <trkpt lat="48.18626" lon="3.43964">
        <ele>118</ele>
        <time>2017-12-24T08:56:25.000Z</time>
      </trkpt>
      <trkpt lat="48.18625" lon="3.4397">
        <ele>117.40000152588</ele>
        <time>2017-12-24T08:56:26.000Z</time>
      </trkpt>
      <trkpt lat="48.18624" lon="3.43977">
        <ele>116.80000305176</ele>
        <time>2017-12-24T08:56:27.000Z</time>
      </trkpt>
      <trkpt lat="48.18624" lon="3.43984">
        <ele>116.19999694824</ele>
        <time>2017-12-24T08:56:28.000Z</time>
      </trkpt>
      <trkpt lat="48.18625" lon="3.43991">
        <ele>115.80000305176</ele>
        <time>2017-12-24T08:56:29.000Z</time>
      </trkpt>
      <trkpt lat="48.18626" lon="3.43999">
        <ele>115.19999694824</ele>
        <time>2017-12-24T08:56:30.000Z</time>
      </trkpt>
      <trkpt lat="48.18627" lon="3.44007">
        <ele>114.59999847412</ele>
        <time>2017-12-24T08:56:31.000Z</time>
      </trkpt>
      <trkpt lat="48.18629" lon="3.44015">
        <ele>114</ele>
        <time>2017-12-24T08:56:32.000Z</time>
      </trkpt>
      <trkpt lat="48.18631" lon="3.44022">
        <ele>113.40000152588</ele>
        <time>2017-12-24T08:56:33.000Z</time>
      </trkpt>
      <trkpt lat="48.18633" lon="3.4403">
        <ele>112.80000305176</ele>
        <time>2017-12-24T08:56:34.000Z</time>
      </trkpt>
      <trkpt lat="48.18635" lon="3.44036">
        <ele>112</ele>
        <time>2017-12-24T08:56:35.000Z</time>
      </trkpt>
      <trkpt lat="48.18637" lon="3.44042">
        <ele>111.59999847412</ele>
        <time>2017-12-24T08:56:36.000Z</time>
      </trkpt>
      <trkpt lat="48.18639" lon="3.44048">
        <ele>111.19999694824</ele>
        <time>2017-12-24T08:56:37.000Z</time>
      </trkpt>
      <trkpt lat="48.18641" lon="3.44055">
        <ele>110.80000305176</ele>
        <time>2017-12-24T08:56:38.000Z</time>
      </trkpt>
      <trkpt lat="48.18646" lon="3.4407">
        <ele>110.40000152588</ele>
        <time>2017-12-24T08:56:40.000Z</time>
      </trkpt>
      <trkpt lat="48.18648" lon="3.44077">
        <ele>110</ele>
        <time>2017-12-24T08:56:41.000Z</time>
      </trkpt>
      <trkpt lat="48.18651" lon="3.44084">
        <ele>109.59999847412</ele>
        <time>2017-12-24T08:56:42.000Z</time>
      </trkpt>
      <trkpt lat="48.18654" lon="3.44091">
        <ele>109.19999694824</ele>
        <time>2017-12-24T08:56:43.000Z</time>
      </trkpt>
      <trkpt lat="48.18657" lon="3.44097">
        <ele>108.80000305176</ele>
        <time>2017-12-24T08:56:44.000Z</time>
      </trkpt>
      <trkpt lat="48.18666" lon="3.44112">
        <ele>108.80000305176</ele>
        <time>2017-12-24T08:56:47.000Z</time>
      </trkpt>
      <trkpt lat="48.18679" lon="3.44133">
        <ele>108.80000305176</ele>
        <time>2017-12-24T08:56:53.000Z</time>
      </trkpt>
      <trkpt lat="48.18687" lon="3.4415">
        <ele>108.80000305176</ele>
        <time>2017-12-24T08:56:58.000Z</time>
      </trkpt>
      <trkpt lat="48.1869" lon="3.44164">
        <ele>108.19999694824</ele>
        <time>2017-12-24T08:57:01.000Z</time>
      </trkpt>
      <trkpt lat="48.18691" lon="3.4417">
        <ele>107.80000305176</ele>
        <time>2017-12-24T08:57:02.000Z</time>
      </trkpt>
      <trkpt lat="48.18691" lon="3.44177">
        <ele>107.40000152588</ele>
        <time>2017-12-24T08:57:03.000Z</time>
      </trkpt>
      <trkpt lat="48.18693" lon="3.44184">
        <ele>107</ele>
        <time>2017-12-24T08:57:04.000Z</time>
      </trkpt>
      <trkpt lat="48.18695" lon="3.44192">
        <ele>106.59999847412</ele>
        <time>2017-12-24T08:57:05.000Z</time>
      </trkpt>
      <trkpt lat="48.18698" lon="3.44205">
        <ele>106</ele>
        <time>2017-12-24T08:57:07.000Z</time>
      </trkpt>
      <trkpt lat="48.187" lon="3.4421">
        <ele>105.59999847412</ele>
        <time>2017-12-24T08:57:08.000Z</time>
      </trkpt>
      <trkpt lat="48.18701" lon="3.44215">
        <ele>105.19999694824</ele>
        <time>2017-12-24T08:57:09.000Z</time>
      </trkpt>
      <trkpt lat="48.18704" lon="3.44218">
        <ele>104.59999847412</ele>
        <time>2017-12-24T08:57:10.000Z</time>
      </trkpt>
      <trkpt lat="48.18707" lon="3.44221">
        <ele>104.19999694824</ele>
        <time>2017-12-24T08:57:11.000Z</time>
      </trkpt>
      <trkpt lat="48.18711" lon="3.44228">
        <ele>104.19999694824</ele>
        <time>2017-12-24T08:57:13.000Z</time>
      </trkpt>
      <trkpt lat="48.18716" lon="3.44251">
        <ele>104.19999694824</ele>
        <time>2017-12-24T08:57:18.000Z</time>
      </trkpt>
      <trkpt lat="48.18717" lon="3.44257">
        <ele>103.80000305176</ele>
        <time>2017-12-24T08:57:19.000Z</time>
      </trkpt>
      <trkpt lat="48.1872" lon="3.44262">
        <ele>103.19999694824</ele>
        <time>2017-12-24T08:57:20.000Z</time>
      </trkpt>
      <trkpt lat="48.18723" lon="3.44263">
        <ele>102.80000305176</ele>
        <time>2017-12-24T08:57:21.000Z</time>
      </trkpt>
      <trkpt lat="48.18725" lon="3.44263">
        <ele>102.19999694824</ele>
        <time>2017-12-24T08:57:22.000Z</time>
      </trkpt>
      <trkpt lat="48.18726" lon="3.44264">
        <ele>101.80000305176</ele>
        <time>2017-12-24T08:57:23.000Z</time>
      </trkpt>
      <trkpt lat="48.18732" lon="3.44268">
        <ele>101.80000305176</ele>
        <time>2017-12-24T08:57:28.000Z</time>
      </trkpt>
      <trkpt lat="48.18736" lon="3.4427">
        <ele>101.80000305176</ele>
        <time>2017-12-24T08:57:31.000Z</time>
      </trkpt>
      <trkpt lat="48.18739" lon="3.44272">
        <ele>101.80000305176</ele>
        <time>2017-12-24T08:57:33.000Z</time>
      </trkpt>
      <trkpt lat="48.18747" lon="3.44275">
        <ele>101.80000305176</ele>
        <time>2017-12-24T08:57:39.000Z</time>
      </trkpt>
      <trkpt lat="48.18748" lon="3.44276">
        <ele>101.80000305176</ele>
        <time>2017-12-24T08:57:40.000Z</time>
      </trkpt>
      <trkpt lat="48.18757" lon="3.4428">
        <ele>101.80000305176</ele>
        <time>2017-12-24T08:57:47.000Z</time>
      </trkpt>
      <trkpt lat="48.18764" lon="3.44283">
        <ele>101.80000305176</ele>
        <time>2017-12-24T08:57:52.000Z</time>
      </trkpt>
      <trkpt lat="48.18764" lon="3.4428">
        <ele>101.80000305176</ele>
        <time>2017-12-24T08:57:54.000Z</time>
      </trkpt>
      <trkpt lat="48.18758" lon="3.44278">
        <ele>101.80000305176</ele>
        <time>2017-12-24T08:57:57.000Z</time>
      </trkpt>
      <trkpt lat="48.18755" lon="3.44277">
        <ele>101.80000305176</ele>
        <time>2017-12-24T08:57:58.000Z</time>
      </trkpt>
      <trkpt lat="48.1874" lon="3.44273">
        <ele>101.80000305176</ele>
        <time>2017-12-24T08:58:05.000Z</time>
      </trkpt>
      <trkpt lat="48.18733" lon="3.44269">
        <ele>101.80000305176</ele>
        <time>2017-12-24T08:58:08.000Z</time>
      </trkpt>
      <trkpt lat="48.18724" lon="3.44264">
        <ele>101.80000305176</ele>
        <time>2017-12-24T08:58:12.000Z</time>
      </trkpt>
      <trkpt lat="48.18718" lon="3.4426">
        <ele>101.80000305176</ele>
        <time>2017-12-24T08:58:15.000Z</time>
      </trkpt>
      <trkpt lat="48.18717" lon="3.44255">
        <ele>101.40000152588</ele>
        <time>2017-12-24T08:58:17.000Z</time>
      </trkpt>
      <trkpt lat="48.18716" lon="3.44252">
        <ele>101</ele>
        <time>2017-12-24T08:58:18.000Z</time>
      </trkpt>
      <trkpt lat="48.18716" lon="3.4425">
        <ele>100.59999847412</ele>
        <time>2017-12-24T08:58:19.000Z</time>
      </trkpt>
      <trkpt lat="48.18716" lon="3.44248">
        <ele>100.19999694824</ele>
        <time>2017-12-24T08:58:20.000Z</time>
      </trkpt>
      <trkpt lat="48.18716" lon="3.44246">
        <ele>99.800003051758</ele>
        <time>2017-12-24T08:58:21.000Z</time>
      </trkpt>
      <trkpt lat="48.18715" lon="3.44238">
        <ele>99.800003051758</ele>
        <time>2017-12-24T08:58:24.000Z</time>
      </trkpt>
      <trkpt lat="48.18713" lon="3.44233">
        <ele>99.800003051758</ele>
        <time>2017-12-24T08:58:26.000Z</time>
      </trkpt>
      <trkpt lat="48.18711" lon="3.44229">
        <ele>100.19999694824</ele>
        <time>2017-12-24T08:58:28.000Z</time>
      </trkpt>
      <trkpt lat="48.1871" lon="3.44227">
        <ele>100.59999847412</ele>
        <time>2017-12-24T08:58:29.000Z</time>
      </trkpt>
      <trkpt lat="48.18708" lon="3.44224">
        <ele>101</ele>
        <time>2017-12-24T08:58:30.000Z</time>
      </trkpt>
      <trkpt lat="48.18708" lon="3.44222">
        <ele>101.40000152588</ele>
        <time>2017-12-24T08:58:31.000Z</time>
      </trkpt>
      <trkpt lat="48.18706" lon="3.4422">
        <ele>101.80000305176</ele>
        <time>2017-12-24T08:58:32.000Z</time>
      </trkpt>
      <trkpt lat="48.187" lon="3.44212">
        <ele>101.80000305176</ele>
        <time>2017-12-24T08:58:36.000Z</time>
      </trkpt>
      <trkpt lat="48.18697" lon="3.44202">
        <ele>101.80000305176</ele>
        <time>2017-12-24T08:58:40.000Z</time>
      </trkpt>
      <trkpt lat="48.18692" lon="3.44184">
        <ele>101.80000305176</ele>
        <time>2017-12-24T08:58:47.000Z</time>
      </trkpt>
      <trkpt lat="48.18691" lon="3.44175">
        <ele>102.19999694824</ele>
        <time>2017-12-24T08:58:50.000Z</time>
      </trkpt>
      <trkpt lat="48.1869" lon="3.44173">
        <ele>102.59999847412</ele>
        <time>2017-12-24T08:58:51.000Z</time>
      </trkpt>
      <trkpt lat="48.1869" lon="3.4417">
        <ele>103</ele>
        <time>2017-12-24T08:58:52.000Z</time>
      </trkpt>
      <trkpt lat="48.1869" lon="3.44168">
        <ele>103.40000152588</ele>
        <time>2017-12-24T08:58:53.000Z</time>
      </trkpt>
      <trkpt lat="48.18689" lon="3.44165">
        <ele>104</ele>
        <time>2017-12-24T08:58:54.000Z</time>
      </trkpt>
      <trkpt lat="48.18688" lon="3.4416">
        <ele>104</ele>
        <time>2017-12-24T08:58:56.000Z</time>
      </trkpt>
      <trkpt lat="48.18686" lon="3.44151">
        <ele>104.40000152588</ele>
        <time>2017-12-24T08:59:01.000Z</time>
      </trkpt>
      <trkpt lat="48.18686" lon="3.44152">
        <ele>104.80000305176</ele>
        <time>2017-12-24T08:59:02.000Z</time>
      </trkpt>
      <trkpt lat="48.18685" lon="3.44154">
        <ele>105.19999694824</ele>
        <time>2017-12-24T08:59:03.000Z</time>
      </trkpt>
      <trkpt lat="48.18685" lon="3.44155">
        <ele>106.19999694824</ele>
        <time>2017-12-24T08:59:04.000Z</time>
      </trkpt>
      <trkpt lat="48.18687" lon="3.44159">
        <ele>106.19999694824</ele>
        <time>2017-12-24T08:59:06.000Z</time>
      </trkpt>
      <trkpt lat="48.18688" lon="3.44162">
        <ele>106.19999694824</ele>
        <time>2017-12-24T08:59:08.000Z</time>
      </trkpt>
      <trkpt lat="48.18691" lon="3.44175">
        <ele>106.19999694824</ele>
        <time>2017-12-24T08:59:12.000Z</time>
      </trkpt>
      <trkpt lat="48.18697" lon="3.44199">
        <ele>105.59999847412</ele>
        <time>2017-12-24T08:59:17.000Z</time>
      </trkpt>
      <trkpt lat="48.18698" lon="3.44204">
        <ele>105.19999694824</ele>
        <time>2017-12-24T08:59:18.000Z</time>
      </trkpt>
      <trkpt lat="48.18699" lon="3.44208">
        <ele>104.80000305176</ele>
        <time>2017-12-24T08:59:19.000Z</time>
      </trkpt>
      <trkpt lat="48.18701" lon="3.44212">
        <ele>104.40000152588</ele>
        <time>2017-12-24T08:59:20.000Z</time>
      </trkpt>
      <trkpt lat="48.18703" lon="3.44215">
        <ele>104</ele>
        <time>2017-12-24T08:59:21.000Z</time>
      </trkpt>
      <trkpt lat="48.18711" lon="3.44229">
        <ele>104</ele>
        <time>2017-12-24T08:59:25.000Z</time>
      </trkpt>
      <trkpt lat="48.18716" lon="3.44239">
        <ele>104</ele>
        <time>2017-12-24T08:59:28.000Z</time>
      </trkpt>
      <trkpt lat="48.18717" lon="3.44246">
        <ele>103.59999847412</ele>
        <time>2017-12-24T08:59:30.000Z</time>
      </trkpt>
      <trkpt lat="48.18716" lon="3.4425">
        <ele>103.19999694824</ele>
        <time>2017-12-24T08:59:31.000Z</time>
      </trkpt>
      <trkpt lat="48.18716" lon="3.44253">
        <ele>102.80000305176</ele>
        <time>2017-12-24T08:59:32.000Z</time>
      </trkpt>
      <trkpt lat="48.18716" lon="3.44258">
        <ele>102.40000152588</ele>
        <time>2017-12-24T08:59:33.000Z</time>
      </trkpt>
      <trkpt lat="48.18718" lon="3.44261">
        <ele>102</ele>
        <time>2017-12-24T08:59:34.000Z</time>
      </trkpt>
      <trkpt lat="48.18719" lon="3.44262">
        <ele>101.59999847412</ele>
        <time>2017-12-24T08:59:35.000Z</time>
      </trkpt>
      <trkpt lat="48.18721" lon="3.44263">
        <ele>101</ele>
        <time>2017-12-24T08:59:36.000Z</time>
      </trkpt>
      <trkpt lat="48.18722" lon="3.44263">
        <ele>100.59999847412</ele>
        <time>2017-12-24T08:59:37.000Z</time>
      </trkpt>
      <trkpt lat="48.18723" lon="3.44264">
        <ele>100.19999694824</ele>
        <time>2017-12-24T08:59:38.000Z</time>
      </trkpt>
      <trkpt lat="48.18724" lon="3.44265">
        <ele>99.800003051758</ele>
        <time>2017-12-24T08:59:39.000Z</time>
      </trkpt>
      <trkpt lat="48.18731" lon="3.44268">
        <ele>99.800003051758</ele>
        <time>2017-12-24T08:59:45.000Z</time>
      </trkpt>
      <trkpt lat="48.18732" lon="3.44269">
        <ele>99.800003051758</ele>
        <time>2017-12-24T08:59:46.000Z</time>
      </trkpt>
      <trkpt lat="48.18735" lon="3.44271">
        <ele>99.800003051758</ele>
        <time>2017-12-24T08:59:49.000Z</time>
      </trkpt>
      <trkpt lat="48.18736" lon="3.44271">
        <ele>99.800003051758</ele>
        <time>2017-12-24T08:59:50.000Z</time>
      </trkpt>
      <trkpt lat="48.1874" lon="3.44273">
        <ele>99.800003051758</ele>
        <time>2017-12-24T08:59:53.000Z</time>
      </trkpt>
      <trkpt lat="48.18744" lon="3.44274">
        <ele>99.800003051758</ele>
        <time>2017-12-24T08:59:56.000Z</time>
      </trkpt>
      <trkpt lat="48.18749" lon="3.44277">
        <ele>100.19999694824</ele>
        <time>2017-12-24T09:00:00.000Z</time>
      </trkpt>
      <trkpt lat="48.1875" lon="3.44277">
        <ele>100.59999847412</ele>
        <time>2017-12-24T09:00:01.000Z</time>
      </trkpt>
      <trkpt lat="48.18752" lon="3.44278">
        <ele>101</ele>
        <time>2017-12-24T09:00:02.000Z</time>
      </trkpt>
      <trkpt lat="48.18753" lon="3.44278">
        <ele>101.40000152588</ele>
        <time>2017-12-24T09:00:03.000Z</time>
      </trkpt>
      <trkpt lat="48.18754" lon="3.44279">
        <ele>101.80000305176</ele>
        <time>2017-12-24T09:00:04.000Z</time>
      </trkpt>
      <trkpt lat="48.18759" lon="3.44281">
        <ele>101.80000305176</ele>
        <time>2017-12-24T09:00:08.000Z</time>
      </trkpt>
      <trkpt lat="48.18762" lon="3.44284">
        <ele>101.80000305176</ele>
        <time>2017-12-24T09:00:12.000Z</time>
      </trkpt>
      <trkpt lat="48.18761" lon="3.44284">
        <ele>101.80000305176</ele>
        <time>2017-12-24T09:00:13.000Z</time>
      </trkpt>
      <trkpt lat="48.18759" lon="3.44281">
        <ele>101.80000305176</ele>
        <time>2017-12-24T09:01:49.000Z</time>
      </trkpt>
      <trkpt lat="48.18758" lon="3.4428">
        <ele>101.80000305176</ele>
        <time>2017-12-24T09:01:50.000Z</time>
      </trkpt>
      <trkpt lat="48.18756" lon="3.44279">
        <ele>101.80000305176</ele>
        <time>2017-12-24T09:01:51.000Z</time>
      </trkpt>
      <trkpt lat="48.18748" lon="3.44275">
        <ele>101.80000305176</ele>
        <time>2017-12-24T09:01:54.000Z</time>
      </trkpt>
      <trkpt lat="48.18742" lon="3.44272">
        <ele>101.80000305176</ele>
        <time>2017-12-24T09:01:56.000Z</time>
      </trkpt>
      <trkpt lat="48.18726" lon="3.44264">
        <ele>101.80000305176</ele>
        <time>2017-12-24T09:02:00.000Z</time>
      </trkpt>
      <trkpt lat="48.18719" lon="3.44259">
        <ele>101.80000305176</ele>
        <time>2017-12-24T09:02:02.000Z</time>
      </trkpt>
      <trkpt lat="48.18717" lon="3.44255">
        <ele>101.80000305176</ele>
        <time>2017-12-24T09:02:03.000Z</time>
      </trkpt>
      <trkpt lat="48.18715" lon="3.44248">
        <ele>101.80000305176</ele>
        <time>2017-12-24T09:02:05.000Z</time>
      </trkpt>
      <trkpt lat="48.18714" lon="3.44237">
        <ele>101.80000305176</ele>
        <time>2017-12-24T09:02:08.000Z</time>
      </trkpt>
      <trkpt lat="48.18712" lon="3.4423">
        <ele>101.80000305176</ele>
        <time>2017-12-24T09:02:10.000Z</time>
      </trkpt>
      <trkpt lat="48.18711" lon="3.44227">
        <ele>101.80000305176</ele>
        <time>2017-12-24T09:02:11.000Z</time>
      </trkpt>
      <trkpt lat="48.18708" lon="3.44222">
        <ele>101.80000305176</ele>
        <time>2017-12-24T09:02:13.000Z</time>
      </trkpt>
      <trkpt lat="48.18705" lon="3.44217">
        <ele>101.80000305176</ele>
        <time>2017-12-24T09:02:15.000Z</time>
      </trkpt>
      <trkpt lat="48.18701" lon="3.44212">
        <ele>101.80000305176</ele>
        <time>2017-12-24T09:02:17.000Z</time>
      </trkpt>
      <trkpt lat="48.187" lon="3.44208">
        <ele>101.80000305176</ele>
        <time>2017-12-24T09:02:18.000Z</time>
      </trkpt>
      <trkpt lat="48.18697" lon="3.44201">
        <ele>101.80000305176</ele>
        <time>2017-12-24T09:02:20.000Z</time>
      </trkpt>
      <trkpt lat="48.18695" lon="3.44194">
        <ele>101.80000305176</ele>
        <time>2017-12-24T09:02:22.000Z</time>
      </trkpt>
      <trkpt lat="48.18693" lon="3.44186">
        <ele>101.80000305176</ele>
        <time>2017-12-24T09:02:24.000Z</time>
      </trkpt>
      <trkpt lat="48.18691" lon="3.44176">
        <ele>101.80000305176</ele>
        <time>2017-12-24T09:02:27.000Z</time>
      </trkpt>
      <trkpt lat="48.1869" lon="3.44168">
        <ele>102.19999694824</ele>
        <time>2017-12-24T09:02:30.000Z</time>
      </trkpt>
      <trkpt lat="48.1869" lon="3.44166">
        <ele>102.59999847412</ele>
        <time>2017-12-24T09:02:31.000Z</time>
      </trkpt>
      <trkpt lat="48.1869" lon="3.44164">
        <ele>103</ele>
        <time>2017-12-24T09:02:32.000Z</time>
      </trkpt>
      <trkpt lat="48.1869" lon="3.44162">
        <ele>103.59999847412</ele>
        <time>2017-12-24T09:02:33.000Z</time>
      </trkpt>
      <trkpt lat="48.18691" lon="3.4416">
        <ele>104</ele>
        <time>2017-12-24T09:02:34.000Z</time>
      </trkpt>
      <trkpt lat="48.18692" lon="3.44158">
        <ele>104</ele>
        <time>2017-12-24T09:02:35.000Z</time>
      </trkpt>
      <trkpt lat="48.18696" lon="3.44159">
        <ele>104.40000152588</ele>
        <time>2017-12-24T09:02:38.000Z</time>
      </trkpt>
      <trkpt lat="48.18697" lon="3.44161">
        <ele>104.80000305176</ele>
        <time>2017-12-24T09:02:39.000Z</time>
      </trkpt>
      <trkpt lat="48.18698" lon="3.44163">
        <ele>105.40000152588</ele>
        <time>2017-12-24T09:02:40.000Z</time>
      </trkpt>
      <trkpt lat="48.187" lon="3.44165">
        <ele>105.80000305176</ele>
        <time>2017-12-24T09:02:41.000Z</time>
      </trkpt>
      <trkpt lat="48.18701" lon="3.44167">
        <ele>106.19999694824</ele>
        <time>2017-12-24T09:02:42.000Z</time>
      </trkpt>
      <trkpt lat="48.18705" lon="3.44171">
        <ele>106.19999694824</ele>
        <time>2017-12-24T09:02:46.000Z</time>
      </trkpt>
      <trkpt lat="48.18707" lon="3.44173">
        <ele>106.19999694824</ele>
        <time>2017-12-24T09:02:48.000Z</time>
      </trkpt>
      <trkpt lat="48.18708" lon="3.44175">
        <ele>106.59999847412</ele>
        <time>2017-12-24T09:02:49.000Z</time>
      </trkpt>
      <trkpt lat="48.18708" lon="3.44177">
        <ele>107</ele>
        <time>2017-12-24T09:02:50.000Z</time>
      </trkpt>
      <trkpt lat="48.18709" lon="3.44178">
        <ele>107.59999847412</ele>
        <time>2017-12-24T09:02:51.000Z</time>
      </trkpt>
      <trkpt lat="48.1871" lon="3.4418">
        <ele>108</ele>
        <time>2017-12-24T09:02:52.000Z</time>
      </trkpt>
      <trkpt lat="48.18711" lon="3.44181">
        <ele>108.40000152588</ele>
        <time>2017-12-24T09:02:53.000Z</time>
      </trkpt>
      <trkpt lat="48.18716" lon="3.44184">
        <ele>108.40000152588</ele>
        <time>2017-12-24T09:02:57.000Z</time>
      </trkpt>
      <trkpt lat="48.18718" lon="3.44185">
        <ele>108.40000152588</ele>
        <time>2017-12-24T09:02:59.000Z</time>
      </trkpt>
      <trkpt lat="48.18721" lon="3.44187">
        <ele>108.40000152588</ele>
        <time>2017-12-24T09:03:02.000Z</time>
      </trkpt>
      <trkpt lat="48.18724" lon="3.44188">
        <ele>108.40000152588</ele>
        <time>2017-12-24T09:03:04.000Z</time>
      </trkpt>
      <trkpt lat="48.18727" lon="3.44187">
        <ele>108.80000305176</ele>
        <time>2017-12-24T09:03:06.000Z</time>
      </trkpt>
      <trkpt lat="48.18728" lon="3.44186">
        <ele>109.19999694824</ele>
        <time>2017-12-24T09:03:07.000Z</time>
      </trkpt>
      <trkpt lat="48.18727" lon="3.44184">
        <ele>109.59999847412</ele>
        <time>2017-12-24T09:03:08.000Z</time>
      </trkpt>
      <trkpt lat="48.18727" lon="3.44183">
        <ele>110</ele>
        <time>2017-12-24T09:03:09.000Z</time>
      </trkpt>
      <trkpt lat="48.18727" lon="3.44181">
        <ele>110.40000152588</ele>
        <time>2017-12-24T09:03:10.000Z</time>
      </trkpt>
      <trkpt lat="48.18726" lon="3.44178">
        <ele>110.80000305176</ele>
        <time>2017-12-24T09:03:12.000Z</time>
      </trkpt>
      <trkpt lat="48.18727" lon="3.44177">
        <ele>111.19999694824</ele>
        <time>2017-12-24T09:03:13.000Z</time>
      </trkpt>
      <trkpt lat="48.18726" lon="3.44175">
        <ele>111.59999847412</ele>
        <time>2017-12-24T09:03:14.000Z</time>
      </trkpt>
      <trkpt lat="48.18726" lon="3.44174">
        <ele>112</ele>
        <time>2017-12-24T09:03:15.000Z</time>
      </trkpt>
      <trkpt lat="48.18726" lon="3.44172">
        <ele>112.40000152588</ele>
        <time>2017-12-24T09:03:16.000Z</time>
      </trkpt>
      <trkpt lat="48.18726" lon="3.44165">
        <ele>112.40000152588</ele>
        <time>2017-12-24T09:03:19.000Z</time>
      </trkpt>
      <trkpt lat="48.18725" lon="3.44156">
        <ele>113</ele>
        <time>2017-12-24T09:03:23.000Z</time>
      </trkpt>
      <trkpt lat="48.18725" lon="3.44155">
        <ele>113.40000152588</ele>
        <time>2017-12-24T09:03:24.000Z</time>
      </trkpt>
      <trkpt lat="48.18725" lon="3.44153">
        <ele>113.80000305176</ele>
        <time>2017-12-24T09:03:25.000Z</time>
      </trkpt>
      <trkpt lat="48.18724" lon="3.44151">
        <ele>114.19999694824</ele>
        <time>2017-12-24T09:03:26.000Z</time>
      </trkpt>
      <trkpt lat="48.18724" lon="3.4415">
        <ele>114.59999847412</ele>
        <time>2017-12-24T09:03:27.000Z</time>
      </trkpt>
      <trkpt lat="48.18723" lon="3.44145">
        <ele>114.59999847412</ele>
        <time>2017-12-24T09:03:30.000Z</time>
      </trkpt>
      <trkpt lat="48.18723" lon="3.4414">
        <ele>114.59999847412</ele>
        <time>2017-12-24T09:03:32.000Z</time>
      </trkpt>
      <trkpt lat="48.18724" lon="3.44138">
        <ele>114.59999847412</ele>
        <time>2017-12-24T09:03:33.000Z</time>
      </trkpt>
      <trkpt lat="48.18725" lon="3.44137">
        <ele>115</ele>
        <time>2017-12-24T09:03:34.000Z</time>
      </trkpt>
      <trkpt lat="48.18725" lon="3.44137">
        <ele>115.80000305176</ele>
        <time>2017-12-24T09:03:35.000Z</time>
      </trkpt>
      <trkpt lat="48.18726" lon="3.44138">
        <ele>116.19999694824</ele>
        <time>2017-12-24T09:03:36.000Z</time>
      </trkpt>
      <trkpt lat="48.18727" lon="3.44139">
        <ele>116.80000305176</ele>
        <time>2017-12-24T09:03:37.000Z</time>
      </trkpt>
      <trkpt lat="48.1873" lon="3.44144">
        <ele>116.80000305176</ele>
        <time>2017-12-24T09:03:41.000Z</time>
      </trkpt>
      <trkpt lat="48.18732" lon="3.44147">
        <ele>117.19999694824</ele>
        <time>2017-12-24T09:03:43.000Z</time>
      </trkpt>
      <trkpt lat="48.18734" lon="3.44147">
        <ele>117.59999847412</ele>
        <time>2017-12-24T09:03:44.000Z</time>
      </trkpt>
      <trkpt lat="48.18735" lon="3.44149">
        <ele>118</ele>
        <time>2017-12-24T09:03:45.000Z</time>
      </trkpt>
      <trkpt lat="48.18735" lon="3.4415">
        <ele>118.40000152588</ele>
        <time>2017-12-24T09:03:46.000Z</time>
      </trkpt>
      <trkpt lat="48.18736" lon="3.44151">
        <ele>118.80000305176</ele>
        <time>2017-12-24T09:03:47.000Z</time>
      </trkpt>
      <trkpt lat="48.18738" lon="3.44154">
        <ele>118.80000305176</ele>
        <time>2017-12-24T09:03:49.000Z</time>
      </trkpt>
      <trkpt lat="48.18743" lon="3.44159">
        <ele>118.80000305176</ele>
        <time>2017-12-24T09:03:53.000Z</time>
      </trkpt>
      <trkpt lat="48.18745" lon="3.44156">
        <ele>118.80000305176</ele>
        <time>2017-12-24T09:03:55.000Z</time>
      </trkpt>
      <trkpt lat="48.18744" lon="3.44153">
        <ele>119.19999694824</ele>
        <time>2017-12-24T09:03:57.000Z</time>
      </trkpt>
      <trkpt lat="48.18744" lon="3.44152">
        <ele>119.59999847412</ele>
        <time>2017-12-24T09:03:58.000Z</time>
      </trkpt>
      <trkpt lat="48.18744" lon="3.44151">
        <ele>120</ele>
        <time>2017-12-24T09:03:59.000Z</time>
      </trkpt>
      <trkpt lat="48.18744" lon="3.44149">
        <ele>120.80000305176</ele>
        <time>2017-12-24T09:04:00.000Z</time>
      </trkpt>
      <trkpt lat="48.18744" lon="3.44149">
        <ele>120.80000305176</ele>
        <time>2017-12-24T09:04:01.000Z</time>
      </trkpt>
      <trkpt lat="48.18743" lon="3.44147">
        <ele>120.80000305176</ele>
        <time>2017-12-24T09:04:18.000Z</time>
      </trkpt>
      <trkpt lat="48.18743" lon="3.44145">
        <ele>120.80000305176</ele>
        <time>2017-12-24T09:04:20.000Z</time>
      </trkpt>
      <trkpt lat="48.18755" lon="3.44113">
        <ele>131</ele>
        <time>2017-12-24T09:05:13.000Z</time>
      </trkpt>
      <trkpt lat="48.18754" lon="3.4411">
        <ele>131</ele>
        <time>2017-12-24T09:05:14.000Z</time>
      </trkpt>
      <trkpt lat="48.18753" lon="3.44099">
        <ele>131</ele>
        <time>2017-12-24T09:05:19.000Z</time>
      </trkpt>
      <trkpt lat="48.18754" lon="3.4409">
        <ele>131.60000610352</ele>
        <time>2017-12-24T09:05:24.000Z</time>
      </trkpt>
      <trkpt lat="48.18754" lon="3.44088">
        <ele>132</ele>
        <time>2017-12-24T09:05:25.000Z</time>
      </trkpt>
      <trkpt lat="48.18755" lon="3.44087">
        <ele>132.39999389648</ele>
        <time>2017-12-24T09:05:26.000Z</time>
      </trkpt>
      <trkpt lat="48.18756" lon="3.44088">
        <ele>133</ele>
        <time>2017-12-24T09:05:27.000Z</time>
      </trkpt>
      <trkpt lat="48.18757" lon="3.44088">
        <ele>133.39999389648</ele>
        <time>2017-12-24T09:05:28.000Z</time>
      </trkpt>
      <trkpt lat="48.1876" lon="3.4409">
        <ele>133.80000305176</ele>
        <time>2017-12-24T09:05:32.000Z</time>
      </trkpt>
      <trkpt lat="48.18761" lon="3.4409">
        <ele>134.19999694824</ele>
        <time>2017-12-24T09:05:33.000Z</time>
      </trkpt>
      <trkpt lat="48.18762" lon="3.44091">
        <ele>134.60000610352</ele>
        <time>2017-12-24T09:05:34.000Z</time>
      </trkpt>
      <trkpt lat="48.18763" lon="3.44091">
        <ele>135.19999694824</ele>
        <time>2017-12-24T09:05:35.000Z</time>
      </trkpt>
      <trkpt lat="48.18763" lon="3.44091">
        <ele>135.60000610352</ele>
        <time>2017-12-24T09:05:36.000Z</time>
      </trkpt>
      <trkpt lat="48.18762" lon="3.44068">
        <ele>137.60000610352</ele>
        <time>2017-12-24T09:06:08.000Z</time>
      </trkpt>
      <trkpt lat="48.18761" lon="3.44065">
        <ele>137.60000610352</ele>
        <time>2017-12-24T09:06:09.000Z</time>
      </trkpt>
      <trkpt lat="48.18758" lon="3.44053">
        <ele>137.60000610352</ele>
        <time>2017-12-24T09:06:13.000Z</time>
      </trkpt>
      <trkpt lat="48.18758" lon="3.44051">
        <ele>137.60000610352</ele>
        <time>2017-12-24T09:06:14.000Z</time>
      </trkpt>
      <trkpt lat="48.18752" lon="3.4404">
        <ele>137.60000610352</ele>
        <time>2017-12-24T09:06:17.000Z</time>
      </trkpt>
      <trkpt lat="48.18749" lon="3.44036">
        <ele>137.60000610352</ele>
        <time>2017-12-24T09:06:18.000Z</time>
      </trkpt>
      <trkpt lat="48.18741" lon="3.44029">
        <ele>137.60000610352</ele>
        <time>2017-12-24T09:06:20.000Z</time>
      </trkpt>
      <trkpt lat="48.18734" lon="3.44011">
        <ele>137.60000610352</ele>
        <time>2017-12-24T09:06:23.000Z</time>
      </trkpt>
      <trkpt lat="48.18733" lon="3.44008">
        <ele>137.60000610352</ele>
        <time>2017-12-24T09:06:24.000Z</time>
      </trkpt>
      <trkpt lat="48.18731" lon="3.44004">
        <ele>137.19999694824</ele>
        <time>2017-12-24T09:06:25.000Z</time>
      </trkpt>
      <trkpt lat="48.18729" lon="3.43999">
        <ele>136.80000305176</ele>
        <time>2017-12-24T09:06:26.000Z</time>
      </trkpt>
      <trkpt lat="48.18727" lon="3.43995">
        <ele>136.39999389648</ele>
        <time>2017-12-24T09:06:27.000Z</time>
      </trkpt>
      <trkpt lat="48.18725" lon="3.4399">
        <ele>135.39999389648</ele>
        <time>2017-12-24T09:06:28.000Z</time>
      </trkpt>
      <trkpt lat="48.18722" lon="3.43987">
        <ele>135.39999389648</ele>
        <time>2017-12-24T09:06:29.000Z</time>
      </trkpt>
      <trkpt lat="48.18719" lon="3.43985">
        <ele>135</ele>
        <time>2017-12-24T09:06:30.000Z</time>
      </trkpt>
      <trkpt lat="48.18716" lon="3.43979">
        <ele>134.60000610352</ele>
        <time>2017-12-24T09:06:31.000Z</time>
      </trkpt>
      <trkpt lat="48.18714" lon="3.43973">
        <ele>134.19999694824</ele>
        <time>2017-12-24T09:06:32.000Z</time>
      </trkpt>
      <trkpt lat="48.18712" lon="3.43968">
        <ele>133.80000305176</ele>
        <time>2017-12-24T09:06:33.000Z</time>
      </trkpt>
      <trkpt lat="48.18709" lon="3.43963">
        <ele>133.39999389648</ele>
        <time>2017-12-24T09:06:34.000Z</time>
      </trkpt>
      <trkpt lat="48.18706" lon="3.43958">
        <ele>133</ele>
        <time>2017-12-24T09:06:35.000Z</time>
      </trkpt>
      <trkpt lat="48.18703" lon="3.43952">
        <ele>132.60000610352</ele>
        <time>2017-12-24T09:06:36.000Z</time>
      </trkpt>
      <trkpt lat="48.187" lon="3.43946">
        <ele>132</ele>
        <time>2017-12-24T09:06:37.000Z</time>
      </trkpt>
      <trkpt lat="48.18698" lon="3.4394">
        <ele>131.60000610352</ele>
        <time>2017-12-24T09:06:38.000Z</time>
      </trkpt>
      <trkpt lat="48.18695" lon="3.43934">
        <ele>131.19999694824</ele>
        <time>2017-12-24T09:06:39.000Z</time>
      </trkpt>
      <trkpt lat="48.18693" lon="3.43928">
        <ele>130.80000305176</ele>
        <time>2017-12-24T09:06:40.000Z</time>
      </trkpt>
      <trkpt lat="48.18692" lon="3.43922">
        <ele>130.19999694824</ele>
        <time>2017-12-24T09:06:41.000Z</time>
      </trkpt>
      <trkpt lat="48.18691" lon="3.43915">
        <ele>129.80000305176</ele>
        <time>2017-12-24T09:06:42.000Z</time>
      </trkpt>
      <trkpt lat="48.18691" lon="3.4391">
        <ele>129.39999389648</ele>
        <time>2017-12-24T09:06:43.000Z</time>
      </trkpt>
      <trkpt lat="48.1869" lon="3.43906">
        <ele>128.80000305176</ele>
        <time>2017-12-24T09:06:44.000Z</time>
      </trkpt>
      <trkpt lat="48.1869" lon="3.43902">
        <ele>128.80000305176</ele>
        <time>2017-12-24T09:06:45.000Z</time>
      </trkpt>
      <trkpt lat="48.18692" lon="3.43884">
        <ele>128.80000305176</ele>
        <time>2017-12-24T09:06:49.000Z</time>
      </trkpt>
      <trkpt lat="48.18687" lon="3.43881">
        <ele>128.80000305176</ele>
        <time>2017-12-24T09:06:51.000Z</time>
      </trkpt>
      <trkpt lat="48.18684" lon="3.43884">
        <ele>128.39999389648</ele>
        <time>2017-12-24T09:06:54.000Z</time>
      </trkpt>
      <trkpt lat="48.18683" lon="3.43886">
        <ele>127.80000305176</ele>
        <time>2017-12-24T09:06:55.000Z</time>
      </trkpt>
      <trkpt lat="48.18682" lon="3.43888">
        <ele>127.40000152588</ele>
        <time>2017-12-24T09:06:56.000Z</time>
      </trkpt>
      <trkpt lat="48.1868" lon="3.4389">
        <ele>127</ele>
        <time>2017-12-24T09:06:57.000Z</time>
      </trkpt>
      <trkpt lat="48.18678" lon="3.43893">
        <ele>126.40000152588</ele>
        <time>2017-12-24T09:06:58.000Z</time>
      </trkpt>
      <trkpt lat="48.18673" lon="3.439">
        <ele>126.40000152588</ele>
        <time>2017-12-24T09:07:00.000Z</time>
      </trkpt>
      <trkpt lat="48.1866" lon="3.43917">
        <ele>126</ele>
        <time>2017-12-24T09:07:04.000Z</time>
      </trkpt>
      <trkpt lat="48.18657" lon="3.43922">
        <ele>125.40000152588</ele>
        <time>2017-12-24T09:07:05.000Z</time>
      </trkpt>
      <trkpt lat="48.18653" lon="3.43927">
        <ele>125</ele>
        <time>2017-12-24T09:07:06.000Z</time>
      </trkpt>
      <trkpt lat="48.18649" lon="3.43933">
        <ele>124.40000152588</ele>
        <time>2017-12-24T09:07:07.000Z</time>
      </trkpt>
      <trkpt lat="48.18644" lon="3.43937">
        <ele>123.80000305176</ele>
        <time>2017-12-24T09:07:08.000Z</time>
      </trkpt>
      <trkpt lat="48.1864" lon="3.43941">
        <ele>123</ele>
        <time>2017-12-24T09:07:09.000Z</time>
      </trkpt>
      <trkpt lat="48.18635" lon="3.43945">
        <ele>122.40000152588</ele>
        <time>2017-12-24T09:07:10.000Z</time>
      </trkpt>
      <trkpt lat="48.18631" lon="3.43951">
        <ele>121.59999847412</ele>
        <time>2017-12-24T09:07:11.000Z</time>
      </trkpt>
      <trkpt lat="48.18628" lon="3.43958">
        <ele>120.80000305176</ele>
        <time>2017-12-24T09:07:12.000Z</time>
      </trkpt>
      <trkpt lat="48.18626" lon="3.43966">
        <ele>120</ele>
        <time>2017-12-24T09:07:13.000Z</time>
      </trkpt>
      <trkpt lat="48.18625" lon="3.43976">
        <ele>119</ele>
        <time>2017-12-24T09:07:14.000Z</time>
      </trkpt>
      <trkpt lat="48.18624" lon="3.43986">
        <ele>118.19999694824</ele>
        <time>2017-12-24T09:07:15.000Z</time>
      </trkpt>
      <trkpt lat="48.18625" lon="3.43997">
        <ele>116.19999694824</ele>
        <time>2017-12-24T09:07:16.000Z</time>
      </trkpt>
      <trkpt lat="48.18627" lon="3.44008">
        <ele>115.40000152588</ele>
        <time>2017-12-24T09:07:17.000Z</time>
      </trkpt>
      <trkpt lat="48.18629" lon="3.44018">
        <ele>114.40000152588</ele>
        <time>2017-12-24T09:07:18.000Z</time>
      </trkpt>
      <trkpt lat="48.18632" lon="3.44026">
        <ele>113.59999847412</ele>
        <time>2017-12-24T09:07:19.000Z</time>
      </trkpt>
      <trkpt lat="48.18633" lon="3.44033">
        <ele>112.80000305176</ele>
        <time>2017-12-24T09:07:20.000Z</time>
      </trkpt>
      <trkpt lat="48.18633" lon="3.44039">
        <ele>111.80000305176</ele>
        <time>2017-12-24T09:07:21.000Z</time>
      </trkpt>
      <trkpt lat="48.18632" lon="3.44045">
        <ele>111.19999694824</ele>
        <time>2017-12-24T09:07:22.000Z</time>
      </trkpt>
      <trkpt lat="48.18631" lon="3.44052">
        <ele>110.59999847412</ele>
        <time>2017-12-24T09:07:23.000Z</time>
      </trkpt>
      <trkpt lat="48.18631" lon="3.44059">
        <ele>110</ele>
        <time>2017-12-24T09:07:24.000Z</time>
      </trkpt>
      <trkpt lat="48.18632" lon="3.44066">
        <ele>109.40000152588</ele>
        <time>2017-12-24T09:07:25.000Z</time>
      </trkpt>
      <trkpt lat="48.18632" lon="3.44074">
        <ele>108.59999847412</ele>
        <time>2017-12-24T09:07:26.000Z</time>
      </trkpt>
      <trkpt lat="48.18632" lon="3.44083">
        <ele>108</ele>
        <time>2017-12-24T09:07:27.000Z</time>
      </trkpt>
      <trkpt lat="48.18633" lon="3.44091">
        <ele>107.19999694824</ele>
        <time>2017-12-24T09:07:28.000Z</time>
      </trkpt>
      <trkpt lat="48.18635" lon="3.44099">
        <ele>106.40000152588</ele>
        <time>2017-12-24T09:07:29.000Z</time>
      </trkpt>
      <trkpt lat="48.18636" lon="3.44106">
        <ele>105.80000305176</ele>
        <time>2017-12-24T09:07:30.000Z</time>
      </trkpt>
      <trkpt lat="48.18638" lon="3.44113">
        <ele>105</ele>
        <time>2017-12-24T09:07:31.000Z</time>
      </trkpt>
      <trkpt lat="48.18641" lon="3.4412">
        <ele>104.19999694824</ele>
        <time>2017-12-24T09:07:32.000Z</time>
      </trkpt>
      <trkpt lat="48.18643" lon="3.44127">
        <ele>103.40000152588</ele>
        <time>2017-12-24T09:07:33.000Z</time>
      </trkpt>
      <trkpt lat="48.18645" lon="3.44133">
        <ele>102.59999847412</ele>
        <time>2017-12-24T09:07:34.000Z</time>
      </trkpt>
      <trkpt lat="48.18648" lon="3.44138">
        <ele>101.80000305176</ele>
        <time>2017-12-24T09:07:35.000Z</time>
      </trkpt>
      <trkpt lat="48.18651" lon="3.44143">
        <ele>101.19999694824</ele>
        <time>2017-12-24T09:07:36.000Z</time>
      </trkpt>
      <trkpt lat="48.18653" lon="3.44148">
        <ele>100.59999847412</ele>
        <time>2017-12-24T09:07:37.000Z</time>
      </trkpt>
      <trkpt lat="48.18656" lon="3.44152">
        <ele>100</ele>
        <time>2017-12-24T09:07:38.000Z</time>
      </trkpt>
      <trkpt lat="48.18659" lon="3.44157">
        <ele>99.400001525879</ele>
        <time>2017-12-24T09:07:39.000Z</time>
      </trkpt>
      <trkpt lat="48.18665" lon="3.44167">
        <ele>99.400001525879</ele>
        <time>2017-12-24T09:07:41.000Z</time>
      </trkpt>
      <trkpt lat="48.18673" lon="3.44182">
        <ele>99.400001525879</ele>
        <time>2017-12-24T09:07:44.000Z</time>
      </trkpt>
      <trkpt lat="48.18676" lon="3.44186">
        <ele>99.400001525879</ele>
        <time>2017-12-24T09:07:45.000Z</time>
      </trkpt>
      <trkpt lat="48.18688" lon="3.4421">
        <ele>99.400001525879</ele>
        <time>2017-12-24T09:07:50.000Z</time>
      </trkpt>
      <trkpt lat="48.18695" lon="3.44226">
        <ele>99.400001525879</ele>
        <time>2017-12-24T09:07:53.000Z</time>
      </trkpt>
      <trkpt lat="48.187" lon="3.44236">
        <ele>99.400001525879</ele>
        <time>2017-12-24T09:07:55.000Z</time>
      </trkpt>
      <trkpt lat="48.18712" lon="3.44255">
        <ele>99.400001525879</ele>
        <time>2017-12-24T09:07:59.000Z</time>
      </trkpt>
      <trkpt lat="48.18721" lon="3.44263">
        <ele>99.400001525879</ele>
        <time>2017-12-24T09:08:02.000Z</time>
      </trkpt>
      <trkpt lat="48.18723" lon="3.44265">
        <ele>99.400001525879</ele>
        <time>2017-12-24T09:08:03.000Z</time>
      </trkpt>
      <trkpt lat="48.18739" lon="3.44272">
        <ele>99.400001525879</ele>
        <time>2017-12-24T09:08:09.000Z</time>
      </trkpt>
      <trkpt lat="48.18741" lon="3.44273">
        <ele>99.400001525879</ele>
        <time>2017-12-24T09:08:10.000Z</time>
      </trkpt>
      <trkpt lat="48.18754" lon="3.4428">
        <ele>99.800003051758</ele>
        <time>2017-12-24T09:08:15.000Z</time>
      </trkpt>
      <trkpt lat="48.18757" lon="3.4428">
        <ele>100.19999694824</ele>
        <time>2017-12-24T09:08:16.000Z</time>
      </trkpt>
      <trkpt lat="48.18759" lon="3.4428">
        <ele>100.59999847412</ele>
        <time>2017-12-24T09:08:17.000Z</time>
      </trkpt>
      <trkpt lat="48.18761" lon="3.44281">
        <ele>101</ele>
        <time>2017-12-24T09:08:18.000Z</time>
      </trkpt>
      <trkpt lat="48.18763" lon="3.44281">
        <ele>101.59999847412</ele>
        <time>2017-12-24T09:08:19.000Z</time>
      </trkpt>
      <trkpt lat="48.18772" lon="3.44284">
        <ele>102</ele>
        <time>2017-12-24T09:08:24.000Z</time>
      </trkpt>
      <trkpt lat="48.18773" lon="3.44285">
        <ele>102.40000152588</ele>
        <time>2017-12-24T09:08:25.000Z</time>
      </trkpt>
      <trkpt lat="48.18775" lon="3.44285">
        <ele>102.80000305176</ele>
        <time>2017-12-24T09:08:26.000Z</time>
      </trkpt>
      <trkpt lat="48.18776" lon="3.44285">
        <ele>103.19999694824</ele>
        <time>2017-12-24T09:08:27.000Z</time>
      </trkpt>
      <trkpt lat="48.18778" lon="3.44286">
        <ele>103.59999847412</ele>
        <time>2017-12-24T09:08:28.000Z</time>
      </trkpt>
      <trkpt lat="48.18782" lon="3.44287">
        <ele>103.59999847412</ele>
        <time>2017-12-24T09:08:30.000Z</time>
      </trkpt>
      <trkpt lat="48.18786" lon="3.44289">
        <ele>104</ele>
        <time>2017-12-24T09:08:32.000Z</time>
      </trkpt>
      <trkpt lat="48.18788" lon="3.44289">
        <ele>104.40000152588</ele>
        <time>2017-12-24T09:08:33.000Z</time>
      </trkpt>
      <trkpt lat="48.1879" lon="3.44291">
        <ele>104.80000305176</ele>
        <time>2017-12-24T09:08:34.000Z</time>
      </trkpt>
      <trkpt lat="48.18792" lon="3.44291">
        <ele>105.19999694824</ele>
        <time>2017-12-24T09:08:35.000Z</time>
      </trkpt>
      <trkpt lat="48.18794" lon="3.44292">
        <ele>105.59999847412</ele>
        <time>2017-12-24T09:08:36.000Z</time>
      </trkpt>
      <trkpt lat="48.18806" lon="3.44295">
        <ele>106</ele>
        <time>2017-12-24T09:08:42.000Z</time>
      </trkpt>
      <trkpt lat="48.18807" lon="3.44296">
        <ele>106.40000152588</ele>
        <time>2017-12-24T09:08:43.000Z</time>
      </trkpt>
      <trkpt lat="48.18809" lon="3.44296">
        <ele>106.80000305176</ele>
        <time>2017-12-24T09:08:44.000Z</time>
      </trkpt>
      <trkpt lat="48.18811" lon="3.44297">
        <ele>107.19999694824</ele>
        <time>2017-12-24T09:08:45.000Z</time>
      </trkpt>
      <trkpt lat="48.18813" lon="3.44298">
        <ele>107.59999847412</ele>
        <time>2017-12-24T09:08:46.000Z</time>
      </trkpt>
      <trkpt lat="48.18822" lon="3.44301">
        <ele>107.59999847412</ele>
        <time>2017-12-24T09:08:51.000Z</time>
      </trkpt>
      <trkpt lat="48.18823" lon="3.443">
        <ele>108</ele>
        <time>2017-12-24T09:08:52.000Z</time>
      </trkpt>
      <trkpt lat="48.18825" lon="3.44301">
        <ele>108.40000152588</ele>
        <time>2017-12-24T09:08:53.000Z</time>
      </trkpt>
      <trkpt lat="48.18827" lon="3.44301">
        <ele>109</ele>
        <time>2017-12-24T09:08:54.000Z</time>
      </trkpt>
      <trkpt lat="48.18829" lon="3.44301">
        <ele>109.40000152588</ele>
        <time>2017-12-24T09:08:55.000Z</time>
      </trkpt>
      <trkpt lat="48.1883" lon="3.44302">
        <ele>109.80000305176</ele>
        <time>2017-12-24T09:08:56.000Z</time>
      </trkpt>
      <trkpt lat="48.18832" lon="3.44302">
        <ele>109.80000305176</ele>
        <time>2017-12-24T09:08:57.000Z</time>
      </trkpt>
      <trkpt lat="48.18836" lon="3.44302">
        <ele>110.19999694824</ele>
        <time>2017-12-24T09:08:59.000Z</time>
      </trkpt>
      <trkpt lat="48.18837" lon="3.44303">
        <ele>110.59999847412</ele>
        <time>2017-12-24T09:09:00.000Z</time>
      </trkpt>
      <trkpt lat="48.18839" lon="3.44303">
        <ele>111</ele>
        <time>2017-12-24T09:09:01.000Z</time>
      </trkpt>
      <trkpt lat="48.1884" lon="3.44303">
        <ele>111.40000152588</ele>
        <time>2017-12-24T09:09:02.000Z</time>
      </trkpt>
      <trkpt lat="48.18842" lon="3.44303">
        <ele>111.80000305176</ele>
        <time>2017-12-24T09:09:03.000Z</time>
      </trkpt>
      <trkpt lat="48.18844" lon="3.44303">
        <ele>111.80000305176</ele>
        <time>2017-12-24T09:09:04.000Z</time>
      </trkpt>
      <trkpt lat="48.1885" lon="3.44307">
        <ele>112.19999694824</ele>
        <time>2017-12-24T09:09:09.000Z</time>
      </trkpt>
      <trkpt lat="48.1885" lon="3.44309">
        <ele>112.59999847412</ele>
        <time>2017-12-24T09:09:10.000Z</time>
      </trkpt>
      <trkpt lat="48.1885" lon="3.44312">
        <ele>113</ele>
        <time>2017-12-24T09:09:11.000Z</time>
      </trkpt>
      <trkpt lat="48.18851" lon="3.44315">
        <ele>113.59999847412</ele>
        <time>2017-12-24T09:09:12.000Z</time>
      </trkpt>
      <trkpt lat="48.18853" lon="3.44318">
        <ele>114</ele>
        <time>2017-12-24T09:09:13.000Z</time>
      </trkpt>
      <trkpt lat="48.18855" lon="3.44321">
        <ele>114</ele>
        <time>2017-12-24T09:09:14.000Z</time>
      </trkpt>
      <trkpt lat="48.18858" lon="3.44323">
        <ele>114</ele>
        <time>2017-12-24T09:09:15.000Z</time>
      </trkpt>
      <trkpt lat="48.18869" lon="3.44331">
        <ele>114</ele>
        <time>2017-12-24T09:09:19.000Z</time>
      </trkpt>
      <trkpt lat="48.18887" lon="3.44349">
        <ele>114</ele>
        <time>2017-12-24T09:09:25.000Z</time>
      </trkpt>
      <trkpt lat="48.18897" lon="3.4436">
        <ele>113.59999847412</ele>
        <time>2017-12-24T09:09:28.000Z</time>
      </trkpt>
      <trkpt lat="48.18901" lon="3.44365">
        <ele>113.19999694824</ele>
        <time>2017-12-24T09:09:29.000Z</time>
      </trkpt>
      <trkpt lat="48.18905" lon="3.44369">
        <ele>112.80000305176</ele>
        <time>2017-12-24T09:09:30.000Z</time>
      </trkpt>
      <trkpt lat="48.1891" lon="3.44374">
        <ele>112.19999694824</ele>
        <time>2017-12-24T09:09:31.000Z</time>
      </trkpt>
      <trkpt lat="48.18914" lon="3.44378">
        <ele>111.80000305176</ele>
        <time>2017-12-24T09:09:32.000Z</time>
      </trkpt>
      <trkpt lat="48.18923" lon="3.44386">
        <ele>111.40000152588</ele>
        <time>2017-12-24T09:09:34.000Z</time>
      </trkpt>
      <trkpt lat="48.18927" lon="3.4439">
        <ele>111</ele>
        <time>2017-12-24T09:09:35.000Z</time>
      </trkpt>
      <trkpt lat="48.1893" lon="3.44395">
        <ele>110.59999847412</ele>
        <time>2017-12-24T09:09:36.000Z</time>
      </trkpt>
      <trkpt lat="48.18933" lon="3.444">
        <ele>110</ele>
        <time>2017-12-24T09:09:37.000Z</time>
      </trkpt>
      <trkpt lat="48.18937" lon="3.44405">
        <ele>109.59999847412</ele>
        <time>2017-12-24T09:09:38.000Z</time>
      </trkpt>
      <trkpt lat="48.18941" lon="3.44409">
        <ele>109.59999847412</ele>
        <time>2017-12-24T09:09:39.000Z</time>
      </trkpt>
      <trkpt lat="48.18945" lon="3.44412">
        <ele>109.19999694824</ele>
        <time>2017-12-24T09:09:40.000Z</time>
      </trkpt>
      <trkpt lat="48.18949" lon="3.44414">
        <ele>108.80000305176</ele>
        <time>2017-12-24T09:09:41.000Z</time>
      </trkpt>
      <trkpt lat="48.18952" lon="3.44416">
        <ele>108.40000152588</ele>
        <time>2017-12-24T09:09:42.000Z</time>
      </trkpt>
      <trkpt lat="48.18955" lon="3.44418">
        <ele>108</ele>
        <time>2017-12-24T09:09:43.000Z</time>
      </trkpt>
      <trkpt lat="48.18958" lon="3.4442">
        <ele>107.40000152588</ele>
        <time>2017-12-24T09:09:44.000Z</time>
      </trkpt>
      <trkpt lat="48.18969" lon="3.44427">
        <ele>107.40000152588</ele>
        <time>2017-12-24T09:09:48.000Z</time>
      </trkpt>
      <trkpt lat="48.18979" lon="3.44436">
        <ele>107.40000152588</ele>
        <time>2017-12-24T09:09:52.000Z</time>
      </trkpt>
      <trkpt lat="48.1899" lon="3.44439">
        <ele>107.40000152588</ele>
        <time>2017-12-24T09:09:58.000Z</time>
      </trkpt>
      <trkpt lat="48.18997" lon="3.4444">
        <ele>107.40000152588</ele>
        <time>2017-12-24T09:10:02.000Z</time>
      </trkpt>
      <trkpt lat="48.18999" lon="3.4444">
        <ele>108</ele>
        <time>2017-12-24T09:10:03.000Z</time>
      </trkpt>
      <trkpt lat="48.19001" lon="3.4444">
        <ele>108.40000152588</ele>
        <time>2017-12-24T09:10:04.000Z</time>
      </trkpt>
      <trkpt lat="48.19003" lon="3.4444">
        <ele>108.80000305176</ele>
        <time>2017-12-24T09:10:05.000Z</time>
      </trkpt>
      <trkpt lat="48.19005" lon="3.44441">
        <ele>109.19999694824</ele>
        <time>2017-12-24T09:10:06.000Z</time>
      </trkpt>
      <trkpt lat="48.19006" lon="3.44441">
        <ele>109.59999847412</ele>
        <time>2017-12-24T09:10:07.000Z</time>
      </trkpt>
      <trkpt lat="48.1901" lon="3.44443">
        <ele>109.59999847412</ele>
        <time>2017-12-24T09:10:09.000Z</time>
      </trkpt>
      <trkpt lat="48.19012" lon="3.44444">
        <ele>110.59999847412</ele>
        <time>2017-12-24T09:10:10.000Z</time>
      </trkpt>
      <trkpt lat="48.19014" lon="3.44445">
        <ele>111</ele>
        <time>2017-12-24T09:10:11.000Z</time>
      </trkpt>
      <trkpt lat="48.19016" lon="3.44446">
        <ele>111.40000152588</ele>
        <time>2017-12-24T09:10:12.000Z</time>
      </trkpt>
      <trkpt lat="48.19017" lon="3.44447">
        <ele>111.80000305176</ele>
        <time>2017-12-24T09:10:13.000Z</time>
      </trkpt>
      <trkpt lat="48.19027" lon="3.44455">
        <ele>112.19999694824</ele>
        <time>2017-12-24T09:10:18.000Z</time>
      </trkpt>
      <trkpt lat="48.19029" lon="3.44457">
        <ele>112.59999847412</ele>
        <time>2017-12-24T09:10:19.000Z</time>
      </trkpt>
      <trkpt lat="48.1903" lon="3.44459">
        <ele>113</ele>
        <time>2017-12-24T09:10:20.000Z</time>
      </trkpt>
      <trkpt lat="48.19032" lon="3.44461">
        <ele>113.40000152588</ele>
        <time>2017-12-24T09:10:21.000Z</time>
      </trkpt>
      <trkpt lat="48.19033" lon="3.44463">
        <ele>113.80000305176</ele>
        <time>2017-12-24T09:10:22.000Z</time>
      </trkpt>
      <trkpt lat="48.19038" lon="3.44469">
        <ele>113.80000305176</ele>
        <time>2017-12-24T09:10:25.000Z</time>
      </trkpt>
      <trkpt lat="48.19045" lon="3.4448">
        <ele>114.19999694824</ele>
        <time>2017-12-24T09:10:29.000Z</time>
      </trkpt>
      <trkpt lat="48.19047" lon="3.44483">
        <ele>114.59999847412</ele>
        <time>2017-12-24T09:10:30.000Z</time>
      </trkpt>
      <trkpt lat="48.19049" lon="3.44486">
        <ele>115</ele>
        <time>2017-12-24T09:10:31.000Z</time>
      </trkpt>
      <trkpt lat="48.19051" lon="3.44489">
        <ele>115.40000152588</ele>
        <time>2017-12-24T09:10:32.000Z</time>
      </trkpt>
      <trkpt lat="48.19053" lon="3.44492">
        <ele>115.80000305176</ele>
        <time>2017-12-24T09:10:33.000Z</time>
      </trkpt>
      <trkpt lat="48.19055" lon="3.44494">
        <ele>115.80000305176</ele>
        <time>2017-12-24T09:10:34.000Z</time>
      </trkpt>
      <trkpt lat="48.1907" lon="3.44517">
        <ele>115.80000305176</ele>
        <time>2017-12-24T09:10:41.000Z</time>
      </trkpt>
      <trkpt lat="48.19086" lon="3.44543">
        <ele>115.80000305176</ele>
        <time>2017-12-24T09:10:48.000Z</time>
      </trkpt>
      <trkpt lat="48.19101" lon="3.44572">
        <ele>115.80000305176</ele>
        <time>2017-12-24T09:10:55.000Z</time>
      </trkpt>
      <trkpt lat="48.19113" lon="3.44588">
        <ele>116.19999694824</ele>
        <time>2017-12-24T09:11:00.000Z</time>
      </trkpt>
      <trkpt lat="48.19116" lon="3.44592">
        <ele>116.59999847412</ele>
        <time>2017-12-24T09:11:01.000Z</time>
      </trkpt>
      <trkpt lat="48.19118" lon="3.44595">
        <ele>117</ele>
        <time>2017-12-24T09:11:02.000Z</time>
      </trkpt>
      <trkpt lat="48.1912" lon="3.446">
        <ele>117.40000152588</ele>
        <time>2017-12-24T09:11:03.000Z</time>
      </trkpt>
      <trkpt lat="48.19123" lon="3.44603">
        <ele>117.80000305176</ele>
        <time>2017-12-24T09:11:04.000Z</time>
      </trkpt>
      <trkpt lat="48.19131" lon="3.44617">
        <ele>117.80000305176</ele>
        <time>2017-12-24T09:11:08.000Z</time>
      </trkpt>
      <trkpt lat="48.1914" lon="3.44635">
        <ele>117.80000305176</ele>
        <time>2017-12-24T09:11:13.000Z</time>
      </trkpt>
      <trkpt lat="48.19142" lon="3.44637">
        <ele>117.80000305176</ele>
        <time>2017-12-24T09:11:14.000Z</time>
      </trkpt>
      <trkpt lat="48.19147" lon="3.44642">
        <ele>117.80000305176</ele>
        <time>2017-12-24T09:11:17.000Z</time>
      </trkpt>
      <trkpt lat="48.19149" lon="3.44643">
        <ele>118.19999694824</ele>
        <time>2017-12-24T09:11:19.000Z</time>
      </trkpt>
      <trkpt lat="48.19151" lon="3.44643">
        <ele>118.59999847412</ele>
        <time>2017-12-24T09:11:20.000Z</time>
      </trkpt>
      <trkpt lat="48.19152" lon="3.44643">
        <ele>119</ele>
        <time>2017-12-24T09:11:21.000Z</time>
      </trkpt>
      <trkpt lat="48.19153" lon="3.44643">
        <ele>119.40000152588</ele>
        <time>2017-12-24T09:11:22.000Z</time>
      </trkpt>
      <trkpt lat="48.19155" lon="3.44644">
        <ele>119.80000305176</ele>
        <time>2017-12-24T09:11:23.000Z</time>
      </trkpt>
      <trkpt lat="48.19156" lon="3.44645">
        <ele>120.80000305176</ele>
        <time>2017-12-24T09:11:24.000Z</time>
      </trkpt>
      <trkpt lat="48.19157" lon="3.44645">
        <ele>121.19999694824</ele>
        <time>2017-12-24T09:11:25.000Z</time>
      </trkpt>
      <trkpt lat="48.19159" lon="3.44647">
        <ele>121.59999847412</ele>
        <time>2017-12-24T09:11:26.000Z</time>
      </trkpt>
      <trkpt lat="48.1916" lon="3.44648">
        <ele>122</ele>
        <time>2017-12-24T09:11:27.000Z</time>
      </trkpt>
      <trkpt lat="48.19163" lon="3.44652">
        <ele>122.40000152588</ele>
        <time>2017-12-24T09:11:29.000Z</time>
      </trkpt>
      <trkpt lat="48.19164" lon="3.44654">
        <ele>123</ele>
        <time>2017-12-24T09:11:30.000Z</time>
      </trkpt>
      <trkpt lat="48.19165" lon="3.44655">
        <ele>123.40000152588</ele>
        <time>2017-12-24T09:11:31.000Z</time>
      </trkpt>
      <trkpt lat="48.19167" lon="3.44656">
        <ele>123.80000305176</ele>
        <time>2017-12-24T09:11:32.000Z</time>
      </trkpt>
      <trkpt lat="48.19168" lon="3.44657">
        <ele>124.19999694824</ele>
        <time>2017-12-24T09:11:33.000Z</time>
      </trkpt>
      <trkpt lat="48.19173" lon="3.44662">
        <ele>124.59999847412</ele>
        <time>2017-12-24T09:11:37.000Z</time>
      </trkpt>
      <trkpt lat="48.19174" lon="3.44662">
        <ele>125</ele>
        <time>2017-12-24T09:11:38.000Z</time>
      </trkpt>
      <trkpt lat="48.19175" lon="3.44663">
        <ele>125.40000152588</ele>
        <time>2017-12-24T09:11:39.000Z</time>
      </trkpt>
      <trkpt lat="48.19175" lon="3.44664">
        <ele>126</ele>
        <time>2017-12-24T09:11:40.000Z</time>
      </trkpt>
      <trkpt lat="48.19176" lon="3.44665">
        <ele>126.40000152588</ele>
        <time>2017-12-24T09:11:41.000Z</time>
      </trkpt>
      <trkpt lat="48.19177" lon="3.44667">
        <ele>126.40000152588</ele>
        <time>2017-12-24T09:11:43.000Z</time>
      </trkpt>
      <trkpt lat="48.19179" lon="3.44668">
        <ele>126.40000152588</ele>
        <time>2017-12-24T09:11:45.000Z</time>
      </trkpt>
      <trkpt lat="48.19179" lon="3.44669">
        <ele>126.40000152588</ele>
        <time>2017-12-24T09:11:46.000Z</time>
      </trkpt>
      <trkpt lat="48.19184" lon="3.44671">
        <ele>126.40000152588</ele>
        <time>2017-12-24T09:11:50.000Z</time>
      </trkpt>
      <trkpt lat="48.19186" lon="3.4467">
        <ele>126.80000305176</ele>
        <time>2017-12-24T09:11:51.000Z</time>
      </trkpt>
      <trkpt lat="48.19187" lon="3.44669">
        <ele>127.19999694824</ele>
        <time>2017-12-24T09:11:52.000Z</time>
      </trkpt>
      <trkpt lat="48.19188" lon="3.44669">
        <ele>127.59999847412</ele>
        <time>2017-12-24T09:11:53.000Z</time>
      </trkpt>
      <trkpt lat="48.19189" lon="3.44668">
        <ele>128.19999694824</ele>
        <time>2017-12-24T09:11:54.000Z</time>
      </trkpt>
      <trkpt lat="48.1919" lon="3.44667">
        <ele>128.60000610352</ele>
        <time>2017-12-24T09:11:55.000Z</time>
      </trkpt>
      <trkpt lat="48.19192" lon="3.44666">
        <ele>129</ele>
        <time>2017-12-24T09:11:56.000Z</time>
      </trkpt>
      <trkpt lat="48.19193" lon="3.44665">
        <ele>129.39999389648</ele>
        <time>2017-12-24T09:11:57.000Z</time>
      </trkpt>
      <trkpt lat="48.19193" lon="3.44664">
        <ele>130</ele>
        <time>2017-12-24T09:11:58.000Z</time>
      </trkpt>
      <trkpt lat="48.19193" lon="3.44664">
        <ele>130.39999389648</ele>
        <time>2017-12-24T09:11:59.000Z</time>
      </trkpt>
      <trkpt lat="48.1925" lon="3.44621">
        <ele>151.60000610352</ele>
        <time>2017-12-24T09:20:01.000Z</time>
      </trkpt>
      <trkpt lat="48.19251" lon="3.44623">
        <ele>151.60000610352</ele>
        <time>2017-12-24T09:20:02.000Z</time>
      </trkpt>
      <trkpt lat="48.19255" lon="3.44624">
        <ele>151.60000610352</ele>
        <time>2017-12-24T09:20:05.000Z</time>
      </trkpt>
      <trkpt lat="48.19258" lon="3.44626">
        <ele>151.60000610352</ele>
        <time>2017-12-24T09:20:07.000Z</time>
      </trkpt>
      <trkpt lat="48.19259" lon="3.44628">
        <ele>151.60000610352</ele>
        <time>2017-12-24T09:20:09.000Z</time>
      </trkpt>
      <trkpt lat="48.19261" lon="3.44629">
        <ele>151.60000610352</ele>
        <time>2017-12-24T09:20:12.000Z</time>
      </trkpt>
      <trkpt lat="48.19263" lon="3.44632">
        <ele>151.60000610352</ele>
        <time>2017-12-24T09:20:14.000Z</time>
      </trkpt>
      <trkpt lat="48.19266" lon="3.44637">
        <ele>151.60000610352</ele>
        <time>2017-12-24T09:20:17.000Z</time>
      </trkpt>
      <trkpt lat="48.19268" lon="3.44645">
        <ele>151.60000610352</ele>
        <time>2017-12-24T09:20:21.000Z</time>
      </trkpt>
      <trkpt lat="48.19262" lon="3.44657">
        <ele>151.60000610352</ele>
        <time>2017-12-24T09:20:25.000Z</time>
      </trkpt>
      <trkpt lat="48.19253" lon="3.44662">
        <ele>151.19999694824</ele>
        <time>2017-12-24T09:20:30.000Z</time>
      </trkpt>
      <trkpt lat="48.19252" lon="3.44662">
        <ele>150.80000305176</ele>
        <time>2017-12-24T09:20:31.000Z</time>
      </trkpt>
      <trkpt lat="48.19251" lon="3.44663">
        <ele>150.39999389648</ele>
        <time>2017-12-24T09:20:32.000Z</time>
      </trkpt>
      <trkpt lat="48.1925" lon="3.44666">
        <ele>150</ele>
        <time>2017-12-24T09:20:33.000Z</time>
      </trkpt>
      <trkpt lat="48.19249" lon="3.44668">
        <ele>149.60000610352</ele>
        <time>2017-12-24T09:20:34.000Z</time>
      </trkpt>
      <trkpt lat="48.19248" lon="3.4467">
        <ele>149.19999694824</ele>
        <time>2017-12-24T09:20:35.000Z</time>
      </trkpt>
      <trkpt lat="48.19247" lon="3.44673">
        <ele>148.60000610352</ele>
        <time>2017-12-24T09:20:36.000Z</time>
      </trkpt>
      <trkpt lat="48.19247" lon="3.44675">
        <ele>148.19999694824</ele>
        <time>2017-12-24T09:20:37.000Z</time>
      </trkpt>
      <trkpt lat="48.19246" lon="3.44677">
        <ele>147.80000305176</ele>
        <time>2017-12-24T09:20:38.000Z</time>
      </trkpt>
      <trkpt lat="48.19245" lon="3.44678">
        <ele>147.39999389648</ele>
        <time>2017-12-24T09:20:39.000Z</time>
      </trkpt>
      <trkpt lat="48.19244" lon="3.44679">
        <ele>146.80000305176</ele>
        <time>2017-12-24T09:20:40.000Z</time>
      </trkpt>
      <trkpt lat="48.19243" lon="3.44679">
        <ele>146.39999389648</ele>
        <time>2017-12-24T09:20:41.000Z</time>
      </trkpt>
      <trkpt lat="48.19242" lon="3.44677">
        <ele>146</ele>
        <time>2017-12-24T09:20:42.000Z</time>
      </trkpt>
      <trkpt lat="48.19241" lon="3.44676">
        <ele>145.39999389648</ele>
        <time>2017-12-24T09:20:43.000Z</time>
      </trkpt>
      <trkpt lat="48.19239" lon="3.44677">
        <ele>145</ele>
        <time>2017-12-24T09:20:44.000Z</time>
      </trkpt>
      <trkpt lat="48.19231" lon="3.44682">
        <ele>144.60000610352</ele>
        <time>2017-12-24T09:20:47.000Z</time>
      </trkpt>
      <trkpt lat="48.19229" lon="3.44683">
        <ele>144</ele>
        <time>2017-12-24T09:20:48.000Z</time>
      </trkpt>
      <trkpt lat="48.19226" lon="3.44684">
        <ele>143.60000610352</ele>
        <time>2017-12-24T09:20:49.000Z</time>
      </trkpt>
      <trkpt lat="48.19224" lon="3.44687">
        <ele>143</ele>
        <time>2017-12-24T09:20:50.000Z</time>
      </trkpt>
      <trkpt lat="48.19222" lon="3.44689">
        <ele>142.39999389648</ele>
        <time>2017-12-24T09:20:51.000Z</time>
      </trkpt>
      <trkpt lat="48.19221" lon="3.44692">
        <ele>141.80000305176</ele>
        <time>2017-12-24T09:20:52.000Z</time>
      </trkpt>
      <trkpt lat="48.19219" lon="3.44694">
        <ele>141</ele>
        <time>2017-12-24T09:20:53.000Z</time>
      </trkpt>
      <trkpt lat="48.19218" lon="3.44696">
        <ele>139.39999389648</ele>
        <time>2017-12-24T09:20:54.000Z</time>
      </trkpt>
      <trkpt lat="48.19217" lon="3.447">
        <ele>138.80000305176</ele>
        <time>2017-12-24T09:20:55.000Z</time>
      </trkpt>
      <trkpt lat="48.19217" lon="3.44703">
        <ele>138</ele>
        <time>2017-12-24T09:20:56.000Z</time>
      </trkpt>
      <trkpt lat="48.19217" lon="3.44705">
        <ele>137.19999694824</ele>
        <time>2017-12-24T09:20:57.000Z</time>
      </trkpt>
      <trkpt lat="48.19217" lon="3.44707">
        <ele>136.39999389648</ele>
        <time>2017-12-24T09:20:58.000Z</time>
      </trkpt>
      <trkpt lat="48.19216" lon="3.44709">
        <ele>135.80000305176</ele>
        <time>2017-12-24T09:20:59.000Z</time>
      </trkpt>
      <trkpt lat="48.19215" lon="3.44711">
        <ele>135.19999694824</ele>
        <time>2017-12-24T09:21:00.000Z</time>
      </trkpt>
      <trkpt lat="48.19213" lon="3.44711">
        <ele>134.60000610352</ele>
        <time>2017-12-24T09:21:01.000Z</time>
      </trkpt>
      <trkpt lat="48.19212" lon="3.4471">
        <ele>133.80000305176</ele>
        <time>2017-12-24T09:21:02.000Z</time>
      </trkpt>
      <trkpt lat="48.19212" lon="3.44709">
        <ele>133.19999694824</ele>
        <time>2017-12-24T09:21:03.000Z</time>
      </trkpt>
      <trkpt lat="48.19211" lon="3.44709">
        <ele>132.80000305176</ele>
        <time>2017-12-24T09:21:04.000Z</time>
      </trkpt>
      <trkpt lat="48.19209" lon="3.44709">
        <ele>132.19999694824</ele>
        <time>2017-12-24T09:21:05.000Z</time>
      </trkpt>
      <trkpt lat="48.19207" lon="3.44708">
        <ele>131.60000610352</ele>
        <time>2017-12-24T09:21:06.000Z</time>
      </trkpt>
      <trkpt lat="48.19205" lon="3.44708">
        <ele>131</ele>
        <time>2017-12-24T09:21:07.000Z</time>
      </trkpt>
      <trkpt lat="48.19203" lon="3.44714">
        <ele>131</ele>
        <time>2017-12-24T09:21:09.000Z</time>
      </trkpt>
      <trkpt lat="48.19202" lon="3.44717">
        <ele>130.39999389648</ele>
        <time>2017-12-24T09:21:10.000Z</time>
      </trkpt>
      <trkpt lat="48.19201" lon="3.44722">
        <ele>130</ele>
        <time>2017-12-24T09:21:11.000Z</time>
      </trkpt>
      <trkpt lat="48.19201" lon="3.44726">
        <ele>129.60000610352</ele>
        <time>2017-12-24T09:21:12.000Z</time>
      </trkpt>
      <trkpt lat="48.19201" lon="3.44729">
        <ele>129</ele>
        <time>2017-12-24T09:21:13.000Z</time>
      </trkpt>
      <trkpt lat="48.19201" lon="3.44732">
        <ele>128.39999389648</ele>
        <time>2017-12-24T09:21:14.000Z</time>
      </trkpt>
      <trkpt lat="48.19201" lon="3.44735">
        <ele>127.80000305176</ele>
        <time>2017-12-24T09:21:15.000Z</time>
      </trkpt>
      <trkpt lat="48.19201" lon="3.44738">
        <ele>127.40000152588</ele>
        <time>2017-12-24T09:21:16.000Z</time>
      </trkpt>
      <trkpt lat="48.19203" lon="3.4474">
        <ele>126.59999847412</ele>
        <time>2017-12-24T09:21:17.000Z</time>
      </trkpt>
      <trkpt lat="48.19205" lon="3.44741">
        <ele>126</ele>
        <time>2017-12-24T09:21:18.000Z</time>
      </trkpt>
      <trkpt lat="48.19206" lon="3.44742">
        <ele>124.80000305176</ele>
        <time>2017-12-24T09:21:19.000Z</time>
      </trkpt>
      <trkpt lat="48.19208" lon="3.44741">
        <ele>124.19999694824</ele>
        <time>2017-12-24T09:21:20.000Z</time>
      </trkpt>
      <trkpt lat="48.1921" lon="3.4474">
        <ele>124.19999694824</ele>
        <time>2017-12-24T09:21:21.000Z</time>
      </trkpt>
      <trkpt lat="48.1921" lon="3.44738">
        <ele>124.19999694824</ele>
        <time>2017-12-24T09:21:22.000Z</time>
      </trkpt>
      <trkpt lat="48.19212" lon="3.44737">
        <ele>124.19999694824</ele>
        <time>2017-12-24T09:21:23.000Z</time>
      </trkpt>
      <trkpt lat="48.19213" lon="3.44736">
        <ele>124.19999694824</ele>
        <time>2017-12-24T09:21:24.000Z</time>
      </trkpt>
      <trkpt lat="48.19214" lon="3.44735">
        <ele>124.19999694824</ele>
        <time>2017-12-24T09:21:25.000Z</time>
      </trkpt>
      <trkpt lat="48.19214" lon="3.44734">
        <ele>124.59999847412</ele>
        <time>2017-12-24T09:21:26.000Z</time>
      </trkpt>
      <trkpt lat="48.19214" lon="3.44734">
        <ele>125.19999694824</ele>
        <time>2017-12-24T09:21:27.000Z</time>
      </trkpt>
      <trkpt lat="48.19225" lon="3.44729">
        <ele>128.60000610352</ele>
        <time>2017-12-24T09:21:54.000Z</time>
      </trkpt>
      <trkpt lat="48.19227" lon="3.44729">
        <ele>128.60000610352</ele>
        <time>2017-12-24T09:21:55.000Z</time>
      </trkpt>
      <trkpt lat="48.1923" lon="3.44729">
        <ele>129</ele>
        <time>2017-12-24T09:21:57.000Z</time>
      </trkpt>
      <trkpt lat="48.19231" lon="3.44729">
        <ele>129.39999389648</ele>
        <time>2017-12-24T09:21:58.000Z</time>
      </trkpt>
      <trkpt lat="48.19232" lon="3.44729">
        <ele>129.80000305176</ele>
        <time>2017-12-24T09:21:59.000Z</time>
      </trkpt>
      <trkpt lat="48.19232" lon="3.44729">
        <ele>130.39999389648</ele>
        <time>2017-12-24T09:22:00.000Z</time>
      </trkpt>
      <trkpt lat="48.19232" lon="3.44729">
        <ele>130.80000305176</ele>
        <time>2017-12-24T09:22:01.000Z</time>
      </trkpt>
      <trkpt lat="48.19233" lon="3.44738">
        <ele>130.80000305176</ele>
        <time>2017-12-24T09:23:14.000Z</time>
      </trkpt>
      <trkpt lat="48.19232" lon="3.44747">
        <ele>130.80000305176</ele>
        <time>2017-12-24T09:23:18.000Z</time>
      </trkpt>
      <trkpt lat="48.19233" lon="3.44747">
        <ele>130.80000305176</ele>
        <time>2017-12-24T09:23:20.000Z</time>
      </trkpt>
      <trkpt lat="48.19235" lon="3.44755">
        <ele>130.80000305176</ele>
        <time>2017-12-24T09:23:43.000Z</time>
      </trkpt>
      <trkpt lat="48.19234" lon="3.44757">
        <ele>130.80000305176</ele>
        <time>2017-12-24T09:23:44.000Z</time>
      </trkpt>
      <trkpt lat="48.19234" lon="3.44758">
        <ele>130.39999389648</ele>
        <time>2017-12-24T09:23:45.000Z</time>
      </trkpt>
      <trkpt lat="48.19234" lon="3.44758">
        <ele>129.80000305176</ele>
        <time>2017-12-24T09:23:46.000Z</time>
      </trkpt>
      <trkpt lat="48.19235" lon="3.44758">
        <ele>129</ele>
        <time>2017-12-24T09:23:47.000Z</time>
      </trkpt>
      <trkpt lat="48.19235" lon="3.44765">
        <ele>128.60000610352</ele>
        <time>2017-12-24T09:23:54.000Z</time>
      </trkpt>
      <trkpt lat="48.19236" lon="3.44767">
        <ele>128.19999694824</ele>
        <time>2017-12-24T09:23:55.000Z</time>
      </trkpt>
      <trkpt lat="48.19236" lon="3.4477">
        <ele>127.80000305176</ele>
        <time>2017-12-24T09:23:56.000Z</time>
      </trkpt>
      <trkpt lat="48.19236" lon="3.44773">
        <ele>127.40000152588</ele>
        <time>2017-12-24T09:23:57.000Z</time>
      </trkpt>
      <trkpt lat="48.19235" lon="3.44774">
        <ele>127</ele>
        <time>2017-12-24T09:23:58.000Z</time>
      </trkpt>
      <trkpt lat="48.19235" lon="3.44776">
        <ele>126.59999847412</ele>
        <time>2017-12-24T09:23:59.000Z</time>
      </trkpt>
      <trkpt lat="48.19235" lon="3.4478">
        <ele>126.19999694824</ele>
        <time>2017-12-24T09:24:01.000Z</time>
      </trkpt>
      <trkpt lat="48.19235" lon="3.44783">
        <ele>125.80000305176</ele>
        <time>2017-12-24T09:24:02.000Z</time>
      </trkpt>
      <trkpt lat="48.19235" lon="3.44787">
        <ele>125.19999694824</ele>
        <time>2017-12-24T09:24:03.000Z</time>
      </trkpt>
      <trkpt lat="48.19235" lon="3.44789">
        <ele>124.80000305176</ele>
        <time>2017-12-24T09:24:04.000Z</time>
      </trkpt>
      <trkpt lat="48.19235" lon="3.44791">
        <ele>124.40000152588</ele>
        <time>2017-12-24T09:24:05.000Z</time>
      </trkpt>
      <trkpt lat="48.19235" lon="3.44792">
        <ele>124</ele>
        <time>2017-12-24T09:24:06.000Z</time>
      </trkpt>
      <trkpt lat="48.19236" lon="3.44794">
        <ele>123.59999847412</ele>
        <time>2017-12-24T09:24:07.000Z</time>
      </trkpt>
      <trkpt lat="48.19236" lon="3.44796">
        <ele>123.19999694824</ele>
        <time>2017-12-24T09:24:08.000Z</time>
      </trkpt>
      <trkpt lat="48.19236" lon="3.44799">
        <ele>122.80000305176</ele>
        <time>2017-12-24T09:24:09.000Z</time>
      </trkpt>
      <trkpt lat="48.19235" lon="3.44804">
        <ele>122.40000152588</ele>
        <time>2017-12-24T09:24:10.000Z</time>
      </trkpt>
      <trkpt lat="48.19237" lon="3.44807">
        <ele>122.40000152588</ele>
        <time>2017-12-24T09:24:11.000Z</time>
      </trkpt>
      <trkpt lat="48.19239" lon="3.44807">
        <ele>121.40000152588</ele>
        <time>2017-12-24T09:24:12.000Z</time>
      </trkpt>
      <trkpt lat="48.19241" lon="3.44808">
        <ele>121</ele>
        <time>2017-12-24T09:24:13.000Z</time>
      </trkpt>
      <trkpt lat="48.19243" lon="3.44809">
        <ele>120.40000152588</ele>
        <time>2017-12-24T09:24:14.000Z</time>
      </trkpt>
      <trkpt lat="48.19245" lon="3.4481">
        <ele>120</ele>
        <time>2017-12-24T09:24:15.000Z</time>
      </trkpt>
      <trkpt lat="48.19255" lon="3.44814">
        <ele>120</ele>
        <time>2017-12-24T09:24:20.000Z</time>
      </trkpt>
      <trkpt lat="48.19259" lon="3.44817">
        <ele>120</ele>
        <time>2017-12-24T09:24:22.000Z</time>
      </trkpt>
      <trkpt lat="48.19263" lon="3.44819">
        <ele>120</ele>
        <time>2017-12-24T09:24:24.000Z</time>
      </trkpt>
      <trkpt lat="48.19267" lon="3.4482">
        <ele>120.40000152588</ele>
        <time>2017-12-24T09:24:26.000Z</time>
      </trkpt>
      <trkpt lat="48.19269" lon="3.44821">
        <ele>120.80000305176</ele>
        <time>2017-12-24T09:24:27.000Z</time>
      </trkpt>
      <trkpt lat="48.19271" lon="3.44823">
        <ele>121.40000152588</ele>
        <time>2017-12-24T09:24:28.000Z</time>
      </trkpt>
      <trkpt lat="48.19272" lon="3.44824">
        <ele>121.80000305176</ele>
        <time>2017-12-24T09:24:29.000Z</time>
      </trkpt>
      <trkpt lat="48.19275" lon="3.44825">
        <ele>122.19999694824</ele>
        <time>2017-12-24T09:24:30.000Z</time>
      </trkpt>
      <trkpt lat="48.1928" lon="3.44827">
        <ele>122.19999694824</ele>
        <time>2017-12-24T09:24:33.000Z</time>
      </trkpt>
      <trkpt lat="48.19282" lon="3.44828">
        <ele>122.59999847412</ele>
        <time>2017-12-24T09:24:34.000Z</time>
      </trkpt>
      <trkpt lat="48.19284" lon="3.44829">
        <ele>123.19999694824</ele>
        <time>2017-12-24T09:24:35.000Z</time>
      </trkpt>
      <trkpt lat="48.19286" lon="3.4483">
        <ele>123.59999847412</ele>
        <time>2017-12-24T09:24:36.000Z</time>
      </trkpt>
      <trkpt lat="48.19288" lon="3.44831">
        <ele>124.59999847412</ele>
        <time>2017-12-24T09:24:37.000Z</time>
      </trkpt>
      <trkpt lat="48.19294" lon="3.44834">
        <ele>125</ele>
        <time>2017-12-24T09:24:40.000Z</time>
      </trkpt>
      <trkpt lat="48.19296" lon="3.44835">
        <ele>125.40000152588</ele>
        <time>2017-12-24T09:24:41.000Z</time>
      </trkpt>
      <trkpt lat="48.19298" lon="3.44835">
        <ele>125.80000305176</ele>
        <time>2017-12-24T09:24:42.000Z</time>
      </trkpt>
      <trkpt lat="48.19299" lon="3.44836">
        <ele>126.19999694824</ele>
        <time>2017-12-24T09:24:43.000Z</time>
      </trkpt>
      <trkpt lat="48.19301" lon="3.44838">
        <ele>126.59999847412</ele>
        <time>2017-12-24T09:24:44.000Z</time>
      </trkpt>
      <trkpt lat="48.19309" lon="3.44843">
        <ele>127</ele>
        <time>2017-12-24T09:24:48.000Z</time>
      </trkpt>
      <trkpt lat="48.1931" lon="3.44844">
        <ele>127.40000152588</ele>
        <time>2017-12-24T09:24:49.000Z</time>
      </trkpt>
      <trkpt lat="48.19312" lon="3.44845">
        <ele>128</ele>
        <time>2017-12-24T09:24:50.000Z</time>
      </trkpt>
      <trkpt lat="48.19314" lon="3.44846">
        <ele>128.39999389648</ele>
        <time>2017-12-24T09:24:51.000Z</time>
      </trkpt>
      <trkpt lat="48.19316" lon="3.44847">
        <ele>128.80000305176</ele>
        <time>2017-12-24T09:24:52.000Z</time>
      </trkpt>
      <trkpt lat="48.19324" lon="3.4485">
        <ele>129.19999694824</ele>
        <time>2017-12-24T09:24:56.000Z</time>
      </trkpt>
      <trkpt lat="48.19326" lon="3.44851">
        <ele>129.60000610352</ele>
        <time>2017-12-24T09:24:57.000Z</time>
      </trkpt>
      <trkpt lat="48.19327" lon="3.44851">
        <ele>130</ele>
        <time>2017-12-24T09:24:58.000Z</time>
      </trkpt>
      <trkpt lat="48.19329" lon="3.44851">
        <ele>130.39999389648</ele>
        <time>2017-12-24T09:24:59.000Z</time>
      </trkpt>
      <trkpt lat="48.19331" lon="3.44853">
        <ele>130.80000305176</ele>
        <time>2017-12-24T09:25:00.000Z</time>
      </trkpt>
      <trkpt lat="48.19334" lon="3.44856">
        <ele>131.19999694824</ele>
        <time>2017-12-24T09:25:02.000Z</time>
      </trkpt>
      <trkpt lat="48.19335" lon="3.44858">
        <ele>131.80000305176</ele>
        <time>2017-12-24T09:25:03.000Z</time>
      </trkpt>
      <trkpt lat="48.19337" lon="3.44859">
        <ele>132.19999694824</ele>
        <time>2017-12-24T09:25:04.000Z</time>
      </trkpt>
      <trkpt lat="48.19339" lon="3.4486">
        <ele>132.60000610352</ele>
        <time>2017-12-24T09:25:05.000Z</time>
      </trkpt>
      <trkpt lat="48.1934" lon="3.44861">
        <ele>133</ele>
        <time>2017-12-24T09:25:06.000Z</time>
      </trkpt>
      <trkpt lat="48.19351" lon="3.44868">
        <ele>133</ele>
        <time>2017-12-24T09:25:13.000Z</time>
      </trkpt>
      <trkpt lat="48.19355" lon="3.44871">
        <ele>133</ele>
        <time>2017-12-24T09:25:16.000Z</time>
      </trkpt>
      <trkpt lat="48.19355" lon="3.44873">
        <ele>133.39999389648</ele>
        <time>2017-12-24T09:25:17.000Z</time>
      </trkpt>
      <trkpt lat="48.19355" lon="3.44875">
        <ele>133.80000305176</ele>
        <time>2017-12-24T09:25:18.000Z</time>
      </trkpt>
      <trkpt lat="48.19355" lon="3.44878">
        <ele>134.19999694824</ele>
        <time>2017-12-24T09:25:19.000Z</time>
      </trkpt>
      <trkpt lat="48.19357" lon="3.44881">
        <ele>134.60000610352</ele>
        <time>2017-12-24T09:25:20.000Z</time>
      </trkpt>
      <trkpt lat="48.19359" lon="3.44883">
        <ele>135</ele>
        <time>2017-12-24T09:25:21.000Z</time>
      </trkpt>
      <trkpt lat="48.19366" lon="3.44894">
        <ele>135</ele>
        <time>2017-12-24T09:25:25.000Z</time>
      </trkpt>
      <trkpt lat="48.19369" lon="3.44899">
        <ele>135</ele>
        <time>2017-12-24T09:25:27.000Z</time>
      </trkpt>
      <trkpt lat="48.19372" lon="3.44906">
        <ele>134.60000610352</ele>
        <time>2017-12-24T09:25:29.000Z</time>
      </trkpt>
      <trkpt lat="48.19373" lon="3.44909">
        <ele>134.19999694824</ele>
        <time>2017-12-24T09:25:30.000Z</time>
      </trkpt>
      <trkpt lat="48.19375" lon="3.44912">
        <ele>133.60000610352</ele>
        <time>2017-12-24T09:25:31.000Z</time>
      </trkpt>
      <trkpt lat="48.19376" lon="3.44915">
        <ele>133.19999694824</ele>
        <time>2017-12-24T09:25:32.000Z</time>
      </trkpt>
      <trkpt lat="48.19378" lon="3.44919">
        <ele>132.80000305176</ele>
        <time>2017-12-24T09:25:33.000Z</time>
      </trkpt>
      <trkpt lat="48.19386" lon="3.44929">
        <ele>132.80000305176</ele>
        <time>2017-12-24T09:25:36.000Z</time>
      </trkpt>
      <trkpt lat="48.19393" lon="3.44936">
        <ele>132.80000305176</ele>
        <time>2017-12-24T09:25:39.000Z</time>
      </trkpt>
      <trkpt lat="48.19397" lon="3.44937">
        <ele>132.39999389648</ele>
        <time>2017-12-24T09:25:41.000Z</time>
      </trkpt>
      <trkpt lat="48.19399" lon="3.4494">
        <ele>132</ele>
        <time>2017-12-24T09:25:42.000Z</time>
      </trkpt>
      <trkpt lat="48.19402" lon="3.44942">
        <ele>131.60000610352</ele>
        <time>2017-12-24T09:25:43.000Z</time>
      </trkpt>
      <trkpt lat="48.19404" lon="3.44945">
        <ele>131.19999694824</ele>
        <time>2017-12-24T09:25:44.000Z</time>
      </trkpt>
      <trkpt lat="48.19407" lon="3.44949">
        <ele>130.80000305176</ele>
        <time>2017-12-24T09:25:45.000Z</time>
      </trkpt>
      <trkpt lat="48.19423" lon="3.4497">
        <ele>130.80000305176</ele>
        <time>2017-12-24T09:25:52.000Z</time>
      </trkpt>
      <trkpt lat="48.19432" lon="3.44977">
        <ele>130.80000305176</ele>
        <time>2017-12-24T09:25:56.000Z</time>
      </trkpt>
      <trkpt lat="48.19434" lon="3.44979">
        <ele>130.80000305176</ele>
        <time>2017-12-24T09:25:57.000Z</time>
      </trkpt>
      <trkpt lat="48.19443" lon="3.44986">
        <ele>130.80000305176</ele>
        <time>2017-12-24T09:26:03.000Z</time>
      </trkpt>
      <trkpt lat="48.19443" lon="3.44986">
        <ele>130.80000305176</ele>
        <time>2017-12-24T09:26:04.000Z</time>
      </trkpt>
      <trkpt lat="48.19448" lon="3.44987">
        <ele>130.80000305176</ele>
        <time>2017-12-24T09:26:15.000Z</time>
      </trkpt>
      <trkpt lat="48.19449" lon="3.44988">
        <ele>130.80000305176</ele>
        <time>2017-12-24T09:26:17.000Z</time>
      </trkpt>
      <trkpt lat="48.1945" lon="3.44991">
        <ele>130.80000305176</ele>
        <time>2017-12-24T09:26:18.000Z</time>
      </trkpt>
      <trkpt lat="48.19453" lon="3.45">
        <ele>130.80000305176</ele>
        <time>2017-12-24T09:26:21.000Z</time>
      </trkpt>
      <trkpt lat="48.19455" lon="3.45009">
        <ele>130.39999389648</ele>
        <time>2017-12-24T09:26:25.000Z</time>
      </trkpt>
      <trkpt lat="48.19456" lon="3.45012">
        <ele>129.80000305176</ele>
        <time>2017-12-24T09:26:26.000Z</time>
      </trkpt>
      <trkpt lat="48.19456" lon="3.45016">
        <ele>129.39999389648</ele>
        <time>2017-12-24T09:26:27.000Z</time>
      </trkpt>
      <trkpt lat="48.19456" lon="3.45019">
        <ele>129</ele>
        <time>2017-12-24T09:26:28.000Z</time>
      </trkpt>
      <trkpt lat="48.19456" lon="3.45021">
        <ele>128.39999389648</ele>
        <time>2017-12-24T09:26:29.000Z</time>
      </trkpt>
      <trkpt lat="48.19456" lon="3.45022">
        <ele>128</ele>
        <time>2017-12-24T09:26:30.000Z</time>
      </trkpt>
      <trkpt lat="48.19456" lon="3.45024">
        <ele>127.40000152588</ele>
        <time>2017-12-24T09:26:31.000Z</time>
      </trkpt>
      <trkpt lat="48.19456" lon="3.45026">
        <ele>127</ele>
        <time>2017-12-24T09:26:32.000Z</time>
      </trkpt>
      <trkpt lat="48.19455" lon="3.45029">
        <ele>126.40000152588</ele>
        <time>2017-12-24T09:26:33.000Z</time>
      </trkpt>
      <trkpt lat="48.19455" lon="3.45031">
        <ele>126</ele>
        <time>2017-12-24T09:26:34.000Z</time>
      </trkpt>
      <trkpt lat="48.19455" lon="3.45033">
        <ele>125.40000152588</ele>
        <time>2017-12-24T09:26:35.000Z</time>
      </trkpt>
      <trkpt lat="48.19454" lon="3.45034">
        <ele>124.80000305176</ele>
        <time>2017-12-24T09:26:36.000Z</time>
      </trkpt>
      <trkpt lat="48.19453" lon="3.45035">
        <ele>124.40000152588</ele>
        <time>2017-12-24T09:26:37.000Z</time>
      </trkpt>
      <trkpt lat="48.19451" lon="3.45037">
        <ele>123.80000305176</ele>
        <time>2017-12-24T09:26:38.000Z</time>
      </trkpt>
      <trkpt lat="48.1945" lon="3.45037">
        <ele>123.19999694824</ele>
        <time>2017-12-24T09:26:39.000Z</time>
      </trkpt>
      <trkpt lat="48.19448" lon="3.45038">
        <ele>122.40000152588</ele>
        <time>2017-12-24T09:26:40.000Z</time>
      </trkpt>
      <trkpt lat="48.19446" lon="3.45039">
        <ele>121.80000305176</ele>
        <time>2017-12-24T09:26:41.000Z</time>
      </trkpt>
      <trkpt lat="48.19444" lon="3.4504">
        <ele>121.40000152588</ele>
        <time>2017-12-24T09:26:42.000Z</time>
      </trkpt>
      <trkpt lat="48.19436" lon="3.45045">
        <ele>120.80000305176</ele>
        <time>2017-12-24T09:26:44.000Z</time>
      </trkpt>
      <trkpt lat="48.19434" lon="3.45044">
        <ele>120.40000152588</ele>
        <time>2017-12-24T09:26:45.000Z</time>
      </trkpt>
      <trkpt lat="48.19432" lon="3.45044">
        <ele>120</ele>
        <time>2017-12-24T09:26:46.000Z</time>
      </trkpt>
      <trkpt lat="48.19431" lon="3.45043">
        <ele>119.40000152588</ele>
        <time>2017-12-24T09:26:47.000Z</time>
      </trkpt>
      <trkpt lat="48.1943" lon="3.45042">
        <ele>119</ele>
        <time>2017-12-24T09:26:48.000Z</time>
      </trkpt>
      <trkpt lat="48.19428" lon="3.45039">
        <ele>119</ele>
        <time>2017-12-24T09:26:51.000Z</time>
      </trkpt>
      <trkpt lat="48.19427" lon="3.45037">
        <ele>119</ele>
        <time>2017-12-24T09:26:53.000Z</time>
      </trkpt>
      <trkpt lat="48.19425" lon="3.45035">
        <ele>119</ele>
        <time>2017-12-24T09:26:55.000Z</time>
      </trkpt>
      <trkpt lat="48.19421" lon="3.45029">
        <ele>119</ele>
        <time>2017-12-24T09:26:59.000Z</time>
      </trkpt>
      <trkpt lat="48.19418" lon="3.45024">
        <ele>119</ele>
        <time>2017-12-24T09:27:02.000Z</time>
      </trkpt>
      <trkpt lat="48.19414" lon="3.45019">
        <ele>119</ele>
        <time>2017-12-24T09:27:05.000Z</time>
      </trkpt>
      <trkpt lat="48.19412" lon="3.45015">
        <ele>119</ele>
        <time>2017-12-24T09:27:07.000Z</time>
      </trkpt>
      <trkpt lat="48.19407" lon="3.45009">
        <ele>119</ele>
        <time>2017-12-24T09:27:10.000Z</time>
      </trkpt>
      <trkpt lat="48.19404" lon="3.45005">
        <ele>119</ele>
        <time>2017-12-24T09:27:12.000Z</time>
      </trkpt>
      <trkpt lat="48.19403" lon="3.45003">
        <ele>119</ele>
        <time>2017-12-24T09:27:13.000Z</time>
      </trkpt>
      <trkpt lat="48.194" lon="3.44999">
        <ele>119.40000152588</ele>
        <time>2017-12-24T09:27:15.000Z</time>
      </trkpt>
      <trkpt lat="48.19398" lon="3.44997">
        <ele>119.80000305176</ele>
        <time>2017-12-24T09:27:16.000Z</time>
      </trkpt>
      <trkpt lat="48.19397" lon="3.44995">
        <ele>120.19999694824</ele>
        <time>2017-12-24T09:27:17.000Z</time>
      </trkpt>
      <trkpt lat="48.19394" lon="3.44993">
        <ele>120.80000305176</ele>
        <time>2017-12-24T09:27:18.000Z</time>
      </trkpt>
      <trkpt lat="48.19393" lon="3.4499">
        <ele>121.19999694824</ele>
        <time>2017-12-24T09:27:19.000Z</time>
      </trkpt>
      <trkpt lat="48.19391" lon="3.44988">
        <ele>121.19999694824</ele>
        <time>2017-12-24T09:27:20.000Z</time>
      </trkpt>
      <trkpt lat="48.19375" lon="3.4497">
        <ele>121.19999694824</ele>
        <time>2017-12-24T09:27:27.000Z</time>
      </trkpt>
      <trkpt lat="48.19369" lon="3.44962">
        <ele>121.19999694824</ele>
        <time>2017-12-24T09:27:33.000Z</time>
      </trkpt>
      <trkpt lat="48.19369" lon="3.44961">
        <ele>121.19999694824</ele>
        <time>2017-12-24T09:27:35.000Z</time>
      </trkpt>
      <trkpt lat="48.19362" lon="3.44964">
        <ele>121.19999694824</ele>
        <time>2017-12-24T09:27:49.000Z</time>
      </trkpt>
      <trkpt lat="48.19359" lon="3.44965">
        <ele>121.19999694824</ele>
        <time>2017-12-24T09:27:50.000Z</time>
      </trkpt>
      <trkpt lat="48.19356" lon="3.44965">
        <ele>121.19999694824</ele>
        <time>2017-12-24T09:27:51.000Z</time>
      </trkpt>
      <trkpt lat="48.19353" lon="3.44966">
        <ele>120.59999847412</ele>
        <time>2017-12-24T09:27:52.000Z</time>
      </trkpt>
      <trkpt lat="48.19349" lon="3.44968">
        <ele>120</ele>
        <time>2017-12-24T09:27:53.000Z</time>
      </trkpt>
      <trkpt lat="48.19345" lon="3.44968">
        <ele>119.59999847412</ele>
        <time>2017-12-24T09:27:54.000Z</time>
      </trkpt>
      <trkpt lat="48.19342" lon="3.4497">
        <ele>118.19999694824</ele>
        <time>2017-12-24T09:27:55.000Z</time>
      </trkpt>
      <trkpt lat="48.1934" lon="3.44971">
        <ele>117.40000152588</ele>
        <time>2017-12-24T09:27:56.000Z</time>
      </trkpt>
      <trkpt lat="48.19338" lon="3.44972">
        <ele>116.80000305176</ele>
        <time>2017-12-24T09:27:57.000Z</time>
      </trkpt>
      <trkpt lat="48.19337" lon="3.44974">
        <ele>116</ele>
        <time>2017-12-24T09:27:58.000Z</time>
      </trkpt>
      <trkpt lat="48.19336" lon="3.44975">
        <ele>115.19999694824</ele>
        <time>2017-12-24T09:27:59.000Z</time>
      </trkpt>
      <trkpt lat="48.19334" lon="3.44977">
        <ele>114.40000152588</ele>
        <time>2017-12-24T09:28:00.000Z</time>
      </trkpt>
      <trkpt lat="48.19332" lon="3.44977">
        <ele>114</ele>
        <time>2017-12-24T09:28:01.000Z</time>
      </trkpt>
      <trkpt lat="48.19331" lon="3.44978">
        <ele>113.40000152588</ele>
        <time>2017-12-24T09:28:02.000Z</time>
      </trkpt>
      <trkpt lat="48.1933" lon="3.44977">
        <ele>112.80000305176</ele>
        <time>2017-12-24T09:28:03.000Z</time>
      </trkpt>
      <trkpt lat="48.19331" lon="3.44977">
        <ele>112.19999694824</ele>
        <time>2017-12-24T09:28:04.000Z</time>
      </trkpt>
      <trkpt lat="48.19328" lon="3.44976">
        <ele>111.59999847412</ele>
        <time>2017-12-24T09:28:47.000Z</time>
      </trkpt>
      <trkpt lat="48.19328" lon="3.44976">
        <ele>111.59999847412</ele>
        <time>2017-12-24T09:28:48.000Z</time>
      </trkpt>
      <trkpt lat="48.19324" lon="3.44973">
        <ele>111.59999847412</ele>
        <time>2017-12-24T09:28:50.000Z</time>
      </trkpt>
      <trkpt lat="48.19322" lon="3.44971">
        <ele>111.19999694824</ele>
        <time>2017-12-24T09:28:51.000Z</time>
      </trkpt>
      <trkpt lat="48.1932" lon="3.44968">
        <ele>110.80000305176</ele>
        <time>2017-12-24T09:28:52.000Z</time>
      </trkpt>
      <trkpt lat="48.19318" lon="3.44966">
        <ele>110.40000152588</ele>
        <time>2017-12-24T09:28:53.000Z</time>
      </trkpt>
      <trkpt lat="48.19316" lon="3.44963">
        <ele>110</ele>
        <time>2017-12-24T09:28:54.000Z</time>
      </trkpt>
      <trkpt lat="48.19313" lon="3.44961">
        <ele>109.59999847412</ele>
        <time>2017-12-24T09:28:55.000Z</time>
      </trkpt>
      <trkpt lat="48.19311" lon="3.44957">
        <ele>109.59999847412</ele>
        <time>2017-12-24T09:28:56.000Z</time>
      </trkpt>
      <trkpt lat="48.19291" lon="3.44931">
        <ele>109.59999847412</ele>
        <time>2017-12-24T09:29:03.000Z</time>
      </trkpt>
      <trkpt lat="48.19282" lon="3.44919">
        <ele>109.59999847412</ele>
        <time>2017-12-24T09:29:06.000Z</time>
      </trkpt>
      <trkpt lat="48.19266" lon="3.44896">
        <ele>109.59999847412</ele>
        <time>2017-12-24T09:29:11.000Z</time>
      </trkpt>
      <trkpt lat="48.19263" lon="3.44891">
        <ele>109.59999847412</ele>
        <time>2017-12-24T09:29:12.000Z</time>
      </trkpt>
      <trkpt lat="48.1925" lon="3.44872">
        <ele>109.59999847412</ele>
        <time>2017-12-24T09:29:16.000Z</time>
      </trkpt>
      <trkpt lat="48.1924" lon="3.44858">
        <ele>109.59999847412</ele>
        <time>2017-12-24T09:29:19.000Z</time>
      </trkpt>
      <trkpt lat="48.19237" lon="3.44853">
        <ele>109.59999847412</ele>
        <time>2017-12-24T09:29:20.000Z</time>
      </trkpt>
      <trkpt lat="48.19234" lon="3.44848">
        <ele>109.59999847412</ele>
        <time>2017-12-24T09:29:21.000Z</time>
      </trkpt>
      <trkpt lat="48.19227" lon="3.44838">
        <ele>109.59999847412</ele>
        <time>2017-12-24T09:29:23.000Z</time>
      </trkpt>
      <trkpt lat="48.1922" lon="3.44828">
        <ele>109.59999847412</ele>
        <time>2017-12-24T09:29:25.000Z</time>
      </trkpt>
      <trkpt lat="48.19214" lon="3.44819">
        <ele>109.59999847412</ele>
        <time>2017-12-24T09:29:27.000Z</time>
      </trkpt>
      <trkpt lat="48.19201" lon="3.448">
        <ele>109.59999847412</ele>
        <time>2017-12-24T09:29:31.000Z</time>
      </trkpt>
      <trkpt lat="48.19194" lon="3.4479">
        <ele>109.59999847412</ele>
        <time>2017-12-24T09:29:34.000Z</time>
      </trkpt>
      <trkpt lat="48.1919" lon="3.44784">
        <ele>110</ele>
        <time>2017-12-24T09:29:36.000Z</time>
      </trkpt>
      <trkpt lat="48.19187" lon="3.44781">
        <ele>110.40000152588</ele>
        <time>2017-12-24T09:29:37.000Z</time>
      </trkpt>
      <trkpt lat="48.19185" lon="3.44779">
        <ele>111</ele>
        <time>2017-12-24T09:29:38.000Z</time>
      </trkpt>
      <trkpt lat="48.19183" lon="3.44777">
        <ele>111.40000152588</ele>
        <time>2017-12-24T09:29:39.000Z</time>
      </trkpt>
      <trkpt lat="48.19181" lon="3.44776">
        <ele>111.80000305176</ele>
        <time>2017-12-24T09:29:40.000Z</time>
      </trkpt>
      <trkpt lat="48.1917" lon="3.44768">
        <ele>111.80000305176</ele>
        <time>2017-12-24T09:29:45.000Z</time>
      </trkpt>
      <trkpt lat="48.19165" lon="3.4475">
        <ele>111.80000305176</ele>
        <time>2017-12-24T09:29:50.000Z</time>
      </trkpt>
      <trkpt lat="48.19155" lon="3.44724">
        <ele>111.80000305176</ele>
        <time>2017-12-24T09:29:57.000Z</time>
      </trkpt>
      <trkpt lat="48.19144" lon="3.44705">
        <ele>111.80000305176</ele>
        <time>2017-12-24T09:30:02.000Z</time>
      </trkpt>
      <trkpt lat="48.19138" lon="3.44684">
        <ele>111.80000305176</ele>
        <time>2017-12-24T09:30:07.000Z</time>
      </trkpt>
      <trkpt lat="48.1913" lon="3.44663">
        <ele>111.80000305176</ele>
        <time>2017-12-24T09:30:13.000Z</time>
      </trkpt>
      <trkpt lat="48.19129" lon="3.44655">
        <ele>111.80000305176</ele>
        <time>2017-12-24T09:30:17.000Z</time>
      </trkpt>
      <trkpt lat="48.19129" lon="3.44656">
        <ele>111.80000305176</ele>
        <time>2017-12-24T09:30:19.000Z</time>
      </trkpt>
      <trkpt lat="48.19127" lon="3.44657">
        <ele>111.80000305176</ele>
        <time>2017-12-24T09:30:20.000Z</time>
      </trkpt>
      <trkpt lat="48.19125" lon="3.44659">
        <ele>111.80000305176</ele>
        <time>2017-12-24T09:30:21.000Z</time>
      </trkpt>
      <trkpt lat="48.19119" lon="3.44671">
        <ele>111.80000305176</ele>
        <time>2017-12-24T09:30:25.000Z</time>
      </trkpt>
      <trkpt lat="48.19118" lon="3.44672">
        <ele>111.40000152588</ele>
        <time>2017-12-24T09:30:26.000Z</time>
      </trkpt>
      <trkpt lat="48.19118" lon="3.44672">
        <ele>111</ele>
        <time>2017-12-24T09:30:27.000Z</time>
      </trkpt>
      <trkpt lat="48.19117" lon="3.44674">
        <ele>110.59999847412</ele>
        <time>2017-12-24T09:30:28.000Z</time>
      </trkpt>
      <trkpt lat="48.19116" lon="3.44676">
        <ele>110.19999694824</ele>
        <time>2017-12-24T09:30:29.000Z</time>
      </trkpt>
      <trkpt lat="48.19116" lon="3.44676">
        <ele>109.80000305176</ele>
        <time>2017-12-24T09:30:30.000Z</time>
      </trkpt>
      <trkpt lat="48.19115" lon="3.44678">
        <ele>109.80000305176</ele>
        <time>2017-12-24T09:30:31.000Z</time>
      </trkpt>
      <trkpt lat="48.19114" lon="3.44681">
        <ele>109.80000305176</ele>
        <time>2017-12-24T09:30:34.000Z</time>
      </trkpt>
      <trkpt lat="48.19114" lon="3.44681">
        <ele>109.40000152588</ele>
        <time>2017-12-24T09:30:35.000Z</time>
      </trkpt>
      <trkpt lat="48.19112" lon="3.44684">
        <ele>107.80000305176</ele>
        <time>2017-12-24T09:30:47.000Z</time>
      </trkpt>
      <trkpt lat="48.19109" lon="3.4469">
        <ele>107.80000305176</ele>
        <time>2017-12-24T09:30:50.000Z</time>
      </trkpt>
      <trkpt lat="48.19107" lon="3.44694">
        <ele>107.80000305176</ele>
        <time>2017-12-24T09:30:52.000Z</time>
      </trkpt>
      <trkpt lat="48.19106" lon="3.44697">
        <ele>107.19999694824</ele>
        <time>2017-12-24T09:30:53.000Z</time>
      </trkpt>
      <trkpt lat="48.19104" lon="3.447">
        <ele>106.80000305176</ele>
        <time>2017-12-24T09:30:54.000Z</time>
      </trkpt>
      <trkpt lat="48.19102" lon="3.44703">
        <ele>106.40000152588</ele>
        <time>2017-12-24T09:30:55.000Z</time>
      </trkpt>
      <trkpt lat="48.19101" lon="3.44705">
        <ele>106</ele>
        <time>2017-12-24T09:30:56.000Z</time>
      </trkpt>
      <trkpt lat="48.191" lon="3.44707">
        <ele>105.40000152588</ele>
        <time>2017-12-24T09:30:57.000Z</time>
      </trkpt>
      <trkpt lat="48.19098" lon="3.44711">
        <ele>105.40000152588</ele>
        <time>2017-12-24T09:30:59.000Z</time>
      </trkpt>
      <trkpt lat="48.19097" lon="3.44715">
        <ele>105</ele>
        <time>2017-12-24T09:31:01.000Z</time>
      </trkpt>
      <trkpt lat="48.19096" lon="3.44717">
        <ele>104.59999847412</ele>
        <time>2017-12-24T09:31:02.000Z</time>
      </trkpt>
      <trkpt lat="48.19095" lon="3.44718">
        <ele>104.19999694824</ele>
        <time>2017-12-24T09:31:03.000Z</time>
      </trkpt>
      <trkpt lat="48.19094" lon="3.44719">
        <ele>103.80000305176</ele>
        <time>2017-12-24T09:31:04.000Z</time>
      </trkpt>
      <trkpt lat="48.19092" lon="3.44724">
        <ele>103.19999694824</ele>
        <time>2017-12-24T09:31:05.000Z</time>
      </trkpt>
      <trkpt lat="48.19089" lon="3.44735">
        <ele>102.80000305176</ele>
        <time>2017-12-24T09:31:07.000Z</time>
      </trkpt>
      <trkpt lat="48.19088" lon="3.44742">
        <ele>102.40000152588</ele>
        <time>2017-12-24T09:31:08.000Z</time>
      </trkpt>
      <trkpt lat="48.19089" lon="3.44748">
        <ele>102</ele>
        <time>2017-12-24T09:31:09.000Z</time>
      </trkpt>
      <trkpt lat="48.19089" lon="3.44753">
        <ele>101.59999847412</ele>
        <time>2017-12-24T09:31:10.000Z</time>
      </trkpt>
      <trkpt lat="48.19089" lon="3.44759">
        <ele>101.19999694824</ele>
        <time>2017-12-24T09:31:11.000Z</time>
      </trkpt>
      <trkpt lat="48.1909" lon="3.44764">
        <ele>100.80000305176</ele>
        <time>2017-12-24T09:31:12.000Z</time>
      </trkpt>
      <trkpt lat="48.19089" lon="3.44769">
        <ele>99.800003051758</ele>
        <time>2017-12-24T09:31:13.000Z</time>
      </trkpt>
      <trkpt lat="48.1909" lon="3.44774">
        <ele>99.400001525879</ele>
        <time>2017-12-24T09:31:14.000Z</time>
      </trkpt>
      <trkpt lat="48.19092" lon="3.44778">
        <ele>99</ele>
        <time>2017-12-24T09:31:15.000Z</time>
      </trkpt>
      <trkpt lat="48.19106" lon="3.44798">
        <ele>99</ele>
        <time>2017-12-24T09:31:21.000Z</time>
      </trkpt>
      <trkpt lat="48.1912" lon="3.44818">
        <ele>99</ele>
        <time>2017-12-24T09:31:27.000Z</time>
      </trkpt>
      <trkpt lat="48.19132" lon="3.44835">
        <ele>99</ele>
        <time>2017-12-24T09:31:32.000Z</time>
      </trkpt>
      <trkpt lat="48.19137" lon="3.44842">
        <ele>99</ele>
        <time>2017-12-24T09:31:34.000Z</time>
      </trkpt>
      <trkpt lat="48.19144" lon="3.44853">
        <ele>99</ele>
        <time>2017-12-24T09:31:37.000Z</time>
      </trkpt>
      <trkpt lat="48.19152" lon="3.44864">
        <ele>99</ele>
        <time>2017-12-24T09:31:40.000Z</time>
      </trkpt>
      <trkpt lat="48.19154" lon="3.44868">
        <ele>99</ele>
        <time>2017-12-24T09:31:41.000Z</time>
      </trkpt>
      <trkpt lat="48.19165" lon="3.44883">
        <ele>99</ele>
        <time>2017-12-24T09:31:45.000Z</time>
      </trkpt>
      <trkpt lat="48.1918" lon="3.44906">
        <ele>99</ele>
        <time>2017-12-24T09:31:51.000Z</time>
      </trkpt>
      <trkpt lat="48.19197" lon="3.44932">
        <ele>99</ele>
        <time>2017-12-24T09:31:58.000Z</time>
      </trkpt>
      <trkpt lat="48.19212" lon="3.44953">
        <ele>99</ele>
        <time>2017-12-24T09:32:04.000Z</time>
      </trkpt>
      <trkpt lat="48.19216" lon="3.44958">
        <ele>99</ele>
        <time>2017-12-24T09:32:06.000Z</time>
      </trkpt>
      <trkpt lat="48.19232" lon="3.44981">
        <ele>99</ele>
        <time>2017-12-24T09:32:13.000Z</time>
      </trkpt>
      <trkpt lat="48.1925" lon="3.45012">
        <ele>99</ele>
        <time>2017-12-24T09:32:21.000Z</time>
      </trkpt>
      <trkpt lat="48.19263" lon="3.45035">
        <ele>99</ele>
        <time>2017-12-24T09:32:27.000Z</time>
      </trkpt>
      <trkpt lat="48.19268" lon="3.45044">
        <ele>99</ele>
        <time>2017-12-24T09:32:29.000Z</time>
      </trkpt>
      <trkpt lat="48.19287" lon="3.45078">
        <ele>99</ele>
        <time>2017-12-24T09:32:37.000Z</time>
      </trkpt>
      <trkpt lat="48.19297" lon="3.45095">
        <ele>99</ele>
        <time>2017-12-24T09:32:41.000Z</time>
      </trkpt>
      <trkpt lat="48.19304" lon="3.45108">
        <ele>99</ele>
        <time>2017-12-24T09:32:44.000Z</time>
      </trkpt>
      <trkpt lat="48.19309" lon="3.45117">
        <ele>98.599998474121</ele>
        <time>2017-12-24T09:32:46.000Z</time>
      </trkpt>
      <trkpt lat="48.19311" lon="3.45121">
        <ele>98.199996948242</ele>
        <time>2017-12-24T09:32:47.000Z</time>
      </trkpt>
      <trkpt lat="48.19314" lon="3.45126">
        <ele>97.800003051758</ele>
        <time>2017-12-24T09:32:48.000Z</time>
      </trkpt>
      <trkpt lat="48.19317" lon="3.45131">
        <ele>97.400001525879</ele>
        <time>2017-12-24T09:32:49.000Z</time>
      </trkpt>
      <trkpt lat="48.19319" lon="3.45136">
        <ele>97</ele>
        <time>2017-12-24T09:32:50.000Z</time>
      </trkpt>
      <trkpt lat="48.19322" lon="3.45141">
        <ele>97</ele>
        <time>2017-12-24T09:32:51.000Z</time>
      </trkpt>
      <trkpt lat="48.19325" lon="3.45146">
        <ele>97</ele>
        <time>2017-12-24T09:32:52.000Z</time>
      </trkpt>
      <trkpt lat="48.19343" lon="3.45175">
        <ele>97</ele>
        <time>2017-12-24T09:32:59.000Z</time>
      </trkpt>
      <trkpt lat="48.19357" lon="3.4518">
        <ele>97</ele>
        <time>2017-12-24T09:33:03.000Z</time>
      </trkpt>
      <trkpt lat="48.19375" lon="3.45186">
        <ele>97</ele>
        <time>2017-12-24T09:33:08.000Z</time>
      </trkpt>
      <trkpt lat="48.19381" lon="3.45188">
        <ele>97</ele>
        <time>2017-12-24T09:33:10.000Z</time>
      </trkpt>
      <trkpt lat="48.19391" lon="3.45198">
        <ele>97</ele>
        <time>2017-12-24T09:33:14.000Z</time>
      </trkpt>
      <trkpt lat="48.19395" lon="3.45204">
        <ele>97</ele>
        <time>2017-12-24T09:33:15.000Z</time>
      </trkpt>
      <trkpt lat="48.19401" lon="3.45211">
        <ele>97</ele>
        <time>2017-12-24T09:33:16.000Z</time>
      </trkpt>
      <trkpt lat="48.19402" lon="3.45212">
        <ele>97</ele>
        <time>2017-12-24T09:33:17.000Z</time>
      </trkpt>
      <trkpt lat="48.19406" lon="3.45217">
        <ele>97</ele>
        <time>2017-12-24T09:33:19.000Z</time>
      </trkpt>
      <trkpt lat="48.19407" lon="3.45223">
        <ele>97</ele>
        <time>2017-12-24T09:33:20.000Z</time>
      </trkpt>
      <trkpt lat="48.19409" lon="3.45236">
        <ele>97</ele>
        <time>2017-12-24T09:33:23.000Z</time>
      </trkpt>
      <trkpt lat="48.19411" lon="3.45245">
        <ele>97.400001525879</ele>
        <time>2017-12-24T09:33:25.000Z</time>
      </trkpt>
      <trkpt lat="48.19412" lon="3.4525">
        <ele>97.800003051758</ele>
        <time>2017-12-24T09:33:26.000Z</time>
      </trkpt>
      <trkpt lat="48.19413" lon="3.45255">
        <ele>98.199996948242</ele>
        <time>2017-12-24T09:33:27.000Z</time>
      </trkpt>
      <trkpt lat="48.19415" lon="3.4526">
        <ele>98.599998474121</ele>
        <time>2017-12-24T09:33:28.000Z</time>
      </trkpt>
      <trkpt lat="48.19416" lon="3.45265">
        <ele>99</ele>
        <time>2017-12-24T09:33:29.000Z</time>
      </trkpt>
      <trkpt lat="48.19421" lon="3.45277">
        <ele>99</ele>
        <time>2017-12-24T09:33:32.000Z</time>
      </trkpt>
      <trkpt lat="48.19424" lon="3.45289">
        <ele>99</ele>
        <time>2017-12-24T09:33:34.000Z</time>
      </trkpt>
      <trkpt lat="48.19427" lon="3.45307">
        <ele>99</ele>
        <time>2017-12-24T09:33:37.000Z</time>
      </trkpt>
      <trkpt lat="48.19428" lon="3.45313">
        <ele>99</ele>
        <time>2017-12-24T09:33:38.000Z</time>
      </trkpt>
      <trkpt lat="48.19434" lon="3.45345">
        <ele>99</ele>
        <time>2017-12-24T09:33:44.000Z</time>
      </trkpt>
      <trkpt lat="48.19441" lon="3.45377">
        <ele>99</ele>
        <time>2017-12-24T09:33:50.000Z</time>
      </trkpt>
      <trkpt lat="48.19447" lon="3.45395">
        <ele>99</ele>
        <time>2017-12-24T09:33:53.000Z</time>
      </trkpt>
      <trkpt lat="48.19453" lon="3.45405">
        <ele>99</ele>
        <time>2017-12-24T09:33:55.000Z</time>
      </trkpt>
      <trkpt lat="48.19466" lon="3.45421">
        <ele>99</ele>
        <time>2017-12-24T09:33:59.000Z</time>
      </trkpt>
      <trkpt lat="48.19469" lon="3.45424">
        <ele>99</ele>
        <time>2017-12-24T09:34:00.000Z</time>
      </trkpt>
      <trkpt lat="48.19486" lon="3.45441">
        <ele>99</ele>
        <time>2017-12-24T09:34:05.000Z</time>
      </trkpt>
      <trkpt lat="48.19496" lon="3.45452">
        <ele>99</ele>
        <time>2017-12-24T09:34:08.000Z</time>
      </trkpt>
      <trkpt lat="48.19512" lon="3.45464">
        <ele>99</ele>
        <time>2017-12-24T09:34:12.000Z</time>
      </trkpt>
      <trkpt lat="48.19519" lon="3.45468">
        <ele>99</ele>
        <time>2017-12-24T09:34:14.000Z</time>
      </trkpt>
      <trkpt lat="48.1954" lon="3.45475">
        <ele>99</ele>
        <time>2017-12-24T09:34:20.000Z</time>
      </trkpt>
      <trkpt lat="48.19565" lon="3.45485">
        <ele>99</ele>
        <time>2017-12-24T09:34:28.000Z</time>
      </trkpt>
      <trkpt lat="48.19575" lon="3.45494">
        <ele>99</ele>
        <time>2017-12-24T09:34:33.000Z</time>
      </trkpt>
      <trkpt lat="48.19582" lon="3.45509">
        <ele>99</ele>
        <time>2017-12-24T09:34:37.000Z</time>
      </trkpt>
      <trkpt lat="48.19587" lon="3.45518">
        <ele>98.599998474121</ele>
        <time>2017-12-24T09:34:39.000Z</time>
      </trkpt>
      <trkpt lat="48.19589" lon="3.4552">
        <ele>98.199996948242</ele>
        <time>2017-12-24T09:34:40.000Z</time>
      </trkpt>
      <trkpt lat="48.19591" lon="3.45523">
        <ele>97.800003051758</ele>
        <time>2017-12-24T09:34:41.000Z</time>
      </trkpt>
      <trkpt lat="48.19594" lon="3.45526">
        <ele>97.199996948242</ele>
        <time>2017-12-24T09:34:42.000Z</time>
      </trkpt>
      <trkpt lat="48.19597" lon="3.45531">
        <ele>96.800003051758</ele>
        <time>2017-12-24T09:34:43.000Z</time>
      </trkpt>
      <trkpt lat="48.19602" lon="3.45537">
        <ele>96.800003051758</ele>
        <time>2017-12-24T09:34:45.000Z</time>
      </trkpt>
      <trkpt lat="48.19607" lon="3.45546">
        <ele>96.800003051758</ele>
        <time>2017-12-24T09:34:47.000Z</time>
      </trkpt>
      <trkpt lat="48.19606" lon="3.4555">
        <ele>96.800003051758</ele>
        <time>2017-12-24T09:34:48.000Z</time>
      </trkpt>
      <trkpt lat="48.19601" lon="3.45573">
        <ele>96.800003051758</ele>
        <time>2017-12-24T09:34:53.000Z</time>
      </trkpt>
      <trkpt lat="48.19603" lon="3.45605">
        <ele>96.800003051758</ele>
        <time>2017-12-24T09:34:59.000Z</time>
      </trkpt>
      <trkpt lat="48.19609" lon="3.45631">
        <ele>96.800003051758</ele>
        <time>2017-12-24T09:35:05.000Z</time>
      </trkpt>
      <trkpt lat="48.19617" lon="3.45654">
        <ele>96.800003051758</ele>
        <time>2017-12-24T09:35:10.000Z</time>
      </trkpt>
      <trkpt lat="48.19618" lon="3.45659">
        <ele>96.800003051758</ele>
        <time>2017-12-24T09:35:11.000Z</time>
      </trkpt>
      <trkpt lat="48.1962" lon="3.45663">
        <ele>97.199996948242</ele>
        <time>2017-12-24T09:35:12.000Z</time>
      </trkpt>
      <trkpt lat="48.19621" lon="3.45668">
        <ele>97.599998474121</ele>
        <time>2017-12-24T09:35:13.000Z</time>
      </trkpt>
      <trkpt lat="48.19622" lon="3.45673">
        <ele>98</ele>
        <time>2017-12-24T09:35:14.000Z</time>
      </trkpt>
      <trkpt lat="48.19624" lon="3.45679">
        <ele>98.400001525879</ele>
        <time>2017-12-24T09:35:15.000Z</time>
      </trkpt>
      <trkpt lat="48.19626" lon="3.45685">
        <ele>98.800003051758</ele>
        <time>2017-12-24T09:35:16.000Z</time>
      </trkpt>
      <trkpt lat="48.19639" lon="3.45714">
        <ele>98.800003051758</ele>
        <time>2017-12-24T09:35:22.000Z</time>
      </trkpt>
      <trkpt lat="48.19657" lon="3.45722">
        <ele>98.800003051758</ele>
        <time>2017-12-24T09:35:27.000Z</time>
      </trkpt>
      <trkpt lat="48.19673" lon="3.45727">
        <ele>98.800003051758</ele>
        <time>2017-12-24T09:35:32.000Z</time>
      </trkpt>
      <trkpt lat="48.19702" lon="3.45738">
        <ele>98.800003051758</ele>
        <time>2017-12-24T09:35:40.000Z</time>
      </trkpt>
      <trkpt lat="48.19733" lon="3.4575">
        <ele>98.800003051758</ele>
        <time>2017-12-24T09:35:48.000Z</time>
      </trkpt>
      <trkpt lat="48.19741" lon="3.45752">
        <ele>98.800003051758</ele>
        <time>2017-12-24T09:35:50.000Z</time>
      </trkpt>
      <trkpt lat="48.19757" lon="3.45759">
        <ele>98.800003051758</ele>
        <time>2017-12-24T09:35:54.000Z</time>
      </trkpt>
      <trkpt lat="48.19789" lon="3.45772">
        <ele>98.800003051758</ele>
        <time>2017-12-24T09:36:01.000Z</time>
      </trkpt>
      <trkpt lat="48.19793" lon="3.45773">
        <ele>98.800003051758</ele>
        <time>2017-12-24T09:36:02.000Z</time>
      </trkpt>
      <trkpt lat="48.19804" lon="3.4578">
        <ele>98.800003051758</ele>
        <time>2017-12-24T09:36:05.000Z</time>
      </trkpt>
      <trkpt lat="48.19807" lon="3.45785">
        <ele>98.800003051758</ele>
        <time>2017-12-24T09:36:06.000Z</time>
      </trkpt>
      <trkpt lat="48.19808" lon="3.45797">
        <ele>98.400001525879</ele>
        <time>2017-12-24T09:36:08.000Z</time>
      </trkpt>
      <trkpt lat="48.19807" lon="3.45803">
        <ele>98</ele>
        <time>2017-12-24T09:36:09.000Z</time>
      </trkpt>
      <trkpt lat="48.19806" lon="3.45809">
        <ele>97.199996948242</ele>
        <time>2017-12-24T09:36:10.000Z</time>
      </trkpt>
      <trkpt lat="48.19806" lon="3.45815">
        <ele>96.800003051758</ele>
        <time>2017-12-24T09:36:11.000Z</time>
      </trkpt>
      <trkpt lat="48.19804" lon="3.45827">
        <ele>96.800003051758</ele>
        <time>2017-12-24T09:36:13.000Z</time>
      </trkpt>
      <trkpt lat="48.19803" lon="3.4584">
        <ele>96.800003051758</ele>
        <time>2017-12-24T09:36:15.000Z</time>
      </trkpt>
      <trkpt lat="48.198" lon="3.4587">
        <ele>96.800003051758</ele>
        <time>2017-12-24T09:36:20.000Z</time>
      </trkpt>
      <trkpt lat="48.19799" lon="3.45881">
        <ele>96.800003051758</ele>
        <time>2017-12-24T09:36:22.000Z</time>
      </trkpt>
      <trkpt lat="48.19798" lon="3.45887">
        <ele>97.199996948242</ele>
        <time>2017-12-24T09:36:23.000Z</time>
      </trkpt>
      <trkpt lat="48.19798" lon="3.45893">
        <ele>97.800003051758</ele>
        <time>2017-12-24T09:36:24.000Z</time>
      </trkpt>
      <trkpt lat="48.19798" lon="3.45899">
        <ele>98.199996948242</ele>
        <time>2017-12-24T09:36:25.000Z</time>
      </trkpt>
      <trkpt lat="48.19798" lon="3.45905">
        <ele>98.599998474121</ele>
        <time>2017-12-24T09:36:26.000Z</time>
      </trkpt>
      <trkpt lat="48.19798" lon="3.45912">
        <ele>99</ele>
        <time>2017-12-24T09:36:27.000Z</time>
      </trkpt>
      <trkpt lat="48.19799" lon="3.45925">
        <ele>99</ele>
        <time>2017-12-24T09:36:29.000Z</time>
      </trkpt>
      <trkpt lat="48.19808" lon="3.45971">
        <ele>99</ele>
        <time>2017-12-24T09:36:36.000Z</time>
      </trkpt>
      <trkpt lat="48.19815" lon="3.45989">
        <ele>99</ele>
        <time>2017-12-24T09:36:39.000Z</time>
      </trkpt>
      <trkpt lat="48.19821" lon="3.45999">
        <ele>99</ele>
        <time>2017-12-24T09:36:41.000Z</time>
      </trkpt>
      <trkpt lat="48.19827" lon="3.46008">
        <ele>99</ele>
        <time>2017-12-24T09:36:43.000Z</time>
      </trkpt>
      <trkpt lat="48.1984" lon="3.46026">
        <ele>99</ele>
        <time>2017-12-24T09:36:47.000Z</time>
      </trkpt>
      <trkpt lat="48.19866" lon="3.46064">
        <ele>99</ele>
        <time>2017-12-24T09:36:55.000Z</time>
      </trkpt>
      <trkpt lat="48.19885" lon="3.46087">
        <ele>99</ele>
        <time>2017-12-24T09:37:01.000Z</time>
      </trkpt>
      <trkpt lat="48.19906" lon="3.46109">
        <ele>99</ele>
        <time>2017-12-24T09:37:08.000Z</time>
      </trkpt>
      <trkpt lat="48.19914" lon="3.46112">
        <ele>99</ele>
        <time>2017-12-24T09:37:11.000Z</time>
      </trkpt>
      <trkpt lat="48.19917" lon="3.4611">
        <ele>99</ele>
        <time>2017-12-24T09:37:12.000Z</time>
      </trkpt>
      <trkpt lat="48.19919" lon="3.46099">
        <ele>99</ele>
        <time>2017-12-24T09:37:15.000Z</time>
      </trkpt>
      <trkpt lat="48.1992" lon="3.46094">
        <ele>99</ele>
        <time>2017-12-24T09:37:16.000Z</time>
      </trkpt>
      <trkpt lat="48.19926" lon="3.46067">
        <ele>99.599998474121</ele>
        <time>2017-12-24T09:37:23.000Z</time>
      </trkpt>
      <trkpt lat="48.19927" lon="3.46063">
        <ele>100.40000152588</ele>
        <time>2017-12-24T09:37:24.000Z</time>
      </trkpt>
      <trkpt lat="48.19928" lon="3.4606">
        <ele>100.80000305176</ele>
        <time>2017-12-24T09:37:25.000Z</time>
      </trkpt>
      <trkpt lat="48.19929" lon="3.46056">
        <ele>101.19999694824</ele>
        <time>2017-12-24T09:37:26.000Z</time>
      </trkpt>
      <trkpt lat="48.19931" lon="3.46044">
        <ele>101.59999847412</ele>
        <time>2017-12-24T09:37:29.000Z</time>
      </trkpt>
      <trkpt lat="48.19932" lon="3.4604">
        <ele>102</ele>
        <time>2017-12-24T09:37:30.000Z</time>
      </trkpt>
      <trkpt lat="48.19933" lon="3.46037">
        <ele>102.40000152588</ele>
        <time>2017-12-24T09:37:31.000Z</time>
      </trkpt>
      <trkpt lat="48.19934" lon="3.46033">
        <ele>103</ele>
        <time>2017-12-24T09:37:32.000Z</time>
      </trkpt>
      <trkpt lat="48.19934" lon="3.4603">
        <ele>103.40000152588</ele>
        <time>2017-12-24T09:37:33.000Z</time>
      </trkpt>
      <trkpt lat="48.19937" lon="3.46018">
        <ele>103.80000305176</ele>
        <time>2017-12-24T09:37:36.000Z</time>
      </trkpt>
      <trkpt lat="48.19938" lon="3.46015">
        <ele>104.19999694824</ele>
        <time>2017-12-24T09:37:37.000Z</time>
      </trkpt>
      <trkpt lat="48.19939" lon="3.46011">
        <ele>104.59999847412</ele>
        <time>2017-12-24T09:37:38.000Z</time>
      </trkpt>
      <trkpt lat="48.1994" lon="3.46007">
        <ele>105</ele>
        <time>2017-12-24T09:37:39.000Z</time>
      </trkpt>
      <trkpt lat="48.19941" lon="3.46003">
        <ele>105.40000152588</ele>
        <time>2017-12-24T09:37:40.000Z</time>
      </trkpt>
      <trkpt lat="48.19944" lon="3.45988">
        <ele>106</ele>
        <time>2017-12-24T09:37:44.000Z</time>
      </trkpt>
      <trkpt lat="48.19945" lon="3.45984">
        <ele>106.40000152588</ele>
        <time>2017-12-24T09:37:45.000Z</time>
      </trkpt>
      <trkpt lat="48.19946" lon="3.4598">
        <ele>106.80000305176</ele>
        <time>2017-12-24T09:37:46.000Z</time>
      </trkpt>
      <trkpt lat="48.19947" lon="3.45976">
        <ele>107.19999694824</ele>
        <time>2017-12-24T09:37:47.000Z</time>
      </trkpt>
      <trkpt lat="48.19948" lon="3.45972">
        <ele>107.59999847412</ele>
        <time>2017-12-24T09:37:48.000Z</time>
      </trkpt>
      <trkpt lat="48.19951" lon="3.4596">
        <ele>108</ele>
        <time>2017-12-24T09:37:51.000Z</time>
      </trkpt>
      <trkpt lat="48.19952" lon="3.45955">
        <ele>108.40000152588</ele>
        <time>2017-12-24T09:37:52.000Z</time>
      </trkpt>
      <trkpt lat="48.19953" lon="3.45951">
        <ele>108.80000305176</ele>
        <time>2017-12-24T09:37:53.000Z</time>
      </trkpt>
    </trkseg>
  </trk>
</gpx>